Check out our new PWSWeather beta!
PWSweather.com
Personal Weather Stations
Station Observations
98619
Glenwood, WA 98619

Glenwood, WA 98619

Lat: 46.016, Lon: -121.275

Elevation: 1885

Station Type: Davis Vantage Pro2

www.glenwoodwashingtonweather.info

High Low Average
Temperature 33.7°F0.9°C 29.4°F-1.4°C 31.2°F-0.4°C
Dew Point 26.0°F-3.3°C 20.6°F-6.3°C 23.6°F-4.7°C
Winds 25.0 mph 40.2 kmh 2.0 mph 3.2 kmh 10.0 mph NE16.1 kmh NE
Wind Gusts 32.0 mph51.5 kmh 14.0 mph22.5 kmh 21.0 mph33.8 kmh
Humidity 80% 67% 73%
Pressure 29.78 in1008.5 mb 29.47 in998.0 mb -
Precipitation 0.00 in0.0 mm - -
Hour Temp Dew Point Humidity Winds Wind Gusts Pressure Precip Precip Rate Daily Precip Total
12:00 AM 30.5°F-0.8°C 25.1°F-3.8°C 80% 6.0 mph NNE9.7 kmh NNE 22.0 mph35.4 kmh 29.50 in999.0 mb 0.00 in0.0 mm 0.00 in0.0 mm 0.00 in0.0 mm
12:01 AM 30.5°F-0.8°C 25.1°F-3.8°C 80% 6.0 mph NNE9.7 kmh NNE 22.0 mph35.4 kmh 29.50 in999.0 mb 0.00 in0.0 mm 0.00 in0.0 mm 0.00 in0.0 mm
12:02 AM 30.5°F-0.8°C 25.1°F-3.8°C 80% 9.0 mph N14.5 kmh N 22.0 mph35.4 kmh 29.50 in999.0 mb 0.00 in0.0 mm 0.00 in0.0 mm 0.00 in0.0 mm
12:03 AM 30.5°F-0.8°C 25.1°F-3.8°C 80% 9.0 mph NE14.5 kmh NE 22.0 mph35.4 kmh 29.50 in999.0 mb 0.00 in0.0 mm 0.00 in0.0 mm 0.00 in0.0 mm
12:04 AM 30.5°F-0.8°C 25.1°F-3.8°C 80% 10.0 mph NE16.1 kmh NE 22.0 mph35.4 kmh 29.50 in999.0 mb 0.00 in0.0 mm 0.00 in0.0 mm 0.00 in0.0 mm
12:05 AM 30.5°F-0.8°C 25.1°F-3.8°C 80% 7.0 mph NE11.3 kmh NE 22.0 mph35.4 kmh 29.50 in999.0 mb 0.00 in0.0 mm 0.00 in0.0 mm 0.00 in0.0 mm
12:06 AM 30.5°F-0.8°C 25.1°F-3.8°C 80% 7.0 mph NE11.3 kmh NE 22.0 mph35.4 kmh 29.50 in999.0 mb 0.00 in0.0 mm 0.00 in0.0 mm 0.00 in0.0 mm
12:07 AM 30.5°F-0.8°C 25.1°F-3.8°C 80% 6.0 mph NNE9.7 kmh NNE 20.0 mph32.2 kmh 29.50 in999.0 mb 0.00 in0.0 mm 0.00 in0.0 mm 0.00 in0.0 mm
12:08 AM 30.5°F-0.8°C 25.1°F-3.8°C 80% 10.0 mph NE16.1 kmh NE 20.0 mph32.2 kmh 29.50 in999.0 mb 0.00 in0.0 mm 0.00 in0.0 mm 0.00 in0.0 mm
12:09 AM 30.5°F-0.8°C 25.1°F-3.8°C 80% 4.0 mph NE6.4 kmh NE 20.0 mph32.2 kmh 29.50 in999.0 mb 0.00 in0.0 mm 0.00 in0.0 mm 0.00 in0.0 mm
12:10 AM 30.5°F-0.8°C 25.1°F-3.8°C 80% 10.0 mph NE16.1 kmh NE 20.0 mph32.2 kmh 29.50 in999.0 mb 0.00 in0.0 mm 0.00 in0.0 mm 0.00 in0.0 mm
12:11 AM 30.5°F-0.8°C 25.1°F-3.8°C 80% 9.0 mph NE14.5 kmh NE 20.0 mph32.2 kmh 29.50 in999.0 mb 0.00 in0.0 mm 0.00 in0.0 mm 0.00 in0.0 mm
12:12 AM 30.5°F-0.8°C 25.1°F-3.8°C 80% 11.0 mph NNE17.7 kmh NNE 20.0 mph32.2 kmh 29.50 in999.0 mb 0.00 in0.0 mm 0.00 in0.0 mm 0.00 in0.0 mm
12:13 AM 30.5°F-0.8°C 25.1°F-3.8°C 80% 10.0 mph NE16.1 kmh NE 20.0 mph32.2 kmh 29.50 in999.0 mb 0.00 in0.0 mm 0.00 in0.0 mm 0.00 in0.0 mm
12:14 AM 30.5°F-0.8°C 25.1°F-3.8°C 80% 7.0 mph NE11.3 kmh NE 20.0 mph32.2 kmh 29.49 in998.6 mb 0.00 in0.0 mm 0.00 in0.0 mm 0.00 in0.0 mm
12:15 AM 30.5°F-0.8°C 25.1°F-3.8°C 80% 10.0 mph NNE16.1 kmh NNE 20.0 mph32.2 kmh 29.49 in998.6 mb 0.00 in0.0 mm 0.00 in0.0 mm 0.00 in0.0 mm
12:16 AM 30.5°F-0.8°C 25.1°F-3.8°C 80% 10.0 mph NE16.1 kmh NE 20.0 mph32.2 kmh 29.49 in998.6 mb 0.00 in0.0 mm 0.00 in0.0 mm 0.00 in0.0 mm
12:17 AM 30.5°F-0.8°C 25.1°F-3.8°C 80% 12.0 mph NE19.3 kmh NE 18.0 mph29.0 kmh 29.49 in998.6 mb 0.00 in0.0 mm 0.00 in0.0 mm 0.00 in0.0 mm
12:18 AM 30.5°F-0.8°C 25.1°F-3.8°C 80% 9.0 mph NNE14.5 kmh NNE 18.0 mph29.0 kmh 29.49 in998.6 mb 0.00 in0.0 mm 0.00 in0.0 mm 0.00 in0.0 mm
12:19 AM 30.5°F-0.8°C 25.1°F-3.8°C 80% 8.0 mph NE12.9 kmh NE 18.0 mph29.0 kmh 29.49 in998.6 mb 0.00 in0.0 mm 0.00 in0.0 mm 0.00 in0.0 mm
12:20 AM 30.5°F-0.8°C 25.1°F-3.8°C 80% 4.0 mph N6.4 kmh N 18.0 mph29.0 kmh 29.49 in998.6 mb 0.00 in0.0 mm 0.00 in0.0 mm 0.00 in0.0 mm
12:21 AM 30.5°F-0.8°C 25.1°F-3.8°C 80% 11.0 mph N17.7 kmh N 18.0 mph29.0 kmh 29.49 in998.6 mb 0.00 in0.0 mm 0.00 in0.0 mm 0.00 in0.0 mm
12:22 AM 30.4°F-0.9°C 25.0°F-3.9°C 80% 10.0 mph NE16.1 kmh NE 18.0 mph29.0 kmh 29.49 in998.6 mb 0.00 in0.0 mm 0.00 in0.0 mm 0.00 in0.0 mm
12:23 AM 30.4°F-0.9°C 25.0°F-3.9°C 80% 10.0 mph NE16.1 kmh NE 18.0 mph29.0 kmh 29.49 in998.6 mb 0.00 in0.0 mm 0.00 in0.0 mm 0.00 in0.0 mm
12:24 AM 30.4°F-0.9°C 25.0°F-3.9°C 80% 7.0 mph 11.3 kmh 18.0 mph29.0 kmh 29.49 in998.6 mb 0.00 in0.0 mm 0.00 in0.0 mm 0.00 in0.0 mm
12:25 AM 30.4°F-0.9°C 25.0°F-3.9°C 80% 3.0 mph NNE4.8 kmh NNE 18.0 mph29.0 kmh 29.49 in998.6 mb 0.00 in0.0 mm 0.00 in0.0 mm 0.00 in0.0 mm
12:26 AM 30.4°F-0.9°C 25.0°F-3.9°C 80% 6.0 mph NE9.7 kmh NE 18.0 mph29.0 kmh 29.49 in998.6 mb 0.00 in0.0 mm 0.00 in0.0 mm 0.00 in0.0 mm
12:27 AM 30.4°F-0.9°C 25.0°F-3.9°C 80% 4.0 mph NNE6.4 kmh NNE 15.0 mph24.1 kmh 29.49 in998.6 mb 0.00 in0.0 mm 0.00 in0.0 mm 0.00 in0.0 mm
12:28 AM 30.3°F-0.9°C 24.9°F-3.9°C 80% 10.0 mph NE16.1 kmh NE 15.0 mph24.1 kmh 29.49 in998.6 mb 0.00 in0.0 mm 0.00 in0.0 mm 0.00 in0.0 mm
12:29 AM 30.3°F-0.9°C 24.9°F-3.9°C 80% 5.0 mph N8.0 kmh N 15.0 mph24.1 kmh 29.49 in998.6 mb 0.00 in0.0 mm 0.00 in0.0 mm 0.00 in0.0 mm
12:30 AM 30.3°F-0.9°C 24.9°F-3.9°C 80% 9.0 mph ENE14.5 kmh ENE 15.0 mph24.1 kmh 29.49 in998.6 mb 0.00 in0.0 mm 0.00 in0.0 mm 0.00 in0.0 mm
12:31 AM 30.3°F-0.9°C 24.9°F-3.9°C 80% 15.0 mph N24.1 kmh N 15.0 mph24.1 kmh 29.49 in998.6 mb 0.00 in0.0 mm 0.00 in0.0 mm 0.00 in0.0 mm
12:32 AM 30.3°F-0.9°C 24.9°F-3.9°C 80% 8.0 mph NNE12.9 kmh NNE 15.0 mph24.1 kmh 29.49 in998.6 mb 0.00 in0.0 mm 0.00 in0.0 mm 0.00 in0.0 mm
12:33 AM 30.3°F-0.9°C 24.9°F-3.9°C 80% 10.0 mph NE16.1 kmh NE 15.0 mph24.1 kmh 29.49 in998.6 mb 0.00 in0.0 mm 0.00 in0.0 mm 0.00 in0.0 mm
12:34 AM 30.3°F-0.9°C 24.9°F-3.9°C 80% 13.0 mph NE20.9 kmh NE 15.0 mph24.1 kmh 29.49 in998.6 mb 0.00 in0.0 mm 0.00 in0.0 mm 0.00 in0.0 mm
12:35 AM 30.3°F-0.9°C 24.9°F-3.9°C 80% 8.0 mph NE12.9 kmh NE 15.0 mph24.1 kmh 29.49 in998.6 mb 0.00 in0.0 mm 0.00 in0.0 mm 0.00 in0.0 mm
12:36 AM 30.3°F-0.9°C 24.9°F-3.9°C 80% 7.0 mph N11.3 kmh N 15.0 mph24.1 kmh 29.49 in998.6 mb 0.00 in0.0 mm 0.00 in0.0 mm 0.00 in0.0 mm
12:37 AM 30.3°F-0.9°C 24.9°F-3.9°C 80% 8.0 mph NE12.9 kmh NE 15.0 mph24.1 kmh 29.49 in998.6 mb 0.00 in0.0 mm 0.00 in0.0 mm 0.00 in0.0 mm
12:38 AM 30.4°F-0.9°C 25.0°F-3.9°C 80% 7.0 mph N11.3 kmh N 15.0 mph24.1 kmh 29.49 in998.6 mb 0.00 in0.0 mm 0.00 in0.0 mm 0.00 in0.0 mm
12:39 AM 30.3°F-0.9°C 24.9°F-3.9°C 80% 6.0 mph NE9.7 kmh NE 15.0 mph24.1 kmh 29.49 in998.6 mb 0.00 in0.0 mm 0.00 in0.0 mm 0.00 in0.0 mm
12:40 AM 30.4°F-0.9°C 24.7°F-4.1°C 79% 6.0 mph NE9.7 kmh NE 15.0 mph24.1 kmh 29.49 in998.6 mb 0.00 in0.0 mm 0.00 in0.0 mm 0.00 in0.0 mm
12:41 AM 30.4°F-0.9°C 24.7°F-4.1°C 79% 10.0 mph NNE16.1 kmh NNE 15.0 mph24.1 kmh 29.49 in998.6 mb 0.00 in0.0 mm 0.00 in0.0 mm 0.00 in0.0 mm
12:42 AM 30.4°F-0.9°C 25.0°F-3.9°C 80% 15.0 mph N24.1 kmh N 15.0 mph24.1 kmh 29.49 in998.6 mb 0.00 in0.0 mm 0.00 in0.0 mm 0.00 in0.0 mm
12:43 AM 30.4°F-0.9°C 24.7°F-4.1°C 79% 9.0 mph N14.5 kmh N 16.0 mph25.7 kmh 29.49 in998.6 mb 0.00 in0.0 mm 0.00 in0.0 mm 0.00 in0.0 mm
12:44 AM 30.4°F-0.9°C 24.7°F-4.1°C 79% 12.0 mph NE19.3 kmh NE 16.0 mph25.7 kmh 29.49 in998.6 mb 0.00 in0.0 mm 0.00 in0.0 mm 0.00 in0.0 mm
12:45 AM 30.4°F-0.9°C 24.7°F-4.1°C 79% 5.0 mph NE8.0 kmh NE 16.0 mph25.7 kmh 29.49 in998.6 mb 0.00 in0.0 mm 0.00 in0.0 mm 0.00 in0.0 mm
12:46 AM 30.4°F-0.9°C 24.7°F-4.1°C 79% 6.0 mph NNE9.7 kmh NNE 16.0 mph25.7 kmh 29.49 in998.6 mb 0.00 in0.0 mm 0.00 in0.0 mm 0.00 in0.0 mm
12:47 AM 30.4°F-0.9°C 24.7°F-4.1°C 79% 7.0 mph NNE11.3 kmh NNE 16.0 mph25.7 kmh 29.49 in998.6 mb 0.00 in0.0 mm 0.00 in0.0 mm 0.00 in0.0 mm
12:48 AM 30.4°F-0.9°C 24.7°F-4.1°C 79% 14.0 mph N22.5 kmh N 16.0 mph25.7 kmh 29.49 in998.6 mb 0.00 in0.0 mm 0.00 in0.0 mm 0.00 in0.0 mm
12:49 AM 30.4°F-0.9°C 24.7°F-4.1°C 79% 5.0 mph NE8.0 kmh NE 16.0 mph25.7 kmh 29.49 in998.6 mb 0.00 in0.0 mm 0.00 in0.0 mm 0.00 in0.0 mm
12:50 AM 30.4°F-0.9°C 25.0°F-3.9°C 80% 11.0 mph ENE17.7 kmh ENE 16.0 mph25.7 kmh 29.49 in998.6 mb 0.00 in0.0 mm 0.00 in0.0 mm 0.00 in0.0 mm
12:51 AM 30.4°F-0.9°C 25.0°F-3.9°C 80% 11.0 mph NE17.7 kmh NE 18.0 mph29.0 kmh 29.49 in998.6 mb 0.00 in0.0 mm 0.00 in0.0 mm 0.00 in0.0 mm
12:52 AM 30.4°F-0.9°C 25.0°F-3.9°C 80% 12.0 mph NE19.3 kmh NE 18.0 mph29.0 kmh 29.49 in998.6 mb 0.00 in0.0 mm 0.00 in0.0 mm 0.00 in0.0 mm
12:53 AM 30.4°F-0.9°C 25.0°F-3.9°C 80% 6.0 mph N9.7 kmh N 18.0 mph29.0 kmh 29.48 in998.3 mb 0.00 in0.0 mm 0.00 in0.0 mm 0.00 in0.0 mm
12:54 AM 30.3°F-0.9°C 24.9°F-3.9°C 80% 5.0 mph ENE8.0 kmh ENE 18.0 mph29.0 kmh 29.48 in998.3 mb 0.00 in0.0 mm 0.00 in0.0 mm 0.00 in0.0 mm
12:55 AM 30.3°F-0.9°C 24.9°F-3.9°C 80% 6.0 mph N9.7 kmh N 18.0 mph29.0 kmh 29.48 in998.3 mb 0.00 in0.0 mm 0.00 in0.0 mm 0.00 in0.0 mm
12:56 AM 30.4°F-0.9°C 24.7°F-4.1°C 79% 13.0 mph NE20.9 kmh NE 18.0 mph29.0 kmh 29.49 in998.6 mb 0.00 in0.0 mm 0.00 in0.0 mm 0.00 in0.0 mm
12:57 AM 30.4°F-0.9°C 24.7°F-4.1°C 79% 3.0 mph NNE4.8 kmh NNE 18.0 mph29.0 kmh 29.48 in998.3 mb 0.00 in0.0 mm 0.00 in0.0 mm 0.00 in0.0 mm
12:58 AM 30.3°F-0.9°C 24.6°F-4.1°C 79% 10.0 mph NE16.1 kmh NE 18.0 mph29.0 kmh 29.48 in998.3 mb 0.00 in0.0 mm 0.00 in0.0 mm 0.00 in0.0 mm
12:59 AM 30.4°F-0.9°C 24.7°F-4.1°C 79% 8.0 mph NNE12.9 kmh NNE 18.0 mph29.0 kmh 29.48 in998.3 mb 0.00 in0.0 mm 0.00 in0.0 mm 0.00 in0.0 mm
01:00 AM 30.3°F-0.9°C 24.6°F-4.1°C 79% 5.0 mph N8.0 kmh N 18.0 mph29.0 kmh 29.48 in998.3 mb 0.00 in0.0 mm 0.00 in0.0 mm 0.00 in0.0 mm
01:01 AM 30.3°F-0.9°C 24.6°F-4.1°C 79% 6.0 mph NE9.7 kmh NE 18.0 mph29.0 kmh 29.48 in998.3 mb 0.00 in0.0 mm 0.00 in0.0 mm 0.00 in0.0 mm
01:02 AM 30.3°F-0.9°C 24.6°F-4.1°C 79% 10.0 mph NNE16.1 kmh NNE 18.0 mph29.0 kmh 29.48 in998.3 mb 0.00 in0.0 mm 0.00 in0.0 mm 0.00 in0.0 mm
01:03 AM 30.3°F-0.9°C 24.6°F-4.1°C 79% 7.0 mph NNE11.3 kmh NNE 18.0 mph29.0 kmh 29.48 in998.3 mb 0.00 in0.0 mm 0.00 in0.0 mm 0.00 in0.0 mm
01:04 AM 30.3°F-0.9°C 24.6°F-4.1°C 79% 8.0 mph N12.9 kmh N 18.0 mph29.0 kmh 29.48 in998.3 mb 0.00 in0.0 mm 0.00 in0.0 mm 0.00 in0.0 mm
01:05 AM 30.3°F-0.9°C 24.6°F-4.1°C 79% 8.0 mph NE12.9 kmh NE 18.0 mph29.0 kmh 29.48 in998.3 mb 0.00 in0.0 mm 0.00 in0.0 mm 0.00 in0.0 mm
01:06 AM 30.3°F-0.9°C 24.6°F-4.1°C 79% 11.0 mph N17.7 kmh N 18.0 mph29.0 kmh 29.48 in998.3 mb 0.00 in0.0 mm 0.00 in0.0 mm 0.00 in0.0 mm
01:07 AM 30.4°F-0.9°C 24.4°F-4.2°C 78% 8.0 mph NE12.9 kmh NE 18.0 mph29.0 kmh 29.48 in998.3 mb 0.00 in0.0 mm 0.00 in0.0 mm 0.00 in0.0 mm
01:08 AM 30.4°F-0.9°C 24.7°F-4.1°C 79% 10.0 mph NE16.1 kmh NE 18.0 mph29.0 kmh 29.48 in998.3 mb 0.00 in0.0 mm 0.00 in0.0 mm 0.00 in0.0 mm
01:09 AM 30.4°F-0.9°C 24.7°F-4.1°C 79% 12.0 mph N19.3 kmh N 18.0 mph29.0 kmh 29.48 in998.3 mb 0.00 in0.0 mm 0.00 in0.0 mm 0.00 in0.0 mm
01:10 AM 30.4°F-0.9°C 24.7°F-4.1°C 79% 7.0 mph N11.3 kmh N 18.0 mph29.0 kmh 29.48 in998.3 mb 0.00 in0.0 mm 0.00 in0.0 mm 0.00 in0.0 mm
01:11 AM 30.4°F-0.9°C 24.4°F-4.2°C 78% 6.0 mph NE9.7 kmh NE 16.0 mph25.7 kmh 29.48 in998.3 mb 0.00 in0.0 mm 0.00 in0.0 mm 0.00 in0.0 mm
01:12 AM 30.3°F-0.9°C 24.3°F-4.3°C 78% 7.0 mph NNE11.3 kmh NNE 16.0 mph25.7 kmh 29.48 in998.3 mb 0.00 in0.0 mm 0.00 in0.0 mm 0.00 in0.0 mm
01:13 AM 30.3°F-0.9°C 24.3°F-4.3°C 78% 6.0 mph NE9.7 kmh NE 16.0 mph25.7 kmh 29.48 in998.3 mb 0.00 in0.0 mm 0.00 in0.0 mm 0.00 in0.0 mm
01:14 AM 30.3°F-0.9°C 24.3°F-4.3°C 78% 6.0 mph NE9.7 kmh NE 16.0 mph25.7 kmh 29.48 in998.3 mb 0.00 in0.0 mm 0.00 in0.0 mm 0.00 in0.0 mm
01:15 AM 30.3°F-0.9°C 24.6°F-4.1°C 79% 6.0 mph N9.7 kmh N 16.0 mph25.7 kmh 29.48 in998.3 mb 0.00 in0.0 mm 0.00 in0.0 mm 0.00 in0.0 mm
01:16 AM 30.3°F-0.9°C 24.3°F-4.3°C 78% 8.0 mph NNE12.9 kmh NNE 16.0 mph25.7 kmh 29.48 in998.3 mb 0.00 in0.0 mm 0.00 in0.0 mm 0.00 in0.0 mm
01:17 AM 30.3°F-0.9°C 24.3°F-4.3°C 78% 7.0 mph NNE11.3 kmh NNE 16.0 mph25.7 kmh 29.48 in998.3 mb 0.00 in0.0 mm 0.00 in0.0 mm 0.00 in0.0 mm
01:18 AM 30.3°F-0.9°C 24.3°F-4.3°C 78% 7.0 mph N11.3 kmh N 16.0 mph25.7 kmh 29.48 in998.3 mb 0.00 in0.0 mm 0.00 in0.0 mm 0.00 in0.0 mm
01:19 AM 30.3°F-0.9°C 24.3°F-4.3°C 78% 9.0 mph NE14.5 kmh NE 16.0 mph25.7 kmh 29.48 in998.3 mb 0.00 in0.0 mm 0.00 in0.0 mm 0.00 in0.0 mm
01:20 AM 30.4°F-0.9°C 24.4°F-4.2°C 78% 11.0 mph N17.7 kmh N 17.0 mph27.4 kmh 29.48 in998.3 mb 0.00 in0.0 mm 0.00 in0.0 mm 0.00 in0.0 mm
01:21 AM 30.4°F-0.9°C 24.4°F-4.2°C 78% 8.0 mph NE12.9 kmh NE 17.0 mph27.4 kmh 29.48 in998.3 mb 0.00 in0.0 mm 0.00 in0.0 mm 0.00 in0.0 mm
01:22 AM 30.4°F-0.9°C 24.4°F-4.2°C 78% 8.0 mph NE12.9 kmh NE 17.0 mph27.4 kmh 29.48 in998.3 mb 0.00 in0.0 mm 0.00 in0.0 mm 0.00 in0.0 mm
01:23 AM 30.3°F-0.9°C 24.3°F-4.3°C 78% 5.0 mph NNE8.0 kmh NNE 17.0 mph27.4 kmh 29.48 in998.3 mb 0.00 in0.0 mm 0.00 in0.0 mm 0.00 in0.0 mm
01:24 AM 30.3°F-0.9°C 24.3°F-4.3°C 78% 8.0 mph NNE12.9 kmh NNE 17.0 mph27.4 kmh 29.48 in998.3 mb 0.00 in0.0 mm 0.00 in0.0 mm 0.00 in0.0 mm
01:25 AM 30.3°F-0.9°C 24.3°F-4.3°C 78% 9.0 mph NNE14.5 kmh NNE 17.0 mph27.4 kmh 29.48 in998.3 mb 0.00 in0.0 mm 0.00 in0.0 mm 0.00 in0.0 mm
01:26 AM 30.3°F-0.9°C 24.3°F-4.3°C 78% 5.0 mph NNE8.0 kmh NNE 17.0 mph27.4 kmh 29.48 in998.3 mb 0.00 in0.0 mm 0.00 in0.0 mm 0.00 in0.0 mm
01:27 AM 30.3°F-0.9°C 24.3°F-4.3°C 78% 6.0 mph NE9.7 kmh NE 17.0 mph27.4 kmh 29.48 in998.3 mb 0.00 in0.0 mm 0.00 in0.0 mm 0.00 in0.0 mm
01:28 AM 30.3°F-0.9°C 24.3°F-4.3°C 78% 7.0 mph N11.3 kmh N 17.0 mph27.4 kmh 29.48 in998.3 mb 0.00 in0.0 mm 0.00 in0.0 mm 0.00 in0.0 mm
01:29 AM 30.3°F-0.9°C 24.3°F-4.3°C 78% 6.0 mph NNE9.7 kmh NNE 17.0 mph27.4 kmh 29.48 in998.3 mb 0.00 in0.0 mm 0.00 in0.0 mm 0.00 in0.0 mm
01:30 AM 30.3°F-0.9°C 24.3°F-4.3°C 78% 9.0 mph NE14.5 kmh NE 19.0 mph30.6 kmh 29.48 in998.3 mb 0.00 in0.0 mm 0.00 in0.0 mm 0.00 in0.0 mm
01:31 AM 30.3°F-0.9°C 24.3°F-4.3°C 78% 5.0 mph NNE8.0 kmh NNE 19.0 mph30.6 kmh 29.48 in998.3 mb 0.00 in0.0 mm 0.00 in0.0 mm 0.00 in0.0 mm
01:32 AM 30.3°F-0.9°C 24.3°F-4.3°C 78% 7.0 mph NNE11.3 kmh NNE 19.0 mph30.6 kmh 29.48 in998.3 mb 0.00 in0.0 mm 0.00 in0.0 mm 0.00 in0.0 mm
01:33 AM 30.3°F-0.9°C 24.3°F-4.3°C 78% 7.0 mph N11.3 kmh N 19.0 mph30.6 kmh 29.48 in998.3 mb 0.00 in0.0 mm 0.00 in0.0 mm 0.00 in0.0 mm
01:34 AM 30.3°F-0.9°C 24.3°F-4.3°C 78% 6.0 mph NNE9.7 kmh NNE 19.0 mph30.6 kmh 29.48 in998.3 mb 0.00 in0.0 mm 0.00 in0.0 mm 0.00 in0.0 mm
01:35 AM 30.3°F-0.9°C 24.3°F-4.3°C 78% 6.0 mph NE9.7 kmh NE 19.0 mph30.6 kmh 29.48 in998.3 mb 0.00 in0.0 mm 0.00 in0.0 mm 0.00 in0.0 mm
01:36 AM 30.3°F-0.9°C 24.3°F-4.3°C 78% 8.0 mph NE12.9 kmh NE 19.0 mph30.6 kmh 29.48 in998.3 mb 0.00 in0.0 mm 0.00 in0.0 mm 0.00 in0.0 mm
01:37 AM 30.3°F-0.9°C 24.3°F-4.3°C 78% 10.0 mph N16.1 kmh N 19.0 mph30.6 kmh 29.48 in998.3 mb 0.00 in0.0 mm 0.00 in0.0 mm 0.00 in0.0 mm
01:38 AM 30.3°F-0.9°C 24.3°F-4.3°C 78% 7.0 mph NNE11.3 kmh NNE 19.0 mph30.6 kmh 29.48 in998.3 mb 0.00 in0.0 mm 0.00 in0.0 mm 0.00 in0.0 mm
01:39 AM 30.3°F-0.9°C 24.3°F-4.3°C 78% 7.0 mph NNE11.3 kmh NNE 19.0 mph30.6 kmh 29.48 in998.3 mb 0.00 in0.0 mm 0.00 in0.0 mm 0.00 in0.0 mm
01:40 AM 30.3°F-0.9°C 24.3°F-4.3°C 78% 5.0 mph NE8.0 kmh NE 19.0 mph30.6 kmh 29.48 in998.3 mb 0.00 in0.0 mm 0.00 in0.0 mm 0.00 in0.0 mm
01:41 AM 30.3°F-0.9°C 24.3°F-4.3°C 78% 5.0 mph NNE8.0 kmh NNE 19.0 mph30.6 kmh 29.48 in998.3 mb 0.00 in0.0 mm 0.00 in0.0 mm 0.00 in0.0 mm
01:42 AM 30.3°F-0.9°C 24.3°F-4.3°C 78% 8.0 mph NNE12.9 kmh NNE 19.0 mph30.6 kmh 29.48 in998.3 mb 0.00 in0.0 mm 0.00 in0.0 mm 0.00 in0.0 mm
01:43 AM 30.3°F-0.9°C 24.3°F-4.3°C 78% 6.0 mph NE9.7 kmh NE 19.0 mph30.6 kmh 29.48 in998.3 mb 0.00 in0.0 mm 0.00 in0.0 mm 0.00 in0.0 mm
01:44 AM 30.3°F-0.9°C 24.3°F-4.3°C 78% 10.0 mph NE16.1 kmh NE 19.0 mph30.6 kmh 29.48 in998.3 mb 0.00 in0.0 mm 0.00 in0.0 mm 0.00 in0.0 mm
01:45 AM 30.3°F-0.9°C 24.3°F-4.3°C 78% 5.0 mph N8.0 kmh N 19.0 mph30.6 kmh 29.48 in998.3 mb 0.00 in0.0 mm 0.00 in0.0 mm 0.00 in0.0 mm
01:46 AM 30.3°F-0.9°C 24.0°F-4.4°C 77% 10.0 mph N16.1 kmh N 19.0 mph30.6 kmh 29.48 in998.3 mb 0.00 in0.0 mm 0.00 in0.0 mm 0.00 in0.0 mm
01:47 AM 30.3°F-0.9°C 24.0°F-4.4°C 77% 6.0 mph N9.7 kmh N 19.0 mph30.6 kmh 29.48 in998.3 mb 0.00 in0.0 mm 0.00 in0.0 mm 0.00 in0.0 mm
01:48 AM 30.3°F-0.9°C 24.3°F-4.3°C 78% 8.0 mph NE12.9 kmh NE 19.0 mph30.6 kmh 29.48 in998.3 mb 0.00 in0.0 mm 0.00 in0.0 mm 0.00 in0.0 mm
01:49 AM 30.3°F-0.9°C 24.3°F-4.3°C 78% 10.0 mph NE16.1 kmh NE 19.0 mph30.6 kmh 29.48 in998.3 mb 0.00 in0.0 mm 0.00 in0.0 mm 0.00 in0.0 mm
01:50 AM 30.3°F-0.9°C 24.0°F-4.4°C 77% 14.0 mph N22.5 kmh N 15.0 mph24.1 kmh 29.48 in998.3 mb 0.00 in0.0 mm 0.00 in0.0 mm 0.00 in0.0 mm
01:51 AM 30.3°F-0.9°C 24.0°F-4.4°C 77% 15.0 mph N24.1 kmh N 15.0 mph24.1 kmh 29.48 in998.3 mb 0.00 in0.0 mm 0.00 in0.0 mm 0.00 in0.0 mm
01:52 AM 30.3°F-0.9°C 24.0°F-4.4°C 77% 7.0 mph NE11.3 kmh NE 15.0 mph24.1 kmh 29.48 in998.3 mb 0.00 in0.0 mm 0.00 in0.0 mm 0.00 in0.0 mm
01:53 AM 30.3°F-0.9°C 24.0°F-4.4°C 77% 8.0 mph NNE12.9 kmh NNE 15.0 mph24.1 kmh 29.48 in998.3 mb 0.00 in0.0 mm 0.00 in0.0 mm 0.00 in0.0 mm
01:54 AM 30.3°F-0.9°C 24.0°F-4.4°C 77% 13.0 mph NE20.9 kmh NE 15.0 mph24.1 kmh 29.48 in998.3 mb 0.00 in0.0 mm 0.00 in0.0 mm 0.00 in0.0 mm
01:55 AM 30.4°F-0.9°C 24.1°F-4.4°C 77% 13.0 mph NNE20.9 kmh NNE 15.0 mph24.1 kmh 29.48 in998.3 mb 0.00 in0.0 mm 0.00 in0.0 mm 0.00 in0.0 mm
01:56 AM 30.3°F-0.9°C 24.0°F-4.4°C 77% 8.0 mph N12.9 kmh N 15.0 mph24.1 kmh 29.48 in998.3 mb 0.00 in0.0 mm 0.00 in0.0 mm 0.00 in0.0 mm
01:57 AM 30.4°F-0.9°C 24.1°F-4.4°C 77% 6.0 mph NE9.7 kmh NE 15.0 mph24.1 kmh 29.48 in998.3 mb 0.00 in0.0 mm 0.00 in0.0 mm 0.00 in0.0 mm
01:58 AM 30.4°F-0.9°C 24.1°F-4.4°C 77% 8.0 mph NNE12.9 kmh NNE 15.0 mph24.1 kmh 29.48 in998.3 mb 0.00 in0.0 mm 0.00 in0.0 mm 0.00 in0.0 mm
01:59 AM 30.4°F-0.9°C 24.1°F-4.4°C 77% 9.0 mph N14.5 kmh N 15.0 mph24.1 kmh 29.48 in998.3 mb 0.00 in0.0 mm 0.00 in0.0 mm 0.00 in0.0 mm
02:00 AM 30.3°F-0.9°C 24.0°F-4.4°C 77% 7.0 mph NE11.3 kmh NE 15.0 mph24.1 kmh 29.48 in998.3 mb 0.00 in0.0 mm 0.00 in0.0 mm 0.00 in0.0 mm
02:01 AM 30.3°F-0.9°C 24.0°F-4.4°C 77% 6.0 mph NE9.7 kmh NE 15.0 mph24.1 kmh 29.48 in998.3 mb 0.00 in0.0 mm 0.00 in0.0 mm 0.00 in0.0 mm
02:02 AM 30.4°F-0.9°C 24.1°F-4.4°C 77% 11.0 mph NE17.7 kmh NE 15.0 mph24.1 kmh 29.48 in998.3 mb 0.00 in0.0 mm 0.00 in0.0 mm 0.00 in0.0 mm
02:03 AM 30.4°F-0.9°C 24.1°F-4.4°C 77% 10.0 mph NE16.1 kmh NE 15.0 mph24.1 kmh 29.48 in998.3 mb 0.00 in0.0 mm 0.00 in0.0 mm 0.00 in0.0 mm
02:04 AM 30.4°F-0.9°C 24.1°F-4.4°C 77% 7.0 mph NE11.3 kmh NE 16.0 mph25.7 kmh 29.48 in998.3 mb 0.00 in0.0 mm 0.00 in0.0 mm 0.00 in0.0 mm
02:05 AM 30.4°F-0.9°C 24.4°F-4.2°C 78% 9.0 mph NNE14.5 kmh NNE 16.0 mph25.7 kmh 29.48 in998.3 mb 0.00 in0.0 mm 0.00 in0.0 mm 0.00 in0.0 mm
02:06 AM 30.4°F-0.9°C 24.4°F-4.2°C 78% 10.0 mph NE16.1 kmh NE 16.0 mph25.7 kmh 29.48 in998.3 mb 0.00 in0.0 mm 0.00 in0.0 mm 0.00 in0.0 mm
02:07 AM 30.4°F-0.9°C 24.1°F-4.4°C 77% 10.0 mph N16.1 kmh N 16.0 mph25.7 kmh 29.48 in998.3 mb 0.00 in0.0 mm 0.00 in0.0 mm 0.00 in0.0 mm
02:08 AM 30.4°F-0.9°C 24.4°F-4.2°C 78% 7.0 mph N11.3 kmh N 16.0 mph25.7 kmh 29.48 in998.3 mb 0.00 in0.0 mm 0.00 in0.0 mm 0.00 in0.0 mm
02:09 AM 30.4°F-0.9°C 24.4°F-4.2°C 78% 15.0 mph NE24.1 kmh NE 16.0 mph25.7 kmh 29.48 in998.3 mb 0.00 in0.0 mm 0.00 in0.0 mm 0.00 in0.0 mm
02:10 AM 30.4°F-0.9°C 24.4°F-4.2°C 78% 10.0 mph NNW16.1 kmh NNW 17.0 mph27.4 kmh 29.48 in998.3 mb 0.00 in0.0 mm 0.00 in0.0 mm 0.00 in0.0 mm
02:11 AM 30.4°F-0.9°C 24.1°F-4.4°C 77% 12.0 mph NE19.3 kmh NE 17.0 mph27.4 kmh 29.48 in998.3 mb 0.00 in0.0 mm 0.00 in0.0 mm 0.00 in0.0 mm
02:12 AM 30.4°F-0.9°C 24.4°F-4.2°C 78% 9.0 mph N14.5 kmh N 17.0 mph27.4 kmh 29.48 in998.3 mb 0.00 in0.0 mm 0.00 in0.0 mm 0.00 in0.0 mm
02:13 AM 30.4°F-0.9°C 24.1°F-4.4°C 77% 9.0 mph NNE14.5 kmh NNE 17.0 mph27.4 kmh 29.48 in998.3 mb 0.00 in0.0 mm 0.00 in0.0 mm 0.00 in0.0 mm
02:14 AM 30.4°F-0.9°C 24.1°F-4.4°C 77% 7.0 mph NE11.3 kmh NE 17.0 mph27.4 kmh 29.48 in998.3 mb 0.00 in0.0 mm 0.00 in0.0 mm 0.00 in0.0 mm
02:15 AM 30.4°F-0.9°C 24.1°F-4.4°C 77% 13.0 mph N20.9 kmh N 17.0 mph27.4 kmh 29.48 in998.3 mb 0.00 in0.0 mm 0.00 in0.0 mm 0.00 in0.0 mm
02:16 AM 30.4°F-0.9°C 24.1°F-4.4°C 77% 9.0 mph NNW14.5 kmh NNW 17.0 mph27.4 kmh 29.48 in998.3 mb 0.00 in0.0 mm 0.00 in0.0 mm 0.00 in0.0 mm
02:17 AM 30.4°F-0.9°C 24.1°F-4.4°C 77% 6.0 mph N9.7 kmh N 17.0 mph27.4 kmh 29.48 in998.3 mb 0.00 in0.0 mm 0.00 in0.0 mm 0.00 in0.0 mm
02:18 AM 30.4°F-0.9°C 24.1°F-4.4°C 77% 5.0 mph NNE8.0 kmh NNE 17.0 mph27.4 kmh 29.48 in998.3 mb 0.00 in0.0 mm 0.00 in0.0 mm 0.00 in0.0 mm
02:19 AM 30.4°F-0.9°C 24.1°F-4.4°C 77% 7.0 mph N11.3 kmh N 17.0 mph27.4 kmh 29.48 in998.3 mb 0.00 in0.0 mm 0.00 in0.0 mm 0.00 in0.0 mm
02:20 AM 30.4°F-0.9°C 24.1°F-4.4°C 77% 9.0 mph N14.5 kmh N 17.0 mph27.4 kmh 29.48 in998.3 mb 0.00 in0.0 mm 0.00 in0.0 mm 0.00 in0.0 mm
02:21 AM 30.3°F-0.9°C 24.0°F-4.4°C 77% 9.0 mph NE14.5 kmh NE 17.0 mph27.4 kmh 29.48 in998.3 mb 0.00 in0.0 mm 0.00 in0.0 mm 0.00 in0.0 mm
02:22 AM 30.3°F-0.9°C 24.0°F-4.4°C 77% 10.0 mph NE16.1 kmh NE 17.0 mph27.4 kmh 29.48 in998.3 mb 0.00 in0.0 mm 0.00 in0.0 mm 0.00 in0.0 mm
02:23 AM 30.3°F-0.9°C 24.0°F-4.4°C 77% 9.0 mph NNE14.5 kmh NNE 17.0 mph27.4 kmh 29.48 in998.3 mb 0.00 in0.0 mm 0.00 in0.0 mm 0.00 in0.0 mm
02:24 AM 30.3°F-0.9°C 24.0°F-4.4°C 77% 12.0 mph N19.3 kmh N 17.0 mph27.4 kmh 29.48 in998.3 mb 0.00 in0.0 mm 0.00 in0.0 mm 0.00 in0.0 mm
02:25 AM 30.4°F-0.9°C 23.8°F-4.6°C 76% 9.0 mph NE14.5 kmh NE 17.0 mph27.4 kmh 29.48 in998.3 mb 0.00 in0.0 mm 0.00 in0.0 mm 0.00 in0.0 mm
02:26 AM 30.4°F-0.9°C 23.8°F-4.6°C 76% 11.0 mph N17.7 kmh N 17.0 mph27.4 kmh 29.48 in998.3 mb 0.00 in0.0 mm 0.00 in0.0 mm 0.00 in0.0 mm
02:27 AM 30.4°F-0.9°C 23.8°F-4.6°C 76% 12.0 mph N19.3 kmh N 18.0 mph29.0 kmh 29.48 in998.3 mb 0.00 in0.0 mm 0.00 in0.0 mm 0.00 in0.0 mm
02:28 AM 30.4°F-0.9°C 23.8°F-4.6°C 76% 11.0 mph NNE17.7 kmh NNE 18.0 mph29.0 kmh 29.48 in998.3 mb 0.00 in0.0 mm 0.00 in0.0 mm 0.00 in0.0 mm
02:29 AM 30.4°F-0.9°C 23.8°F-4.6°C 76% 13.0 mph NE20.9 kmh NE 18.0 mph29.0 kmh 29.48 in998.3 mb 0.00 in0.0 mm 0.00 in0.0 mm 0.00 in0.0 mm
02:30 AM 30.4°F-0.9°C 24.1°F-4.4°C 77% 11.0 mph NNE17.7 kmh NNE 18.0 mph29.0 kmh 29.47 in998.0 mb 0.00 in0.0 mm 0.00 in0.0 mm 0.00 in0.0 mm
02:31 AM 30.4°F-0.9°C 24.1°F-4.4°C 77% 10.0 mph 16.1 kmh 18.0 mph29.0 kmh 29.48 in998.3 mb 0.00 in0.0 mm 0.00 in0.0 mm 0.00 in0.0 mm
02:32 AM 30.4°F-0.9°C 23.8°F-4.6°C 76% 5.0 mph NNE8.0 kmh NNE 18.0 mph29.0 kmh 29.48 in998.3 mb 0.00 in0.0 mm 0.00 in0.0 mm 0.00 in0.0 mm
02:33 AM 30.3°F-0.9°C 23.7°F-4.6°C 76% 4.0 mph NE6.4 kmh NE 18.0 mph29.0 kmh 29.47 in998.0 mb 0.00 in0.0 mm 0.00 in0.0 mm 0.00 in0.0 mm
02:34 AM 30.3°F-0.9°C 24.0°F-4.4°C 77% 7.0 mph NNE11.3 kmh NNE 18.0 mph29.0 kmh 29.48 in998.3 mb 0.00 in0.0 mm 0.00 in0.0 mm 0.00 in0.0 mm
02:35 AM 30.3°F-0.9°C 24.0°F-4.4°C 77% 10.0 mph N16.1 kmh N 18.0 mph29.0 kmh 29.48 in998.3 mb 0.00 in0.0 mm 0.00 in0.0 mm 0.00 in0.0 mm
02:36 AM 30.3°F-0.9°C 24.0°F-4.4°C 77% 10.0 mph N16.1 kmh N 18.0 mph29.0 kmh 29.48 in998.3 mb 0.00 in0.0 mm 0.00 in0.0 mm 0.00 in0.0 mm
02:37 AM 30.3°F-0.9°C 23.7°F-4.6°C 76% 7.0 mph NE11.3 kmh NE 18.0 mph29.0 kmh 29.47 in998.0 mb 0.00 in0.0 mm 0.00 in0.0 mm 0.00 in0.0 mm
02:38 AM 30.3°F-0.9°C 24.0°F-4.4°C 77% 11.0 mph NNE17.7 kmh NNE 18.0 mph29.0 kmh 29.47 in998.0 mb 0.00 in0.0 mm 0.00 in0.0 mm 0.00 in0.0 mm
02:39 AM 30.3°F-0.9°C 23.7°F-4.6°C 76% 8.0 mph NE12.9 kmh NE 18.0 mph29.0 kmh 29.47 in998.0 mb 0.00 in0.0 mm 0.00 in0.0 mm 0.00 in0.0 mm
02:40 AM 30.3°F-0.9°C 23.7°F-4.6°C 76% 9.0 mph 14.5 kmh 18.0 mph29.0 kmh 29.47 in998.0 mb 0.00 in0.0 mm 0.00 in0.0 mm 0.00 in0.0 mm
02:41 AM 30.3°F-0.9°C 23.7°F-4.6°C 76% 6.0 mph NE9.7 kmh NE 18.0 mph29.0 kmh 29.47 in998.0 mb 0.00 in0.0 mm 0.00 in0.0 mm 0.00 in0.0 mm
02:42 AM 30.3°F-0.9°C 23.7°F-4.6°C 76% 6.0 mph NE9.7 kmh NE 18.0 mph29.0 kmh 29.47 in998.0 mb 0.00 in0.0 mm 0.00 in0.0 mm 0.00 in0.0 mm
02:43 AM 30.3°F-0.9°C 23.7°F-4.6°C 76% 9.0 mph NNE14.5 kmh NNE 18.0 mph29.0 kmh 29.47 in998.0 mb 0.00 in0.0 mm 0.00 in0.0 mm 0.00 in0.0 mm
02:44 AM 30.3°F-0.9°C 23.7°F-4.6°C 76% 12.0 mph NE19.3 kmh NE 18.0 mph29.0 kmh 29.47 in998.0 mb 0.00 in0.0 mm 0.00 in0.0 mm 0.00 in0.0 mm
02:45 AM 30.3°F-0.9°C 23.7°F-4.6°C 76% 10.0 mph NNE16.1 kmh NNE 18.0 mph29.0 kmh 29.47 in998.0 mb 0.00 in0.0 mm 0.00 in0.0 mm 0.00 in0.0 mm
02:46 AM 30.3°F-0.9°C 23.7°F-4.6°C 76% 14.0 mph NE22.5 kmh NE 18.0 mph29.0 kmh 29.47 in998.0 mb 0.00 in0.0 mm 0.00 in0.0 mm 0.00 in0.0 mm
02:47 AM 30.3°F-0.9°C 23.7°F-4.6°C 76% 10.0 mph NNE16.1 kmh NNE 16.0 mph25.7 kmh 29.47 in998.0 mb 0.00 in0.0 mm 0.00 in0.0 mm 0.00 in0.0 mm
02:48 AM 30.3°F-0.9°C 23.7°F-4.6°C 76% 12.0 mph NNE19.3 kmh NNE 18.0 mph29.0 kmh 29.47 in998.0 mb 0.00 in0.0 mm 0.00 in0.0 mm 0.00 in0.0 mm
02:49 AM 30.3°F-0.9°C 23.7°F-4.6°C 76% 12.0 mph NNE19.3 kmh NNE 18.0 mph29.0 kmh 29.47 in998.0 mb 0.00 in0.0 mm 0.00 in0.0 mm 0.00 in0.0 mm
02:50 AM 30.3°F-0.9°C 23.7°F-4.6°C 76% 5.0 mph N8.0 kmh N 18.0 mph29.0 kmh 29.47 in998.0 mb 0.00 in0.0 mm 0.00 in0.0 mm 0.00 in0.0 mm
02:51 AM 30.3°F-0.9°C 23.7°F-4.6°C 76% 7.0 mph NE11.3 kmh NE 18.0 mph29.0 kmh 29.47 in998.0 mb 0.00 in0.0 mm 0.00 in0.0 mm 0.00 in0.0 mm
02:52 AM 30.3°F-0.9°C 24.0°F-4.4°C 77% 8.0 mph NNE12.9 kmh NNE 18.0 mph29.0 kmh 29.47 in998.0 mb 0.00 in0.0 mm 0.00 in0.0 mm 0.00 in0.0 mm
02:53 AM 30.3°F-0.9°C 24.0°F-4.4°C 77% 16.0 mph NE25.7 kmh NE 18.0 mph29.0 kmh 29.47 in998.0 mb 0.00 in0.0 mm 0.00 in0.0 mm 0.00 in0.0 mm
02:54 AM 30.3°F-0.9°C 23.7°F-4.6°C 76% 8.0 mph NE12.9 kmh NE 18.0 mph29.0 kmh 29.47 in998.0 mb 0.00 in0.0 mm 0.00 in0.0 mm 0.00 in0.0 mm
02:55 AM 30.3°F-0.9°C 24.0°F-4.4°C 77% 13.0 mph NE20.9 kmh NE 18.0 mph29.0 kmh 29.48 in998.3 mb 0.00 in0.0 mm 0.00 in0.0 mm 0.00 in0.0 mm
02:56 AM 30.3°F-0.9°C 23.7°F-4.6°C 76% 7.0 mph NE11.3 kmh NE 18.0 mph29.0 kmh 29.47 in998.0 mb 0.00 in0.0 mm 0.00 in0.0 mm 0.00 in0.0 mm
02:57 AM 30.3°F-0.9°C 23.7°F-4.6°C 76% 9.0 mph NNE14.5 kmh NNE 18.0 mph29.0 kmh 29.48 in998.3 mb 0.00 in0.0 mm 0.00 in0.0 mm 0.00 in0.0 mm
02:58 AM 30.4°F-0.9°C 23.8°F-4.6°C 76% 11.0 mph N17.7 kmh N 21.0 mph33.8 kmh 29.48 in998.3 mb 0.00 in0.0 mm 0.00 in0.0 mm 0.00 in0.0 mm
02:59 AM 30.4°F-0.9°C 23.8°F-4.6°C 76% 13.0 mph NE20.9 kmh NE 21.0 mph33.8 kmh 29.48 in998.3 mb 0.00 in0.0 mm 0.00 in0.0 mm 0.00 in0.0 mm
03:00 AM 30.4°F-0.9°C 23.8°F-4.6°C 76% 17.0 mph N27.4 kmh N 21.0 mph33.8 kmh 29.48 in998.3 mb 0.00 in0.0 mm 0.00 in0.0 mm 0.00 in0.0 mm
03:01 AM 30.5°F-0.8°C 23.9°F-4.5°C 76% 13.0 mph NE20.9 kmh NE 21.0 mph33.8 kmh 29.48 in998.3 mb 0.00 in0.0 mm 0.00 in0.0 mm 0.00 in0.0 mm
03:02 AM 30.5°F-0.8°C 23.9°F-4.5°C 76% 13.0 mph NE20.9 kmh NE 21.0 mph33.8 kmh 29.48 in998.3 mb 0.00 in0.0 mm 0.00 in0.0 mm 0.00 in0.0 mm
03:03 AM 30.5°F-0.8°C 23.9°F-4.5°C 76% 10.0 mph NNE16.1 kmh NNE 25.0 mph40.2 kmh 29.48 in998.3 mb 0.00 in0.0 mm 0.00 in0.0 mm 0.00 in0.0 mm
03:04 AM 30.5°F-0.8°C 23.9°F-4.5°C 76% 4.0 mph N6.4 kmh N 25.0 mph40.2 kmh 29.48 in998.3 mb 0.00 in0.0 mm 0.00 in0.0 mm 0.00 in0.0 mm
03:05 AM 30.5°F-0.8°C 23.9°F-4.5°C 76% 10.0 mph NE16.1 kmh NE 25.0 mph40.2 kmh 29.48 in998.3 mb 0.00 in0.0 mm 0.00 in0.0 mm 0.00 in0.0 mm
03:06 AM 30.5°F-0.8°C 23.9°F-4.5°C 76% 6.0 mph N9.7 kmh N 25.0 mph40.2 kmh 29.48 in998.3 mb 0.00 in0.0 mm 0.00 in0.0 mm 0.00 in0.0 mm
03:07 AM 30.5°F-0.8°C 23.9°F-4.5°C 76% 7.0 mph NE11.3 kmh NE 25.0 mph40.2 kmh 29.48 in998.3 mb 0.00 in0.0 mm 0.00 in0.0 mm 0.00 in0.0 mm
03:08 AM 30.5°F-0.8°C 23.9°F-4.5°C 76% 7.0 mph NE11.3 kmh NE 25.0 mph40.2 kmh 29.48 in998.3 mb 0.00 in0.0 mm 0.00 in0.0 mm 0.00 in0.0 mm
03:09 AM 30.5°F-0.8°C 23.9°F-4.5°C 76% 9.0 mph NE14.5 kmh NE 25.0 mph40.2 kmh 29.48 in998.3 mb 0.00 in0.0 mm 0.00 in0.0 mm 0.00 in0.0 mm
03:10 AM 30.5°F-0.8°C 23.9°F-4.5°C 76% 4.0 mph N6.4 kmh N 25.0 mph40.2 kmh 29.47 in998.0 mb 0.00 in0.0 mm 0.00 in0.0 mm 0.00 in0.0 mm
03:11 AM 30.5°F-0.8°C 23.9°F-4.5°C 76% 7.0 mph NE11.3 kmh NE 25.0 mph40.2 kmh 29.48 in998.3 mb 0.00 in0.0 mm 0.00 in0.0 mm 0.00 in0.0 mm
03:12 AM 30.5°F-0.8°C 23.9°F-4.5°C 76% 11.0 mph NE17.7 kmh NE 25.0 mph40.2 kmh 29.48 in998.3 mb 0.00 in0.0 mm 0.00 in0.0 mm 0.00 in0.0 mm
03:13 AM 30.4°F-0.9°C 23.8°F-4.6°C 76% 14.0 mph NNE22.5 kmh NNE 25.0 mph40.2 kmh 29.48 in998.3 mb 0.00 in0.0 mm 0.00 in0.0 mm 0.00 in0.0 mm
03:14 AM 30.4°F-0.9°C 23.8°F-4.6°C 76% 8.0 mph NE12.9 kmh NE 25.0 mph40.2 kmh 29.48 in998.3 mb 0.00 in0.0 mm 0.00 in0.0 mm 0.00 in0.0 mm
03:15 AM 30.5°F-0.8°C 23.9°F-4.5°C 76% 12.0 mph NE19.3 kmh NE 25.0 mph40.2 kmh 29.48 in998.3 mb 0.00 in0.0 mm 0.00 in0.0 mm 0.00 in0.0 mm
03:16 AM 30.5°F-0.8°C 23.9°F-4.5°C 76% 14.0 mph N22.5 kmh N 25.0 mph40.2 kmh 29.47 in998.0 mb 0.00 in0.0 mm 0.00 in0.0 mm 0.00 in0.0 mm
03:17 AM 30.5°F-0.8°C 23.9°F-4.5°C 76% 9.0 mph N14.5 kmh N 25.0 mph40.2 kmh 29.48 in998.3 mb 0.00 in0.0 mm 0.00 in0.0 mm 0.00 in0.0 mm
03:18 AM 30.5°F-0.8°C 23.9°F-4.5°C 76% 8.0 mph NE12.9 kmh NE 25.0 mph40.2 kmh 29.48 in998.3 mb 0.00 in0.0 mm 0.00 in0.0 mm 0.00 in0.0 mm
03:19 AM 30.5°F-0.8°C 23.9°F-4.5°C 76% 12.0 mph 19.3 kmh 25.0 mph40.2 kmh 29.47 in998.0 mb 0.00 in0.0 mm 0.00 in0.0 mm 0.00 in0.0 mm
03:20 AM 30.5°F-0.8°C 23.9°F-4.5°C 76% 10.0 mph N16.1 kmh N 25.0 mph40.2 kmh 29.47 in998.0 mb 0.00 in0.0 mm 0.00 in0.0 mm 0.00 in0.0 mm
03:21 AM 30.4°F-0.9°C 23.8°F-4.6°C 76% 14.0 mph NE22.5 kmh NE 25.0 mph40.2 kmh 29.47 in998.0 mb 0.00 in0.0 mm 0.00 in0.0 mm 0.00 in0.0 mm
03:22 AM 30.4°F-0.9°C 23.8°F-4.6°C 76% 12.0 mph NE19.3 kmh NE 25.0 mph40.2 kmh 29.47 in998.0 mb 0.00 in0.0 mm 0.00 in0.0 mm 0.00 in0.0 mm
03:23 AM 30.5°F-0.8°C 23.9°F-4.5°C 76% 10.0 mph NE16.1 kmh NE 21.0 mph33.8 kmh 29.47 in998.0 mb 0.00 in0.0 mm 0.00 in0.0 mm 0.00 in0.0 mm
03:24 AM 30.4°F-0.9°C 23.8°F-4.6°C 76% 13.0 mph NE20.9 kmh NE 21.0 mph33.8 kmh 29.47 in998.0 mb 0.00 in0.0 mm 0.00 in0.0 mm 0.00 in0.0 mm
03:25 AM 30.4°F-0.9°C 23.8°F-4.6°C 76% 11.0 mph ENE17.7 kmh ENE 21.0 mph33.8 kmh 29.47 in998.0 mb 0.00 in0.0 mm 0.00 in0.0 mm 0.00 in0.0 mm
03:26 AM 30.4°F-0.9°C 23.8°F-4.6°C 76% 8.0 mph NNE12.9 kmh NNE 21.0 mph33.8 kmh 29.47 in998.0 mb 0.00 in0.0 mm 0.00 in0.0 mm 0.00 in0.0 mm
03:27 AM 30.4°F-0.9°C 23.8°F-4.6°C 76% 15.0 mph NE24.1 kmh NE 21.0 mph33.8 kmh 29.47 in998.0 mb 0.00 in0.0 mm 0.00 in0.0 mm 0.00 in0.0 mm
03:28 AM 30.4°F-0.9°C 23.8°F-4.6°C 76% 12.0 mph NE19.3 kmh NE 21.0 mph33.8 kmh 29.47 in998.0 mb 0.00 in0.0 mm 0.00 in0.0 mm 0.00 in0.0 mm
03:29 AM 30.4°F-0.9°C 23.8°F-4.6°C 76% 9.0 mph NE14.5 kmh NE 21.0 mph33.8 kmh 29.47 in998.0 mb 0.00 in0.0 mm 0.00 in0.0 mm 0.00 in0.0 mm
03:30 AM 30.4°F-0.9°C 23.8°F-4.6°C 76% 8.0 mph N12.9 kmh N 21.0 mph33.8 kmh 29.47 in998.0 mb 0.00 in0.0 mm 0.00 in0.0 mm 0.00 in0.0 mm
03:31 AM 30.3°F-0.9°C 23.7°F-4.6°C 76% 15.0 mph NE24.1 kmh NE 21.0 mph33.8 kmh 29.47 in998.0 mb 0.00 in0.0 mm 0.00 in0.0 mm 0.00 in0.0 mm
03:32 AM 30.3°F-0.9°C 23.7°F-4.6°C 76% 10.0 mph NNE16.1 kmh NNE 21.0 mph33.8 kmh 29.47 in998.0 mb 0.00 in0.0 mm 0.00 in0.0 mm 0.00 in0.0 mm
03:33 AM 30.3°F-0.9°C 23.7°F-4.6°C 76% 15.0 mph NE24.1 kmh NE 16.0 mph25.7 kmh 29.47 in998.0 mb 0.00 in0.0 mm 0.00 in0.0 mm 0.00 in0.0 mm
03:34 AM 30.3°F-0.9°C 23.7°F-4.6°C 76% 5.0 mph N8.0 kmh N 16.0 mph25.7 kmh 29.48 in998.3 mb 0.00 in0.0 mm 0.00 in0.0 mm 0.00 in0.0 mm
03:35 AM 30.3°F-0.9°C 23.7°F-4.6°C 76% 12.0 mph N19.3 kmh N 16.0 mph25.7 kmh 29.47 in998.0 mb 0.00 in0.0 mm 0.00 in0.0 mm 0.00 in0.0 mm
03:36 AM 30.4°F-0.9°C 23.8°F-4.6°C 76% 11.0 mph NE17.7 kmh NE 16.0 mph25.7 kmh 29.47 in998.0 mb 0.00 in0.0 mm 0.00 in0.0 mm 0.00 in0.0 mm
03:37 AM 30.4°F-0.9°C 23.4°F-4.8°C 75% 10.0 mph N16.1 kmh N 16.0 mph25.7 kmh 29.47 in998.0 mb 0.00 in0.0 mm 0.00 in0.0 mm 0.00 in0.0 mm
03:38 AM 30.4°F-0.9°C 23.4°F-4.8°C 75% 10.0 mph NE16.1 kmh NE 18.0 mph29.0 kmh 29.47 in998.0 mb 0.00 in0.0 mm 0.00 in0.0 mm 0.00 in0.0 mm
03:39 AM 30.4°F-0.9°C 23.4°F-4.8°C 75% 11.0 mph N17.7 kmh N 18.0 mph29.0 kmh 29.47 in998.0 mb 0.00 in0.0 mm 0.00 in0.0 mm 0.00 in0.0 mm
03:40 AM 30.4°F-0.9°C 23.4°F-4.8°C 75% 7.0 mph N11.3 kmh N 18.0 mph29.0 kmh 29.47 in998.0 mb 0.00 in0.0 mm 0.00 in0.0 mm 0.00 in0.0 mm
03:41 AM 30.4°F-0.9°C 23.4°F-4.8°C 75% 6.0 mph NE9.7 kmh NE 18.0 mph29.0 kmh 29.47 in998.0 mb 0.00 in0.0 mm 0.00 in0.0 mm 0.00 in0.0 mm
03:42 AM 30.4°F-0.9°C 23.4°F-4.8°C 75% 7.0 mph NE11.3 kmh NE 18.0 mph29.0 kmh 29.47 in998.0 mb 0.00 in0.0 mm 0.00 in0.0 mm 0.00 in0.0 mm
03:43 AM 30.4°F-0.9°C 23.4°F-4.8°C 75% 7.0 mph NNE11.3 kmh NNE 18.0 mph29.0 kmh 29.47 in998.0 mb 0.00 in0.0 mm 0.00 in0.0 mm 0.00 in0.0 mm
03:44 AM 30.4°F-0.9°C 23.4°F-4.8°C 75% 4.0 mph NE6.4 kmh NE 18.0 mph29.0 kmh 29.47 in998.0 mb 0.00 in0.0 mm 0.00 in0.0 mm 0.00 in0.0 mm
03:45 AM 30.4°F-0.9°C 23.4°F-4.8°C 75% 6.0 mph NE9.7 kmh NE 18.0 mph29.0 kmh 29.47 in998.0 mb 0.00 in0.0 mm 0.00 in0.0 mm 0.00 in0.0 mm
03:46 AM 30.4°F-0.9°C 23.4°F-4.8°C 75% 7.0 mph NE11.3 kmh NE 18.0 mph29.0 kmh 29.47 in998.0 mb 0.00 in0.0 mm 0.00 in0.0 mm 0.00 in0.0 mm
03:47 AM 30.3°F-0.9°C 23.3°F-4.8°C 75% 10.0 mph NE16.1 kmh NE 18.0 mph29.0 kmh 29.47 in998.0 mb 0.00 in0.0 mm 0.00 in0.0 mm 0.00 in0.0 mm
03:48 AM 30.3°F-0.9°C 23.3°F-4.8°C 75% 9.0 mph NE14.5 kmh NE 18.0 mph29.0 kmh 29.47 in998.0 mb 0.00 in0.0 mm 0.00 in0.0 mm 0.00 in0.0 mm
03:49 AM 30.4°F-0.9°C 23.4°F-4.8°C 75% 10.0 mph NE16.1 kmh NE 22.0 mph35.4 kmh 29.47 in998.0 mb 0.00 in0.0 mm 0.00 in0.0 mm 0.00 in0.0 mm
03:50 AM 30.4°F-0.9°C 23.8°F-4.6°C 76% 10.0 mph NNE16.1 kmh NNE 22.0 mph35.4 kmh 29.47 in998.0 mb 0.00 in0.0 mm 0.00 in0.0 mm 0.00 in0.0 mm
03:51 AM 30.4°F-0.9°C 23.4°F-4.8°C 75% 8.0 mph NNW12.9 kmh NNW 22.0 mph35.4 kmh 29.47 in998.0 mb 0.00 in0.0 mm 0.00 in0.0 mm 0.00 in0.0 mm
03:52 AM 30.4°F-0.9°C 23.4°F-4.8°C 75% 13.0 mph NNE20.9 kmh NNE 22.0 mph35.4 kmh 29.47 in998.0 mb 0.00 in0.0 mm 0.00 in0.0 mm 0.00 in0.0 mm
03:53 AM 30.4°F-0.9°C 23.4°F-4.8°C 75% 12.0 mph NNE19.3 kmh NNE 22.0 mph35.4 kmh 29.47 in998.0 mb 0.00 in0.0 mm 0.00 in0.0 mm 0.00 in0.0 mm
03:54 AM 30.4°F-0.9°C 23.4°F-4.8°C 75% 12.0 mph NE19.3 kmh NE 22.0 mph35.4 kmh 29.47 in998.0 mb 0.00 in0.0 mm 0.00 in0.0 mm 0.00 in0.0 mm
03:55 AM 30.5°F-0.8°C 23.5°F-4.7°C 75% 7.0 mph NE11.3 kmh NE 22.0 mph35.4 kmh 29.47 in998.0 mb 0.00 in0.0 mm 0.00 in0.0 mm 0.00 in0.0 mm
03:56 AM 30.5°F-0.8°C 23.5°F-4.7°C 75% 6.0 mph NNE9.7 kmh NNE 22.0 mph35.4 kmh 29.47 in998.0 mb 0.00 in0.0 mm 0.00 in0.0 mm 0.00 in0.0 mm
03:57 AM 30.5°F-0.8°C 23.5°F-4.7°C 75% 7.0 mph N11.3 kmh N 22.0 mph35.4 kmh 29.47 in998.0 mb 0.00 in0.0 mm 0.00 in0.0 mm 0.00 in0.0 mm
03:58 AM 30.5°F-0.8°C 23.5°F-4.7°C 75% 11.0 mph N17.7 kmh N 22.0 mph35.4 kmh 29.47 in998.0 mb 0.00 in0.0 mm 0.00 in0.0 mm 0.00 in0.0 mm
03:59 AM 30.5°F-0.8°C 23.5°F-4.7°C 75% 2.0 mph N3.2 kmh N 22.0 mph35.4 kmh 29.47 in998.0 mb 0.00 in0.0 mm 0.00 in0.0 mm 0.00 in0.0 mm
04:00 AM 30.5°F-0.8°C 23.5°F-4.7°C 75% 5.0 mph NNE8.0 kmh NNE 22.0 mph35.4 kmh 29.47 in998.0 mb 0.00 in0.0 mm 0.00 in0.0 mm 0.00 in0.0 mm
04:01 AM 30.5°F-0.8°C 23.5°F-4.7°C 75% 12.0 mph N19.3 kmh N 22.0 mph35.4 kmh 29.47 in998.0 mb 0.00 in0.0 mm 0.00 in0.0 mm 0.00 in0.0 mm
04:02 AM 30.5°F-0.8°C 23.5°F-4.7°C 75% 10.0 mph NNE16.1 kmh NNE 22.0 mph35.4 kmh 29.47 in998.0 mb 0.00 in0.0 mm 0.00 in0.0 mm 0.00 in0.0 mm
04:03 AM 30.5°F-0.8°C 23.5°F-4.7°C 75% 14.0 mph N22.5 kmh N 22.0 mph35.4 kmh 29.47 in998.0 mb 0.00 in0.0 mm 0.00 in0.0 mm 0.00 in0.0 mm
04:04 AM 30.5°F-0.8°C 23.2°F-4.9°C 74% 16.0 mph NE25.7 kmh NE 22.0 mph35.4 kmh 29.47 in998.0 mb 0.00 in0.0 mm 0.00 in0.0 mm 0.00 in0.0 mm
04:05 AM 30.5°F-0.8°C 23.2°F-4.9°C 74% 7.0 mph NNE11.3 kmh NNE 22.0 mph35.4 kmh 29.47 in998.0 mb 0.00 in0.0 mm 0.00 in0.0 mm 0.00 in0.0 mm
04:06 AM 30.5°F-0.8°C 23.2°F-4.9°C 74% 8.0 mph N12.9 kmh N 22.0 mph35.4 kmh 29.47 in998.0 mb 0.00 in0.0 mm 0.00 in0.0 mm 0.00 in0.0 mm
04:07 AM 30.5°F-0.8°C 23.5°F-4.7°C 75% 3.0 mph N4.8 kmh N 22.0 mph35.4 kmh 29.47 in998.0 mb 0.00 in0.0 mm 0.00 in0.0 mm 0.00 in0.0 mm
04:08 AM 30.5°F-0.8°C 23.5°F-4.7°C 75% 11.0 mph NE17.7 kmh NE 22.0 mph35.4 kmh 29.47 in998.0 mb 0.00 in0.0 mm 0.00 in0.0 mm 0.00 in0.0 mm
04:09 AM 30.5°F-0.8°C 23.5°F-4.7°C 75% 9.0 mph NNE14.5 kmh NNE 18.0 mph29.0 kmh 29.48 in998.3 mb 0.00 in0.0 mm 0.00 in0.0 mm 0.00 in0.0 mm
04:10 AM 30.5°F-0.8°C 23.2°F-4.9°C 74% 6.0 mph NE9.7 kmh NE 18.0 mph29.0 kmh 29.47 in998.0 mb 0.00 in0.0 mm 0.00 in0.0 mm 0.00 in0.0 mm
04:11 AM 30.5°F-0.8°C 23.5°F-4.7°C 75% 11.0 mph NE17.7 kmh NE 18.0 mph29.0 kmh 29.47 in998.0 mb 0.00 in0.0 mm 0.00 in0.0 mm 0.00 in0.0 mm
04:12 AM 30.5°F-0.8°C 23.2°F-4.9°C 74% 8.0 mph NE12.9 kmh NE 19.0 mph30.6 kmh 29.47 in998.0 mb 0.00 in0.0 mm 0.00 in0.0 mm 0.00 in0.0 mm
04:13 AM 30.5°F-0.8°C 23.2°F-4.9°C 74% 9.0 mph NNE14.5 kmh NNE 19.0 mph30.6 kmh 29.47 in998.0 mb 0.00 in0.0 mm 0.00 in0.0 mm 0.00 in0.0 mm
04:14 AM 30.5°F-0.8°C 23.5°F-4.7°C 75% 10.0 mph NE16.1 kmh NE 19.0 mph30.6 kmh 29.48 in998.3 mb 0.00 in0.0 mm 0.00 in0.0 mm 0.00 in0.0 mm
04:15 AM 30.5°F-0.8°C 23.5°F-4.7°C 75% 13.0 mph ENE20.9 kmh ENE 19.0 mph30.6 kmh 29.47 in998.0 mb 0.00 in0.0 mm 0.00 in0.0 mm 0.00 in0.0 mm
04:16 AM 30.5°F-0.8°C 23.2°F-4.9°C 74% 10.0 mph NE16.1 kmh NE 19.0 mph30.6 kmh 29.47 in998.0 mb 0.00 in0.0 mm 0.00 in0.0 mm 0.00 in0.0 mm
04:17 AM 30.5°F-0.8°C 23.5°F-4.7°C 75% 13.0 mph NE20.9 kmh NE 19.0 mph30.6 kmh 29.47 in998.0 mb 0.00 in0.0 mm 0.00 in0.0 mm 0.00 in0.0 mm
04:18 AM 30.5°F-0.8°C 23.5°F-4.7°C 75% 6.0 mph NNE9.7 kmh NNE 19.0 mph30.6 kmh 29.47 in998.0 mb 0.00 in0.0 mm 0.00 in0.0 mm 0.00 in0.0 mm
04:19 AM 30.4°F-0.9°C 23.1°F-4.9°C 74% 7.0 mph NE11.3 kmh NE 19.0 mph30.6 kmh 29.47 in998.0 mb 0.00 in0.0 mm 0.00 in0.0 mm 0.00 in0.0 mm
04:20 AM 30.4°F-0.9°C 23.1°F-4.9°C 74% 11.0 mph NNE17.7 kmh NNE 19.0 mph30.6 kmh 29.47 in998.0 mb 0.00 in0.0 mm 0.00 in0.0 mm 0.00 in0.0 mm
04:21 AM 30.4°F-0.9°C 23.1°F-4.9°C 74% 6.0 mph NE9.7 kmh NE 19.0 mph30.6 kmh 29.47 in998.0 mb 0.00 in0.0 mm 0.00 in0.0 mm 0.00 in0.0 mm
04:22 AM 30.5°F-0.8°C 23.2°F-4.9°C 74% 7.0 mph NE11.3 kmh NE 19.0 mph30.6 kmh 29.48 in998.3 mb 0.00 in0.0 mm 0.00 in0.0 mm 0.00 in0.0 mm
04:23 AM 30.4°F-0.9°C 23.4°F-4.8°C 75% 6.0 mph N9.7 kmh N 19.0 mph30.6 kmh 29.47 in998.0 mb 0.00 in0.0 mm 0.00 in0.0 mm 0.00 in0.0 mm
04:24 AM 30.4°F-0.9°C 23.4°F-4.8°C 75% 10.0 mph 16.1 kmh 19.0 mph30.6 kmh 29.47 in998.0 mb 0.00 in0.0 mm 0.00 in0.0 mm 0.00 in0.0 mm
04:25 AM 30.4°F-0.9°C 23.1°F-4.9°C 74% 9.0 mph NNE14.5 kmh NNE 20.0 mph32.2 kmh 29.47 in998.0 mb 0.00 in0.0 mm 0.00 in0.0 mm 0.00 in0.0 mm
04:26 AM 30.4°F-0.9°C 23.4°F-4.8°C 75% 13.0 mph NNE20.9 kmh NNE 21.0 mph33.8 kmh 29.47 in998.0 mb 0.00 in0.0 mm 0.00 in0.0 mm 0.00 in0.0 mm
04:27 AM 30.4°F-0.9°C 23.4°F-4.8°C 75% 9.0 mph NE14.5 kmh NE 21.0 mph33.8 kmh 29.47 in998.0 mb 0.00 in0.0 mm 0.00 in0.0 mm 0.00 in0.0 mm
04:28 AM 30.4°F-0.9°C 23.4°F-4.8°C 75% 10.0 mph NE16.1 kmh NE 21.0 mph33.8 kmh 29.47 in998.0 mb 0.00 in0.0 mm 0.00 in0.0 mm 0.00 in0.0 mm
04:29 AM 30.4°F-0.9°C 23.4°F-4.8°C 75% 13.0 mph NE20.9 kmh NE 21.0 mph33.8 kmh 29.47 in998.0 mb 0.00 in0.0 mm 0.00 in0.0 mm 0.00 in0.0 mm
04:30 AM 30.4°F-0.9°C 23.4°F-4.8°C 75% 10.0 mph NE16.1 kmh NE 21.0 mph33.8 kmh 29.47 in998.0 mb 0.00 in0.0 mm 0.00 in0.0 mm 0.00 in0.0 mm
04:31 AM 30.4°F-0.9°C 23.4°F-4.8°C 75% 12.0 mph NE19.3 kmh NE 21.0 mph33.8 kmh 29.47 in998.0 mb 0.00 in0.0 mm 0.00 in0.0 mm 0.00 in0.0 mm
04:32 AM 30.4°F-0.9°C 23.4°F-4.8°C 75% 11.0 mph N17.7 kmh N 21.0 mph33.8 kmh 29.47 in998.0 mb 0.00 in0.0 mm 0.00 in0.0 mm 0.00 in0.0 mm
04:33 AM 30.3°F-0.9°C 23.3°F-4.8°C 75% 7.0 mph ENE11.3 kmh ENE 21.0 mph33.8 kmh 29.47 in998.0 mb 0.00 in0.0 mm 0.00 in0.0 mm 0.00 in0.0 mm
04:34 AM 30.3°F-0.9°C 23.3°F-4.8°C 75% 9.0 mph NE14.5 kmh NE 22.0 mph35.4 kmh 29.47 in998.0 mb 0.00 in0.0 mm 0.00 in0.0 mm 0.00 in0.0 mm
04:35 AM 30.3°F-0.9°C 23.3°F-4.8°C 75% 11.0 mph NNE17.7 kmh NNE 22.0 mph35.4 kmh 29.47 in998.0 mb 0.00 in0.0 mm 0.00 in0.0 mm 0.00 in0.0 mm
04:36 AM 30.3°F-0.9°C 23.3°F-4.8°C 75% 15.0 mph NE24.1 kmh NE 22.0 mph35.4 kmh 29.47 in998.0 mb 0.00 in0.0 mm 0.00 in0.0 mm 0.00 in0.0 mm
04:37 AM 30.3°F-0.9°C 23.7°F-4.6°C 76% 9.0 mph NNE14.5 kmh NNE 22.0 mph35.4 kmh 29.48 in998.3 mb 0.00 in0.0 mm 0.00 in0.0 mm 0.00 in0.0 mm
04:38 AM 30.3°F-0.9°C 23.7°F-4.6°C 76% 9.0 mph NE14.5 kmh NE 22.0 mph35.4 kmh 29.47 in998.0 mb 0.00 in0.0 mm 0.00 in0.0 mm 0.00 in0.0 mm
04:39 AM 30.3°F-0.9°C 23.7°F-4.6°C 76% 9.0 mph N14.5 kmh N 22.0 mph35.4 kmh 29.47 in998.0 mb 0.00 in0.0 mm 0.00 in0.0 mm 0.00 in0.0 mm
04:40 AM 30.3°F-0.9°C 23.7°F-4.6°C 76% 9.0 mph NE14.5 kmh NE 22.0 mph35.4 kmh 29.47 in998.0 mb 0.00 in0.0 mm 0.00 in0.0 mm 0.00 in0.0 mm
04:41 AM 30.3°F-0.9°C 23.7°F-4.6°C 76% 7.0 mph N11.3 kmh N 22.0 mph35.4 kmh 29.47 in998.0 mb 0.00 in0.0 mm 0.00 in0.0 mm 0.00 in0.0 mm
04:42 AM 30.3°F-0.9°C 23.7°F-4.6°C 76% 12.0 mph NNE19.3 kmh NNE 22.0 mph35.4 kmh 29.47 in998.0 mb 0.00 in0.0 mm 0.00 in0.0 mm 0.00 in0.0 mm
04:43 AM 30.2°F-1.0°C 23.6°F-4.7°C 76% 4.0 mph NE6.4 kmh NE 22.0 mph35.4 kmh 29.47 in998.0 mb 0.00 in0.0 mm 0.00 in0.0 mm 0.00 in0.0 mm
04:44 AM 30.2°F-1.0°C 23.6°F-4.7°C 76% 6.0 mph NE9.7 kmh NE 22.0 mph35.4 kmh 29.47 in998.0 mb 0.00 in0.0 mm 0.00 in0.0 mm 0.00 in0.0 mm
04:45 AM 30.2°F-1.0°C 23.9°F-4.5°C 77% 9.0 mph NNE14.5 kmh NNE 22.0 mph35.4 kmh 29.47 in998.0 mb 0.00 in0.0 mm 0.00 in0.0 mm 0.00 in0.0 mm
04:46 AM 30.2°F-1.0°C 23.6°F-4.7°C 76% 12.0 mph ENE19.3 kmh ENE 22.0 mph35.4 kmh 29.47 in998.0 mb 0.00 in0.0 mm 0.00 in0.0 mm 0.00 in0.0 mm
04:47 AM 30.2°F-1.0°C 23.9°F-4.5°C 77% 7.0 mph NNE11.3 kmh NNE 22.0 mph35.4 kmh 29.47 in998.0 mb 0.00 in0.0 mm 0.00 in0.0 mm 0.00 in0.0 mm
04:48 AM 30.2°F-1.0°C 23.9°F-4.5°C 77% 6.0 mph NE9.7 kmh NE 22.0 mph35.4 kmh 29.47 in998.0 mb 0.00 in0.0 mm 0.00 in0.0 mm 0.00 in0.0 mm
04:49 AM 30.1°F-1.1°C 23.8°F-4.6°C 77% 7.0 mph ENE11.3 kmh ENE 22.0 mph35.4 kmh 29.47 in998.0 mb 0.00 in0.0 mm 0.00 in0.0 mm 0.00 in0.0 mm
04:50 AM 30.1°F-1.1°C 23.8°F-4.6°C 77% 10.0 mph NNE16.1 kmh NNE 22.0 mph35.4 kmh 29.47 in998.0 mb 0.00 in0.0 mm 0.00 in0.0 mm 0.00 in0.0 mm
04:51 AM 30.1°F-1.1°C 23.8°F-4.6°C 77% 13.0 mph NE20.9 kmh NE 23.0 mph37.0 kmh 29.47 in998.0 mb 0.00 in0.0 mm 0.00 in0.0 mm 0.00 in0.0 mm
04:52 AM 30.1°F-1.1°C 23.8°F-4.6°C 77% 8.0 mph NE12.9 kmh NE 23.0 mph37.0 kmh 29.47 in998.0 mb 0.00 in0.0 mm 0.00 in0.0 mm 0.00 in0.0 mm
04:53 AM 30.1°F-1.1°C 23.8°F-4.6°C 77% 7.0 mph N11.3 kmh N 23.0 mph37.0 kmh 29.47 in998.0 mb 0.00 in0.0 mm 0.00 in0.0 mm 0.00 in0.0 mm
04:54 AM 30.1°F-1.1°C 23.8°F-4.6°C 77% 11.0 mph NE17.7 kmh NE 23.0 mph37.0 kmh 29.47 in998.0 mb 0.00 in0.0 mm 0.00 in0.0 mm 0.00 in0.0 mm
04:55 AM 30.1°F-1.1°C 23.8°F-4.6°C 77% 9.0 mph NNE14.5 kmh NNE 23.0 mph37.0 kmh 29.47 in998.0 mb 0.00 in0.0 mm 0.00 in0.0 mm 0.00 in0.0 mm
04:56 AM 30.1°F-1.1°C 23.8°F-4.6°C 77% 8.0 mph NNE12.9 kmh NNE 23.0 mph37.0 kmh 29.47 in998.0 mb 0.00 in0.0 mm 0.00 in0.0 mm 0.00 in0.0 mm
04:57 AM 30.1°F-1.1°C 23.8°F-4.6°C 77% 10.0 mph N16.1 kmh N 23.0 mph37.0 kmh 29.47 in998.0 mb 0.00 in0.0 mm 0.00 in0.0 mm 0.00 in0.0 mm
04:58 AM 30.1°F-1.1°C 23.8°F-4.6°C 77% 8.0 mph N12.9 kmh N 23.0 mph37.0 kmh 29.47 in998.0 mb 0.00 in0.0 mm 0.00 in0.0 mm 0.00 in0.0 mm
04:59 AM 30.1°F-1.1°C 23.8°F-4.6°C 77% 10.0 mph NNE16.1 kmh NNE 23.0 mph37.0 kmh 29.47 in998.0 mb 0.00 in0.0 mm 0.00 in0.0 mm 0.00 in0.0 mm
05:00 AM 30.1°F-1.1°C 23.8°F-4.6°C 77% 12.0 mph NE19.3 kmh NE 23.0 mph37.0 kmh 29.47 in998.0 mb 0.00 in0.0 mm 0.00 in0.0 mm 0.00 in0.0 mm
05:01 AM 30.1°F-1.1°C 23.8°F-4.6°C 77% 5.0 mph NE8.0 kmh NE 23.0 mph37.0 kmh 29.48 in998.3 mb 0.00 in0.0 mm 0.00 in0.0 mm 0.00 in0.0 mm
05:02 AM 30.1°F-1.1°C 23.8°F-4.6°C 77% 8.0 mph NE12.9 kmh NE 23.0 mph37.0 kmh 29.47 in998.0 mb 0.00 in0.0 mm 0.00 in0.0 mm 0.00 in0.0 mm
05:03 AM 30.1°F-1.1°C 23.8°F-4.6°C 77% 11.0 mph NNE17.7 kmh NNE 23.0 mph37.0 kmh 29.47 in998.0 mb 0.00 in0.0 mm 0.00 in0.0 mm 0.00 in0.0 mm
05:04 AM 30.1°F-1.1°C 24.1°F-4.4°C 78% 16.0 mph NNE25.7 kmh NNE 23.0 mph37.0 kmh 29.48 in998.3 mb 0.00 in0.0 mm 0.00 in0.0 mm 0.00 in0.0 mm
05:05 AM 30.1°F-1.1°C 23.8°F-4.6°C 77% 8.0 mph NE12.9 kmh NE 23.0 mph37.0 kmh 29.48 in998.3 mb 0.00 in0.0 mm 0.00 in0.0 mm 0.00 in0.0 mm
05:06 AM 30.0°F-1.1°C 23.7°F-4.6°C 77% 11.0 mph NE17.7 kmh NE 23.0 mph37.0 kmh 29.47 in998.0 mb 0.00 in0.0 mm 0.00 in0.0 mm 0.00 in0.0 mm
05:07 AM 30.1°F-1.1°C 24.1°F-4.4°C 78% 9.0 mph NNE14.5 kmh NNE 23.0 mph37.0 kmh 29.47 in998.0 mb 0.00 in0.0 mm 0.00 in0.0 mm 0.00 in0.0 mm
05:08 AM 30.1°F-1.1°C 24.1°F-4.4°C 78% 11.0 mph NNE17.7 kmh NNE 23.0 mph37.0 kmh 29.47 in998.0 mb 0.00 in0.0 mm 0.00 in0.0 mm 0.00 in0.0 mm
05:09 AM 30.0°F-1.1°C 24.0°F-4.4°C 78% 7.0 mph NNE11.3 kmh NNE 23.0 mph37.0 kmh 29.47 in998.0 mb 0.00 in0.0 mm 0.00 in0.0 mm 0.00 in0.0 mm
05:10 AM 30.0°F-1.1°C 24.0°F-4.4°C 78% 9.0 mph NNE14.5 kmh NNE 23.0 mph37.0 kmh 29.47 in998.0 mb 0.00 in0.0 mm 0.00 in0.0 mm 0.00 in0.0 mm
05:11 AM 30.0°F-1.1°C 24.0°F-4.4°C 78% 9.0 mph NE14.5 kmh NE 16.0 mph25.7 kmh 29.47 in998.0 mb 0.00 in0.0 mm 0.00 in0.0 mm 0.00 in0.0 mm
05:12 AM 30.0°F-1.1°C 24.0°F-4.4°C 78% 8.0 mph N12.9 kmh N 16.0 mph25.7 kmh 29.47 in998.0 mb 0.00 in0.0 mm 0.00 in0.0 mm 0.00 in0.0 mm
05:13 AM 30.0°F-1.1°C 24.0°F-4.4°C 78% 8.0 mph NNE12.9 kmh NNE 16.0 mph25.7 kmh 29.47 in998.0 mb 0.00 in0.0 mm 0.00 in0.0 mm 0.00 in0.0 mm
05:14 AM 29.9°F-1.2°C 23.9°F-4.5°C 78% 8.0 mph N12.9 kmh N 16.0 mph25.7 kmh 29.47 in998.0 mb 0.00 in0.0 mm 0.00 in0.0 mm 0.00 in0.0 mm
05:15 AM 29.9°F-1.2°C 23.9°F-4.5°C 78% 4.0 mph NE6.4 kmh NE 16.0 mph25.7 kmh 29.47 in998.0 mb 0.00 in0.0 mm 0.00 in0.0 mm 0.00 in0.0 mm
05:16 AM 29.9°F-1.2°C 23.9°F-4.5°C 78% 7.0 mph NNE11.3 kmh NNE 16.0 mph25.7 kmh 29.47 in998.0 mb 0.00 in0.0 mm 0.00 in0.0 mm 0.00 in0.0 mm
05:17 AM 29.9°F-1.2°C 23.9°F-4.5°C 78% 8.0 mph NE12.9 kmh NE 16.0 mph25.7 kmh 29.47 in998.0 mb 0.00 in0.0 mm 0.00 in0.0 mm 0.00 in0.0 mm
05:18 AM 29.9°F-1.2°C 23.9°F-4.5°C 78% 6.0 mph NNE9.7 kmh NNE 16.0 mph25.7 kmh 29.47 in998.0 mb 0.00 in0.0 mm 0.00 in0.0 mm 0.00 in0.0 mm
05:19 AM 29.8°F-1.2°C 23.8°F-4.6°C 78% 9.0 mph NE14.5 kmh NE 16.0 mph25.7 kmh 29.47 in998.0 mb 0.00 in0.0 mm 0.00 in0.0 mm 0.00 in0.0 mm
05:20 AM 29.9°F-1.2°C 23.9°F-4.5°C 78% 13.0 mph 20.9 kmh 16.0 mph25.7 kmh 29.47 in998.0 mb 0.00 in0.0 mm 0.00 in0.0 mm 0.00 in0.0 mm
05:21 AM 29.8°F-1.2°C 23.8°F-4.6°C 78% 8.0 mph N12.9 kmh N 16.0 mph25.7 kmh 29.47 in998.0 mb 0.00 in0.0 mm 0.00 in0.0 mm 0.00 in0.0 mm
05:22 AM 29.8°F-1.2°C 23.8°F-4.6°C 78% 7.0 mph NE11.3 kmh NE 16.0 mph25.7 kmh 29.47 in998.0 mb 0.00 in0.0 mm 0.00 in0.0 mm 0.00 in0.0 mm
05:23 AM 29.8°F-1.2°C 24.1°F-4.4°C 79% 8.0 mph NNE12.9 kmh NNE 16.0 mph25.7 kmh 29.47 in998.0 mb 0.00 in0.0 mm 0.00 in0.0 mm 0.00 in0.0 mm
05:24 AM 29.8°F-1.2°C 23.8°F-4.6°C 78% 5.0 mph N8.0 kmh N 16.0 mph25.7 kmh 29.47 in998.0 mb 0.00 in0.0 mm 0.00 in0.0 mm 0.00 in0.0 mm
05:25 AM 29.8°F-1.2°C 23.8°F-4.6°C 78% 8.0 mph NE12.9 kmh NE 16.0 mph25.7 kmh 29.47 in998.0 mb 0.00 in0.0 mm 0.00 in0.0 mm 0.00 in0.0 mm
05:26 AM 29.8°F-1.2°C 23.8°F-4.6°C 78% 7.0 mph N11.3 kmh N 16.0 mph25.7 kmh 29.47 in998.0 mb 0.00 in0.0 mm 0.00 in0.0 mm 0.00 in0.0 mm
05:27 AM 29.9°F-1.2°C 23.9°F-4.5°C 78% 4.0 mph NNE6.4 kmh NNE 16.0 mph25.7 kmh 29.47 in998.0 mb 0.00 in0.0 mm 0.00 in0.0 mm 0.00 in0.0 mm
05:28 AM 29.9°F-1.2°C 23.9°F-4.5°C 78% 6.0 mph 9.7 kmh 16.0 mph25.7 kmh 29.48 in998.3 mb 0.00 in0.0 mm 0.00 in0.0 mm 0.00 in0.0 mm
05:29 AM 29.9°F-1.2°C 23.9°F-4.5°C 78% 9.0 mph NE14.5 kmh NE 16.0 mph25.7 kmh 29.48 in998.3 mb 0.00 in0.0 mm 0.00 in0.0 mm 0.00 in0.0 mm
05:30 AM 29.9°F-1.2°C 23.9°F-4.5°C 78% 13.0 mph NE20.9 kmh NE 16.0 mph25.7 kmh 29.48 in998.3 mb 0.00 in0.0 mm 0.00 in0.0 mm 0.00 in0.0 mm
05:31 AM 29.9°F-1.2°C 23.9°F-4.5°C 78% 11.0 mph NNW17.7 kmh NNW 15.0 mph24.1 kmh 29.47 in998.0 mb 0.00 in0.0 mm 0.00 in0.0 mm 0.00 in0.0 mm
05:32 AM 29.9°F-1.2°C 23.6°F-4.7°C 77% 7.0 mph NNE11.3 kmh NNE 15.0 mph24.1 kmh 29.48 in998.3 mb 0.00 in0.0 mm 0.00 in0.0 mm 0.00 in0.0 mm
05:33 AM 30.0°F-1.1°C 23.7°F-4.6°C 77% 12.0 mph NNE19.3 kmh NNE 15.0 mph24.1 kmh 29.47 in998.0 mb 0.00 in0.0 mm 0.00 in0.0 mm 0.00 in0.0 mm
05:34 AM 30.0°F-1.1°C 24.0°F-4.4°C 78% 11.0 mph ENE17.7 kmh ENE 15.0 mph24.1 kmh 29.47 in998.0 mb 0.00 in0.0 mm 0.00 in0.0 mm 0.00 in0.0 mm
05:35 AM 30.0°F-1.1°C 24.0°F-4.4°C 78% 6.0 mph N9.7 kmh N 15.0 mph24.1 kmh 29.47 in998.0 mb 0.00 in0.0 mm 0.00 in0.0 mm 0.00 in0.0 mm
05:36 AM 30.0°F-1.1°C 24.0°F-4.4°C 78% 11.0 mph N17.7 kmh N 15.0 mph24.1 kmh 29.48 in998.3 mb 0.00 in0.0 mm 0.00 in0.0 mm 0.00 in0.0 mm
05:37 AM 30.1°F-1.1°C 23.8°F-4.6°C 77% 10.0 mph NW16.1 kmh NW 15.0 mph24.1 kmh 29.48 in998.3 mb 0.00 in0.0 mm 0.00 in0.0 mm 0.00 in0.0 mm
05:38 AM 30.1°F-1.1°C 23.8°F-4.6°C 77% 7.0 mph NNE11.3 kmh NNE 15.0 mph24.1 kmh 29.47 in998.0 mb 0.00 in0.0 mm 0.00 in0.0 mm 0.00 in0.0 mm
05:39 AM 30.1°F-1.1°C 23.8°F-4.6°C 77% 9.0 mph NE14.5 kmh NE 15.0 mph24.1 kmh 29.48 in998.3 mb 0.00 in0.0 mm 0.00 in0.0 mm 0.00 in0.0 mm
05:40 AM 30.1°F-1.1°C 24.1°F-4.4°C 78% 8.0 mph NNE12.9 kmh NNE 15.0 mph24.1 kmh 29.48 in998.3 mb 0.00 in0.0 mm 0.00 in0.0 mm 0.00 in0.0 mm
05:41 AM 30.1°F-1.1°C 23.8°F-4.6°C 77% 10.0 mph NE16.1 kmh NE 14.0 mph22.5 kmh 29.47 in998.0 mb 0.00 in0.0 mm 0.00 in0.0 mm 0.00 in0.0 mm
05:42 AM 30.1°F-1.1°C 24.1°F-4.4°C 78% 6.0 mph NE9.7 kmh NE 14.0 mph22.5 kmh 29.48 in998.3 mb 0.00 in0.0 mm 0.00 in0.0 mm 0.00 in0.0 mm
05:43 AM 30.1°F-1.1°C 24.1°F-4.4°C 78% 4.0 mph NE6.4 kmh NE 14.0 mph22.5 kmh 29.48 in998.3 mb 0.00 in0.0 mm 0.00 in0.0 mm 0.00 in0.0 mm
05:44 AM 30.1°F-1.1°C 24.1°F-4.4°C 78% 6.0 mph NNE9.7 kmh NNE 14.0 mph22.5 kmh 29.48 in998.3 mb 0.00 in0.0 mm 0.00 in0.0 mm 0.00 in0.0 mm
05:45 AM 30.0°F-1.1°C 24.0°F-4.4°C 78% 8.0 mph NE12.9 kmh NE 14.0 mph22.5 kmh 29.48 in998.3 mb 0.00 in0.0 mm 0.00 in0.0 mm 0.00 in0.0 mm
05:46 AM 30.0°F-1.1°C 24.0°F-4.4°C 78% 9.0 mph N14.5 kmh N 14.0 mph22.5 kmh 29.48 in998.3 mb 0.00 in0.0 mm 0.00 in0.0 mm 0.00 in0.0 mm
05:47 AM 30.0°F-1.1°C 24.0°F-4.4°C 78% 11.0 mph N17.7 kmh N 14.0 mph22.5 kmh 29.48 in998.3 mb 0.00 in0.0 mm 0.00 in0.0 mm 0.00 in0.0 mm
05:48 AM 30.0°F-1.1°C 24.0°F-4.4°C 78% 9.0 mph NE14.5 kmh NE 14.0 mph22.5 kmh 29.47 in998.0 mb 0.00 in0.0 mm 0.00 in0.0 mm 0.00 in0.0 mm
05:49 AM 29.9°F-1.2°C 23.9°F-4.5°C 78% 4.0 mph N6.4 kmh N 14.0 mph22.5 kmh 29.48 in998.3 mb 0.00 in0.0 mm 0.00 in0.0 mm 0.00 in0.0 mm
05:50 AM 29.9°F-1.2°C 23.9°F-4.5°C 78% 9.0 mph NNE14.5 kmh NNE 14.0 mph22.5 kmh 29.47 in998.0 mb 0.00 in0.0 mm 0.00 in0.0 mm 0.00 in0.0 mm
05:51 AM 29.9°F-1.2°C 23.9°F-4.5°C 78% 22.0 mph NNE35.4 kmh NNE 22.0 mph35.4 kmh 29.48 in998.3 mb 0.00 in0.0 mm 0.00 in0.0 mm 0.00 in0.0 mm
05:52 AM 29.9°F-1.2°C 23.9°F-4.5°C 78% 13.0 mph NNE20.9 kmh NNE 22.0 mph35.4 kmh 29.47 in998.0 mb 0.00 in0.0 mm 0.00 in0.0 mm 0.00 in0.0 mm
05:53 AM 29.9°F-1.2°C 24.2°F-4.3°C 79% 11.0 mph NE17.7 kmh NE 22.0 mph35.4 kmh 29.47 in998.0 mb 0.00 in0.0 mm 0.00 in0.0 mm 0.00 in0.0 mm
05:54 AM 30.0°F-1.1°C 24.3°F-4.3°C 79% 14.0 mph N22.5 kmh N 22.0 mph35.4 kmh 29.47 in998.0 mb 0.00 in0.0 mm 0.00 in0.0 mm 0.00 in0.0 mm
05:55 AM 29.9°F-1.2°C 24.2°F-4.3°C 79% 10.0 mph N16.1 kmh N 22.0 mph35.4 kmh 29.47 in998.0 mb 0.00 in0.0 mm 0.00 in0.0 mm 0.00 in0.0 mm
05:56 AM 29.9°F-1.2°C 24.2°F-4.3°C 79% 8.0 mph NE12.9 kmh NE 22.0 mph35.4 kmh 29.47 in998.0 mb 0.00 in0.0 mm 0.00 in0.0 mm 0.00 in0.0 mm
05:57 AM 29.9°F-1.2°C 24.2°F-4.3°C 79% 8.0 mph N12.9 kmh N 22.0 mph35.4 kmh 29.47 in998.0 mb 0.00 in0.0 mm 0.00 in0.0 mm 0.00 in0.0 mm
05:58 AM 29.9°F-1.2°C 24.2°F-4.3°C 79% 9.0 mph 14.5 kmh 22.0 mph35.4 kmh 29.47 in998.0 mb 0.00 in0.0 mm 0.00 in0.0 mm 0.00 in0.0 mm
05:59 AM 29.9°F-1.2°C 24.2°F-4.3°C 79% 8.0 mph NE12.9 kmh NE 22.0 mph35.4 kmh 29.47 in998.0 mb 0.00 in0.0 mm 0.00 in0.0 mm 0.00 in0.0 mm
06:00 AM 29.9°F-1.2°C 24.2°F-4.3°C 79% 8.0 mph N12.9 kmh N 22.0 mph35.4 kmh 29.47 in998.0 mb 0.00 in0.0 mm 0.00 in0.0 mm 0.00 in0.0 mm
06:01 AM 29.9°F-1.2°C 24.5°F-4.2°C 80% 11.0 mph NNE17.7 kmh NNE 22.0 mph35.4 kmh 29.47 in998.0 mb 0.00 in0.0 mm 0.00 in0.0 mm 0.00 in0.0 mm
06:02 AM 29.9°F-1.2°C 24.5°F-4.2°C 80% 7.0 mph N11.3 kmh N 22.0 mph35.4 kmh 29.47 in998.0 mb 0.00 in0.0 mm 0.00 in0.0 mm 0.00 in0.0 mm
06:03 AM 29.9°F-1.2°C 24.5°F-4.2°C 80% 9.0 mph NE14.5 kmh NE 22.0 mph35.4 kmh 29.47 in998.0 mb 0.00 in0.0 mm 0.00 in0.0 mm 0.00 in0.0 mm
06:04 AM 29.9°F-1.2°C 24.5°F-4.2°C 80% 11.0 mph N17.7 kmh N 22.0 mph35.4 kmh 29.48 in998.3 mb 0.00 in0.0 mm 0.00 in0.0 mm 0.00 in0.0 mm
06:05 AM 29.9°F-1.2°C 24.5°F-4.2°C 80% 7.0 mph NNE11.3 kmh NNE 22.0 mph35.4 kmh 29.48 in998.3 mb 0.00 in0.0 mm 0.00 in0.0 mm 0.00 in0.0 mm
06:06 AM 29.9°F-1.2°C 24.5°F-4.2°C 80% 6.0 mph NE9.7 kmh NE 22.0 mph35.4 kmh 29.47 in998.0 mb 0.00 in0.0 mm 0.00 in0.0 mm 0.00 in0.0 mm
06:07 AM 29.9°F-1.2°C 24.5°F-4.2°C 80% 6.0 mph NE9.7 kmh NE 22.0 mph35.4 kmh 29.48 in998.3 mb 0.00 in0.0 mm 0.00 in0.0 mm 0.00 in0.0 mm
06:08 AM 29.9°F-1.2°C 24.5°F-4.2°C 80% 10.0 mph NNE16.1 kmh NNE 22.0 mph35.4 kmh 29.47 in998.0 mb 0.00 in0.0 mm 0.00 in0.0 mm 0.00 in0.0 mm
06:09 AM 29.9°F-1.2°C 24.5°F-4.2°C 80% 8.0 mph NE12.9 kmh NE 22.0 mph35.4 kmh 29.47 in998.0 mb 0.00 in0.0 mm 0.00 in0.0 mm 0.00 in0.0 mm
06:10 AM 29.9°F-1.2°C 24.5°F-4.2°C 80% 4.0 mph NE6.4 kmh NE 22.0 mph35.4 kmh 29.47 in998.0 mb 0.00 in0.0 mm 0.00 in0.0 mm 0.00 in0.0 mm
06:11 AM 29.9°F-1.2°C 24.5°F-4.2°C 80% 7.0 mph N11.3 kmh N 22.0 mph35.4 kmh 29.47 in998.0 mb 0.00 in0.0 mm 0.00 in0.0 mm 0.00 in0.0 mm
06:12 AM 29.9°F-1.2°C 24.5°F-4.2°C 80% 9.0 mph NNE14.5 kmh NNE 19.0 mph30.6 kmh 29.47 in998.0 mb 0.00 in0.0 mm 0.00 in0.0 mm 0.00 in0.0 mm
06:13 AM 29.9°F-1.2°C 24.2°F-4.3°C 79% 7.0 mph NNE11.3 kmh NNE 19.0 mph30.6 kmh 29.48 in998.3 mb 0.00 in0.0 mm 0.00 in0.0 mm 0.00 in0.0 mm
06:14 AM 30.0°F-1.1°C 24.3°F-4.3°C 79% 14.0 mph NE22.5 kmh NE 19.0 mph30.6 kmh 29.48 in998.3 mb 0.00 in0.0 mm 0.00 in0.0 mm 0.00 in0.0 mm
06:15 AM 30.0°F-1.1°C 24.6°F-4.1°C 80% 9.0 mph NE14.5 kmh NE 19.0 mph30.6 kmh 29.48 in998.3 mb 0.00 in0.0 mm 0.00 in0.0 mm 0.00 in0.0 mm
06:16 AM 30.0°F-1.1°C 24.6°F-4.1°C 80% 5.0 mph N8.0 kmh N 19.0 mph30.6 kmh 29.48 in998.3 mb 0.00 in0.0 mm 0.00 in0.0 mm 0.00 in0.0 mm
06:17 AM 30.0°F-1.1°C 24.6°F-4.1°C 80% 9.0 mph N14.5 kmh N 19.0 mph30.6 kmh 29.47 in998.0 mb 0.00 in0.0 mm 0.00 in0.0 mm 0.00 in0.0 mm
06:18 AM 30.0°F-1.1°C 24.6°F-4.1°C 80% 10.0 mph NE16.1 kmh NE 19.0 mph30.6 kmh 29.48 in998.3 mb 0.00 in0.0 mm 0.00 in0.0 mm 0.00 in0.0 mm
06:19 AM 30.0°F-1.1°C 24.3°F-4.3°C 79% 5.0 mph NE8.0 kmh NE 19.0 mph30.6 kmh 29.48 in998.3 mb 0.00 in0.0 mm 0.00 in0.0 mm 0.00 in0.0 mm
06:20 AM 30.1°F-1.1°C 24.4°F-4.2°C 79% 10.0 mph ENE16.1 kmh ENE 19.0 mph30.6 kmh 29.48 in998.3 mb 0.00 in0.0 mm 0.00 in0.0 mm 0.00 in0.0 mm
06:21 AM 30.1°F-1.1°C 24.4°F-4.2°C 79% 7.0 mph N11.3 kmh N 19.0 mph30.6 kmh 29.48 in998.3 mb 0.00 in0.0 mm 0.00 in0.0 mm 0.00 in0.0 mm
06:22 AM 30.2°F-1.0°C 24.5°F-4.2°C 79% 14.0 mph NNE22.5 kmh NNE 16.0 mph25.7 kmh 29.48 in998.3 mb 0.00 in0.0 mm 0.00 in0.0 mm 0.00 in0.0 mm
06:23 AM 30.2°F-1.0°C 24.5°F-4.2°C 79% 6.0 mph N9.7 kmh N 16.0 mph25.7 kmh 29.48 in998.3 mb 0.00 in0.0 mm 0.00 in0.0 mm 0.00 in0.0 mm
06:24 AM 30.2°F-1.0°C 24.5°F-4.2°C 79% 6.0 mph 9.7 kmh 16.0 mph25.7 kmh 29.48 in998.3 mb 0.00 in0.0 mm 0.00 in0.0 mm 0.00 in0.0 mm
06:25 AM 30.2°F-1.0°C 24.5°F-4.2°C 79% 7.0 mph NE11.3 kmh NE 16.0 mph25.7 kmh 29.48 in998.3 mb 0.00 in0.0 mm 0.00 in0.0 mm 0.00 in0.0 mm
06:26 AM 30.2°F-1.0°C 24.5°F-4.2°C 79% 10.0 mph NNE16.1 kmh NNE 20.0 mph32.2 kmh 29.48 in998.3 mb 0.00 in0.0 mm 0.00 in0.0 mm 0.00 in0.0 mm
06:27 AM 30.3°F-0.9°C 24.6°F-4.1°C 79% 10.0 mph NE16.1 kmh NE 20.0 mph32.2 kmh 29.48 in998.3 mb 0.00 in0.0 mm 0.00 in0.0 mm 0.00 in0.0 mm
06:28 AM 30.3°F-0.9°C 24.6°F-4.1°C 79% 13.0 mph N20.9 kmh N 20.0 mph32.2 kmh 29.48 in998.3 mb 0.00 in0.0 mm 0.00 in0.0 mm 0.00 in0.0 mm
06:29 AM 30.3°F-0.9°C 24.6°F-4.1°C 79% 15.0 mph NE24.1 kmh NE 20.0 mph32.2 kmh 29.48 in998.3 mb 0.00 in0.0 mm 0.00 in0.0 mm 0.00 in0.0 mm
06:30 AM 30.3°F-0.9°C 24.6°F-4.1°C 79% 9.0 mph NNE14.5 kmh NNE 20.0 mph32.2 kmh 29.48 in998.3 mb 0.00 in0.0 mm 0.00 in0.0 mm 0.00 in0.0 mm
06:31 AM 30.3°F-0.9°C 24.6°F-4.1°C 79% 15.0 mph NE24.1 kmh NE 20.0 mph32.2 kmh 29.48 in998.3 mb 0.00 in0.0 mm 0.00 in0.0 mm 0.00 in0.0 mm
06:32 AM 30.3°F-0.9°C 24.6°F-4.1°C 79% 9.0 mph NE14.5 kmh NE 20.0 mph32.2 kmh 29.48 in998.3 mb 0.00 in0.0 mm 0.00 in0.0 mm 0.00 in0.0 mm
06:33 AM 30.4°F-0.9°C 24.7°F-4.1°C 79% 9.0 mph NE14.5 kmh NE 20.0 mph32.2 kmh 29.48 in998.3 mb 0.00 in0.0 mm 0.00 in0.0 mm 0.00 in0.0 mm
06:34 AM 30.4°F-0.9°C 24.7°F-4.1°C 79% 11.0 mph NE17.7 kmh NE 20.0 mph32.2 kmh 29.48 in998.3 mb 0.00 in0.0 mm 0.00 in0.0 mm 0.00 in0.0 mm
06:35 AM 30.4°F-0.9°C 24.7°F-4.1°C 79% 8.0 mph NNE12.9 kmh NNE 20.0 mph32.2 kmh 29.48 in998.3 mb 0.00 in0.0 mm 0.00 in0.0 mm 0.00 in0.0 mm
06:36 AM 30.4°F-0.9°C 24.7°F-4.1°C 79% 8.0 mph NNE12.9 kmh NNE 20.0 mph32.2 kmh 29.48 in998.3 mb 0.00 in0.0 mm 0.00 in0.0 mm 0.00 in0.0 mm
06:37 AM 30.5°F-0.8°C 24.8°F-4.0°C 79% 11.0 mph NE17.7 kmh NE 20.0 mph32.2 kmh 29.48 in998.3 mb 0.00 in0.0 mm 0.00 in0.0 mm 0.00 in0.0 mm
06:38 AM 30.5°F-0.8°C 24.8°F-4.0°C 79% 9.0 mph NE14.5 kmh NE 20.0 mph32.2 kmh 29.48 in998.3 mb 0.00 in0.0 mm 0.00 in0.0 mm 0.00 in0.0 mm
06:39 AM 30.5°F-0.8°C 24.8°F-4.0°C 79% 8.0 mph NE12.9 kmh NE 20.0 mph32.2 kmh 29.48 in998.3 mb 0.00 in0.0 mm 0.00 in0.0 mm 0.00 in0.0 mm
06:40 AM 30.5°F-0.8°C 24.8°F-4.0°C 79% 8.0 mph NNE12.9 kmh NNE 20.0 mph32.2 kmh 29.48 in998.3 mb 0.00 in0.0 mm 0.00 in0.0 mm 0.00 in0.0 mm
06:41 AM 30.5°F-0.8°C 24.8°F-4.0°C 79% 12.0 mph N19.3 kmh N 20.0 mph32.2 kmh 29.48 in998.3 mb 0.00 in0.0 mm 0.00 in0.0 mm 0.00 in0.0 mm
06:42 AM 30.5°F-0.8°C 24.8°F-4.0°C 79% 12.0 mph NNE19.3 kmh NNE 20.0 mph32.2 kmh 29.48 in998.3 mb 0.00 in0.0 mm 0.00 in0.0 mm 0.00 in0.0 mm
06:43 AM 30.5°F-0.8°C 24.5°F-4.2°C 78% 6.0 mph NE9.7 kmh NE 20.0 mph32.2 kmh 29.48 in998.3 mb 0.00 in0.0 mm 0.00 in0.0 mm 0.00 in0.0 mm
06:44 AM 30.6°F-0.8°C 24.9°F-3.9°C 79% 8.0 mph NE12.9 kmh NE 20.0 mph32.2 kmh 29.49 in998.6 mb 0.00 in0.0 mm 0.00 in0.0 mm 0.00 in0.0 mm
06:45 AM 30.6°F-0.8°C 24.9°F-3.9°C 79% 8.0 mph N12.9 kmh N 20.0 mph32.2 kmh 29.48 in998.3 mb 0.00 in0.0 mm 0.00 in0.0 mm 0.00 in0.0 mm
06:46 AM 30.6°F-0.8°C 24.9°F-3.9°C 79% 7.0 mph NE11.3 kmh NE 18.0 mph29.0 kmh 29.49 in998.6 mb 0.00 in0.0 mm 0.00 in0.0 mm 0.00 in0.0 mm
06:47 AM 30.6°F-0.8°C 24.6°F-4.1°C 78% 8.0 mph NE12.9 kmh NE 18.0 mph29.0 kmh 29.49 in998.6 mb 0.00 in0.0 mm 0.00 in0.0 mm 0.00 in0.0 mm
06:48 AM 30.6°F-0.8°C 24.9°F-3.9°C 79% 7.0 mph N11.3 kmh N 18.0 mph29.0 kmh 29.48 in998.3 mb 0.00 in0.0 mm 0.00 in0.0 mm 0.00 in0.0 mm
06:49 AM 30.6°F-0.8°C 24.6°F-4.1°C 78% 8.0 mph NE12.9 kmh NE 18.0 mph29.0 kmh 29.48 in998.3 mb 0.00 in0.0 mm 0.00 in0.0 mm 0.00 in0.0 mm
06:50 AM 30.6°F-0.8°C 24.6°F-4.1°C 78% 7.0 mph NNE11.3 kmh NNE 18.0 mph29.0 kmh 29.49 in998.6 mb 0.00 in0.0 mm 0.00 in0.0 mm 0.00 in0.0 mm
06:51 AM 30.6°F-0.8°C 24.6°F-4.1°C 78% 5.0 mph NE8.0 kmh NE 18.0 mph29.0 kmh 29.49 in998.6 mb 0.00 in0.0 mm 0.00 in0.0 mm 0.00 in0.0 mm
06:52 AM 30.6°F-0.8°C 24.6°F-4.1°C 78% 6.0 mph NE9.7 kmh NE 18.0 mph29.0 kmh 29.49 in998.6 mb 0.00 in0.0 mm 0.00 in0.0 mm 0.00 in0.0 mm
06:53 AM 30.6°F-0.8°C 24.6°F-4.1°C 78% 9.0 mph NNE14.5 kmh NNE 18.0 mph29.0 kmh 29.49 in998.6 mb 0.00 in0.0 mm 0.00 in0.0 mm 0.00 in0.0 mm
06:54 AM 30.6°F-0.8°C 24.6°F-4.1°C 78% 6.0 mph NE9.7 kmh NE 18.0 mph29.0 kmh 29.49 in998.6 mb 0.00 in0.0 mm 0.00 in0.0 mm 0.00 in0.0 mm
06:55 AM 30.6°F-0.8°C 24.6°F-4.1°C 78% 8.0 mph NE12.9 kmh NE 18.0 mph29.0 kmh 29.49 in998.6 mb 0.00 in0.0 mm 0.00 in0.0 mm 0.00 in0.0 mm
06:56 AM 30.6°F-0.8°C 24.6°F-4.1°C 78% 7.0 mph NNE11.3 kmh NNE 14.0 mph22.5 kmh 29.49 in998.6 mb 0.00 in0.0 mm 0.00 in0.0 mm 0.00 in0.0 mm
06:57 AM 30.6°F-0.8°C 24.6°F-4.1°C 78% 9.0 mph NE14.5 kmh NE 15.0 mph24.1 kmh 29.49 in998.6 mb 0.00 in0.0 mm 0.00 in0.0 mm 0.00 in0.0 mm
06:58 AM 30.7°F-0.7°C 24.7°F-4.1°C 78% 10.0 mph NE16.1 kmh NE 17.0 mph27.4 kmh 29.49 in998.6 mb 0.00 in0.0 mm 0.00 in0.0 mm 0.00 in0.0 mm
06:59 AM 30.7°F-0.7°C 24.7°F-4.1°C 78% 17.0 mph NE27.4 kmh NE 17.0 mph27.4 kmh 29.49 in998.6 mb 0.00 in0.0 mm 0.00 in0.0 mm 0.00 in0.0 mm
07:00 AM 30.7°F-0.7°C 24.7°F-4.1°C 78% 11.0 mph 17.7 kmh 17.0 mph27.4 kmh 29.49 in998.6 mb 0.00 in0.0 mm 0.00 in0.0 mm 0.00 in0.0 mm
07:01 AM 30.8°F-0.7°C 24.8°F-4.0°C 78% 12.0 mph NE19.3 kmh NE 17.0 mph27.4 kmh 29.49 in998.6 mb 0.00 in0.0 mm 0.00 in0.0 mm 0.00 in0.0 mm
07:02 AM 30.8°F-0.7°C 24.8°F-4.0°C 78% 9.0 mph NE14.5 kmh NE 17.0 mph27.4 kmh 29.49 in998.6 mb 0.00 in0.0 mm 0.00 in0.0 mm 0.00 in0.0 mm
07:03 AM 30.9°F-0.6°C 24.9°F-3.9°C 78% 13.0 mph NE20.9 kmh NE 17.0 mph27.4 kmh 29.49 in998.6 mb 0.00 in0.0 mm 0.00 in0.0 mm 0.00 in0.0 mm
07:04 AM 30.9°F-0.6°C 24.9°F-3.9°C 78% 12.0 mph N19.3 kmh N 17.0 mph27.4 kmh 29.49 in998.6 mb 0.00 in0.0 mm 0.00 in0.0 mm 0.00 in0.0 mm
07:05 AM 30.9°F-0.6°C 24.6°F-4.1°C 77% 6.0 mph NE9.7 kmh NE 17.0 mph27.4 kmh 29.49 in998.6 mb 0.00 in0.0 mm 0.00 in0.0 mm 0.00 in0.0 mm
07:06 AM 31.0°F-0.6°C 24.7°F-4.1°C 77% 8.0 mph NE12.9 kmh NE 17.0 mph27.4 kmh 29.49 in998.6 mb 0.00 in0.0 mm 0.00 in0.0 mm 0.00 in0.0 mm
07:07 AM 31.0°F-0.6°C 25.0°F-3.9°C 78% 7.0 mph NE11.3 kmh NE 17.0 mph27.4 kmh 29.49 in998.6 mb 0.00 in0.0 mm 0.00 in0.0 mm 0.00 in0.0 mm
07:08 AM 31.0°F-0.6°C 24.7°F-4.1°C 77% 12.0 mph NE19.3 kmh NE 20.0 mph32.2 kmh 29.49 in998.6 mb 0.00 in0.0 mm 0.00 in0.0 mm 0.00 in0.0 mm
07:09 AM 31.1°F-0.5°C 24.7°F-4.1°C 77% 9.0 mph N14.5 kmh N 20.0 mph32.2 kmh 29.49 in998.6 mb 0.00 in0.0 mm 0.00 in0.0 mm 0.00 in0.0 mm
07:10 AM 31.1°F-0.5°C 24.7°F-4.1°C 77% 7.0 mph NE11.3 kmh NE 20.0 mph32.2 kmh 29.49 in998.6 mb 0.00 in0.0 mm 0.00 in0.0 mm 0.00 in0.0 mm
07:11 AM 31.1°F-0.5°C 24.7°F-4.1°C 77% 7.0 mph NE11.3 kmh NE 20.0 mph32.2 kmh 29.49 in998.6 mb 0.00 in0.0 mm 0.00 in0.0 mm 0.00 in0.0 mm
07:12 AM 31.1°F-0.5°C 24.7°F-4.1°C 77% 7.0 mph ENE11.3 kmh ENE 20.0 mph32.2 kmh 29.49 in998.6 mb 0.00 in0.0 mm 0.00 in0.0 mm 0.00 in0.0 mm
07:13 AM 31.1°F-0.5°C 24.7°F-4.1°C 77% 5.0 mph NNE8.0 kmh NNE 20.0 mph32.2 kmh 29.49 in998.6 mb 0.00 in0.0 mm 0.00 in0.0 mm 0.00 in0.0 mm
07:14 AM 31.1°F-0.5°C 24.7°F-4.1°C 77% 13.0 mph N20.9 kmh N 20.0 mph32.2 kmh 29.49 in998.6 mb 0.00 in0.0 mm 0.00 in0.0 mm 0.00 in0.0 mm
07:15 AM 31.1°F-0.5°C 24.7°F-4.1°C 77% 13.0 mph N20.9 kmh N 20.0 mph32.2 kmh 29.49 in998.6 mb 0.00 in0.0 mm 0.00 in0.0 mm 0.00 in0.0 mm
07:16 AM 31.2°F-0.4°C 24.8°F-4.0°C 77% 12.0 mph ENE19.3 kmh ENE 20.0 mph32.2 kmh 29.49 in998.6 mb 0.00 in0.0 mm 0.00 in0.0 mm 0.00 in0.0 mm
07:17 AM 31.2°F-0.4°C 24.8°F-4.0°C 77% 3.0 mph NNE4.8 kmh NNE 20.0 mph32.2 kmh 29.49 in998.6 mb 0.00 in0.0 mm 0.00 in0.0 mm 0.00 in0.0 mm
07:18 AM 31.2°F-0.4°C 24.8°F-4.0°C 77% 16.0 mph NNE25.7 kmh NNE 20.0 mph32.2 kmh 29.49 in998.6 mb 0.00 in0.0 mm 0.00 in0.0 mm 0.00 in0.0 mm
07:19 AM 31.3°F-0.4°C 24.9°F-3.9°C 77% 8.0 mph NE12.9 kmh NE 20.0 mph32.2 kmh 29.49 in998.6 mb 0.00 in0.0 mm 0.00 in0.0 mm 0.00 in0.0 mm
07:20 AM 31.3°F-0.4°C 24.9°F-3.9°C 77% 11.0 mph NE17.7 kmh NE 20.0 mph32.2 kmh 29.49 in998.6 mb 0.00 in0.0 mm 0.00 in0.0 mm 0.00 in0.0 mm
07:21 AM 31.3°F-0.4°C 24.9°F-3.9°C 77% 5.0 mph NE8.0 kmh NE 20.0 mph32.2 kmh 29.49 in998.6 mb 0.00 in0.0 mm 0.00 in0.0 mm 0.00 in0.0 mm
07:22 AM 31.3°F-0.4°C 24.9°F-3.9°C 77% 7.0 mph N11.3 kmh N 20.0 mph32.2 kmh 29.49 in998.6 mb 0.00 in0.0 mm 0.00 in0.0 mm 0.00 in0.0 mm
07:23 AM 31.3°F-0.4°C 24.9°F-3.9°C 77% 10.0 mph NNE16.1 kmh NNE 23.0 mph37.0 kmh 29.49 in998.6 mb 0.00 in0.0 mm 0.00 in0.0 mm 0.00 in0.0 mm
07:24 AM 31.3°F-0.4°C 24.6°F-4.1°C 76% 13.0 mph N20.9 kmh N 23.0 mph37.0 kmh 29.49 in998.6 mb 0.00 in0.0 mm 0.00 in0.0 mm 0.00 in0.0 mm
07:25 AM 31.3°F-0.4°C 24.6°F-4.1°C 76% 12.0 mph NE19.3 kmh NE 23.0 mph37.0 kmh 29.49 in998.6 mb 0.00 in0.0 mm 0.00 in0.0 mm 0.00 in0.0 mm
07:26 AM 31.4°F-0.3°C 25.0°F-3.9°C 77% 10.0 mph NNE16.1 kmh NNE 23.0 mph37.0 kmh 29.49 in998.6 mb 0.00 in0.0 mm 0.00 in0.0 mm 0.00 in0.0 mm
07:27 AM 31.4°F-0.3°C 24.7°F-4.1°C 76% 10.0 mph NNE16.1 kmh NNE 23.0 mph37.0 kmh 29.49 in998.6 mb 0.00 in0.0 mm 0.00 in0.0 mm 0.00 in0.0 mm
07:28 AM 31.4°F-0.3°C 24.7°F-4.1°C 76% 8.0 mph NNE12.9 kmh NNE 23.0 mph37.0 kmh 29.49 in998.6 mb 0.00 in0.0 mm 0.00 in0.0 mm 0.00 in0.0 mm
07:29 AM 31.4°F-0.3°C 24.7°F-4.1°C 76% 6.0 mph NE9.7 kmh NE 23.0 mph37.0 kmh 29.49 in998.6 mb 0.00 in0.0 mm 0.00 in0.0 mm 0.00 in0.0 mm
07:30 AM 31.4°F-0.3°C 24.7°F-4.1°C 76% 8.0 mph NE12.9 kmh NE 23.0 mph37.0 kmh 29.49 in998.6 mb 0.00 in0.0 mm 0.00 in0.0 mm 0.00 in0.0 mm
07:31 AM 31.5°F-0.3°C 24.8°F-4.0°C 76% 14.0 mph N22.5 kmh N 23.0 mph37.0 kmh 29.49 in998.6 mb 0.00 in0.0 mm 0.00 in0.0 mm 0.00 in0.0 mm
07:32 AM 31.5°F-0.3°C 24.8°F-4.0°C 76% 9.0 mph NNE14.5 kmh NNE 23.0 mph37.0 kmh 29.49 in998.6 mb 0.00 in0.0 mm 0.00 in0.0 mm 0.00 in0.0 mm
07:33 AM 31.5°F-0.3°C 24.8°F-4.0°C 76% 20.0 mph N32.2 kmh N 23.0 mph37.0 kmh 29.50 in999.0 mb 0.00 in0.0 mm 0.00 in0.0 mm 0.00 in0.0 mm
07:34 AM 31.5°F-0.3°C 24.5°F-4.2°C 75% 10.0 mph NNE16.1 kmh NNE 23.0 mph37.0 kmh 29.49 in998.6 mb 0.00 in0.0 mm 0.00 in0.0 mm 0.00 in0.0 mm
07:35 AM 31.6°F-0.2°C 24.6°F-4.1°C 75% 8.0 mph N12.9 kmh N 23.0 mph37.0 kmh 29.49 in998.6 mb 0.00 in0.0 mm 0.00 in0.0 mm 0.00 in0.0 mm
07:36 AM 31.6°F-0.2°C 24.6°F-4.1°C 75% 5.0 mph NE8.0 kmh NE 23.0 mph37.0 kmh 29.50 in999.0 mb 0.00 in0.0 mm 0.00 in0.0 mm 0.00 in0.0 mm
07:37 AM 31.6°F-0.2°C 24.6°F-4.1°C 75% 7.0 mph NE11.3 kmh NE 23.0 mph37.0 kmh 29.49 in998.6 mb 0.00 in0.0 mm 0.00 in0.0 mm 0.00 in0.0 mm
07:38 AM 31.6°F-0.2°C 24.6°F-4.1°C 75% 13.0 mph NE20.9 kmh NE 23.0 mph37.0 kmh 29.49 in998.6 mb 0.00 in0.0 mm 0.00 in0.0 mm 0.00 in0.0 mm
07:39 AM 31.7°F-0.2°C 24.7°F-4.1°C 75% 10.0 mph N16.1 kmh N 23.0 mph37.0 kmh 29.49 in998.6 mb 0.00 in0.0 mm 0.00 in0.0 mm 0.00 in0.0 mm
07:40 AM 31.7°F-0.2°C 24.7°F-4.1°C 75% 6.0 mph N9.7 kmh N 23.0 mph37.0 kmh 29.50 in999.0 mb 0.00 in0.0 mm 0.00 in0.0 mm 0.00 in0.0 mm
07:41 AM 31.7°F-0.2°C 24.7°F-4.1°C 75% 13.0 mph NNE20.9 kmh NNE 23.0 mph37.0 kmh 29.50 in999.0 mb 0.00 in0.0 mm 0.00 in0.0 mm 0.00 in0.0 mm
07:42 AM 31.7°F-0.2°C 24.7°F-4.1°C 75% 8.0 mph NE12.9 kmh NE 23.0 mph37.0 kmh 29.50 in999.0 mb 0.00 in0.0 mm 0.00 in0.0 mm 0.00 in0.0 mm
07:43 AM 31.7°F-0.2°C 24.7°F-4.1°C 75% 10.0 mph ENE16.1 kmh ENE 22.0 mph35.4 kmh 29.50 in999.0 mb 0.00 in0.0 mm 0.00 in0.0 mm 0.00 in0.0 mm
07:44 AM 31.7°F-0.2°C 24.7°F-4.1°C 75% 7.0 mph NE11.3 kmh NE 22.0 mph35.4 kmh 29.49 in998.6 mb 0.00 in0.0 mm 0.00 in0.0 mm 0.00 in0.0 mm
07:45 AM 31.7°F-0.2°C 24.7°F-4.1°C 75% 18.0 mph N29.0 kmh N 22.0 mph35.4 kmh 29.50 in999.0 mb 0.00 in0.0 mm 0.00 in0.0 mm 0.00 in0.0 mm
07:46 AM 31.7°F-0.2°C 24.4°F-4.2°C 74% 10.0 mph NNE16.1 kmh NNE 22.0 mph35.4 kmh 29.50 in999.0 mb 0.00 in0.0 mm 0.00 in0.0 mm 0.00 in0.0 mm
07:47 AM 31.7°F-0.2°C 24.4°F-4.2°C 74% 13.0 mph NE20.9 kmh NE 22.0 mph35.4 kmh 29.50 in999.0 mb 0.00 in0.0 mm 0.00 in0.0 mm 0.00 in0.0 mm
07:48 AM 31.7°F-0.2°C 24.4°F-4.2°C 74% 9.0 mph NE14.5 kmh NE 22.0 mph35.4 kmh 29.50 in999.0 mb 0.00 in0.0 mm 0.00 in0.0 mm 0.00 in0.0 mm
07:49 AM 31.8°F-0.1°C 24.5°F-4.2°C 74% 14.0 mph N22.5 kmh N 22.0 mph35.4 kmh 29.50 in999.0 mb 0.00 in0.0 mm 0.00 in0.0 mm 0.00 in0.0 mm
07:50 AM 31.8°F-0.1°C 24.5°F-4.2°C 74% 11.0 mph NE17.7 kmh NE 22.0 mph35.4 kmh 29.50 in999.0 mb 0.00 in0.0 mm 0.00 in0.0 mm 0.00 in0.0 mm
07:51 AM 31.8°F-0.1°C 24.5°F-4.2°C 74% 14.0 mph NE22.5 kmh NE 22.0 mph35.4 kmh 29.50 in999.0 mb 0.00 in0.0 mm 0.00 in0.0 mm 0.00 in0.0 mm
07:52 AM 31.9°F-0.1°C 24.6°F-4.1°C 74% 15.0 mph NE24.1 kmh NE 22.0 mph35.4 kmh 29.50 in999.0 mb 0.00 in0.0 mm 0.00 in0.0 mm 0.00 in0.0 mm
07:53 AM 31.8°F-0.1°C 24.5°F-4.2°C 74% 13.0 mph NE20.9 kmh NE 21.0 mph33.8 kmh 29.50 in999.0 mb 0.00 in0.0 mm 0.00 in0.0 mm 0.00 in0.0 mm
07:54 AM 31.9°F-0.1°C 24.6°F-4.1°C 74% 11.0 mph NNE17.7 kmh NNE 21.0 mph33.8 kmh 29.50 in999.0 mb 0.00 in0.0 mm 0.00 in0.0 mm 0.00 in0.0 mm
07:55 AM 31.8°F-0.1°C 24.5°F-4.2°C 74% 9.0 mph NE14.5 kmh NE 21.0 mph33.8 kmh 29.50 in999.0 mb 0.00 in0.0 mm 0.00 in0.0 mm 0.00 in0.0 mm
07:56 AM 31.9°F-0.1°C 24.6°F-4.1°C 74% 6.0 mph NE9.7 kmh NE 21.0 mph33.8 kmh 29.50 in999.0 mb 0.00 in0.0 mm 0.00 in0.0 mm 0.00 in0.0 mm
07:57 AM 31.9°F-0.1°C 24.6°F-4.1°C 74% 8.0 mph N12.9 kmh N 21.0 mph33.8 kmh 29.50 in999.0 mb 0.00 in0.0 mm 0.00 in0.0 mm 0.00 in0.0 mm
07:58 AM 31.9°F-0.1°C 24.6°F-4.1°C 74% 15.0 mph NNE24.1 kmh NNE 21.0 mph33.8 kmh 29.50 in999.0 mb 0.00 in0.0 mm 0.00 in0.0 mm 0.00 in0.0 mm
07:59 AM 31.9°F-0.1°C 24.6°F-4.1°C 74% 16.0 mph NNE25.7 kmh NNE 21.0 mph33.8 kmh 29.50 in999.0 mb 0.00 in0.0 mm 0.00 in0.0 mm 0.00 in0.0 mm
08:00 AM 31.9°F-0.1°C 24.6°F-4.1°C 74% 16.0 mph N25.7 kmh N 21.0 mph33.8 kmh 29.50 in999.0 mb 0.00 in0.0 mm 0.00 in0.0 mm 0.00 in0.0 mm
08:01 AM 31.9°F-0.1°C 24.6°F-4.1°C 74% 13.0 mph NE20.9 kmh NE 21.0 mph33.8 kmh 29.50 in999.0 mb 0.00 in0.0 mm 0.00 in0.0 mm 0.00 in0.0 mm
08:02 AM 31.9°F-0.1°C 24.6°F-4.1°C 74% 13.0 mph NE20.9 kmh NE 21.0 mph33.8 kmh 29.50 in999.0 mb 0.00 in0.0 mm 0.00 in0.0 mm 0.00 in0.0 mm
08:03 AM 31.9°F-0.1°C 24.6°F-4.1°C 74% 12.0 mph NE19.3 kmh NE 21.0 mph33.8 kmh 29.50 in999.0 mb 0.00 in0.0 mm 0.00 in0.0 mm 0.00 in0.0 mm
08:04 AM 31.9°F-0.1°C 24.6°F-4.1°C 74% 8.0 mph N12.9 kmh N 21.0 mph33.8 kmh 29.50 in999.0 mb 0.00 in0.0 mm 0.00 in0.0 mm 0.00 in0.0 mm
08:05 AM 31.9°F-0.1°C 24.6°F-4.1°C 74% 14.0 mph N22.5 kmh N 21.0 mph33.8 kmh 29.50 in999.0 mb 0.00 in0.0 mm 0.00 in0.0 mm 0.00 in0.0 mm
08:06 AM 31.9°F-0.1°C 24.6°F-4.1°C 74% 10.0 mph NE16.1 kmh NE 21.0 mph33.8 kmh 29.50 in999.0 mb 0.00 in0.0 mm 0.00 in0.0 mm 0.00 in0.0 mm
08:07 AM 31.9°F-0.1°C 24.6°F-4.1°C 74% 11.0 mph N17.7 kmh N 21.0 mph33.8 kmh 29.50 in999.0 mb 0.00 in0.0 mm 0.00 in0.0 mm 0.00 in0.0 mm
08:08 AM 31.9°F-0.1°C 24.6°F-4.1°C 74% 8.0 mph N12.9 kmh N 21.0 mph33.8 kmh 29.50 in999.0 mb 0.00 in0.0 mm 0.00 in0.0 mm 0.00 in0.0 mm
08:09 AM 31.9°F-0.1°C 24.6°F-4.1°C 74% 12.0 mph N19.3 kmh N 21.0 mph33.8 kmh 29.50 in999.0 mb 0.00 in0.0 mm 0.00 in0.0 mm 0.00 in0.0 mm
08:10 AM 31.9°F-0.1°C 24.6°F-4.1°C 74% 7.0 mph N11.3 kmh N 21.0 mph33.8 kmh 29.50 in999.0 mb 0.00 in0.0 mm 0.00 in0.0 mm 0.00 in0.0 mm
08:11 AM 31.9°F-0.1°C 24.6°F-4.1°C 74% 4.0 mph N6.4 kmh N 21.0 mph33.8 kmh 29.50 in999.0 mb 0.00 in0.0 mm 0.00 in0.0 mm 0.00 in0.0 mm
08:12 AM 31.9°F-0.1°C 24.6°F-4.1°C 74% 6.0 mph NNE9.7 kmh NNE 21.0 mph33.8 kmh 29.51 in999.3 mb 0.00 in0.0 mm 0.00 in0.0 mm 0.00 in0.0 mm
08:13 AM 31.9°F-0.1°C 24.6°F-4.1°C 74% 8.0 mph 12.9 kmh 20.0 mph32.2 kmh 29.50 in999.0 mb 0.00 in0.0 mm 0.00 in0.0 mm 0.00 in0.0 mm
08:14 AM 31.9°F-0.1°C 24.6°F-4.1°C 74% 15.0 mph NNE24.1 kmh NNE 20.0 mph32.2 kmh 29.50 in999.0 mb 0.00 in0.0 mm 0.00 in0.0 mm 0.00 in0.0 mm
08:15 AM 31.9°F-0.1°C 24.6°F-4.1°C 74% 10.0 mph NNE16.1 kmh NNE 26.0 mph41.8 kmh 29.50 in999.0 mb 0.00 in0.0 mm 0.00 in0.0 mm 0.00 in0.0 mm
08:16 AM 31.9°F-0.1°C 24.6°F-4.1°C 74% 8.0 mph NNE12.9 kmh NNE 26.0 mph41.8 kmh 29.51 in999.3 mb 0.00 in0.0 mm 0.00 in0.0 mm 0.00 in0.0 mm
08:17 AM 31.9°F-0.1°C 24.6°F-4.1°C 74% 9.0 mph NE14.5 kmh NE 26.0 mph41.8 kmh 29.50 in999.0 mb 0.00 in0.0 mm 0.00 in0.0 mm 0.00 in0.0 mm
08:18 AM 31.9°F-0.1°C 24.6°F-4.1°C 74% 16.0 mph NE25.7 kmh NE 26.0 mph41.8 kmh 29.50 in999.0 mb 0.00 in0.0 mm 0.00 in0.0 mm 0.00 in0.0 mm
08:19 AM 31.9°F-0.1°C 24.6°F-4.1°C 74% 12.0 mph NE19.3 kmh NE 26.0 mph41.8 kmh 29.50 in999.0 mb 0.00 in0.0 mm 0.00 in0.0 mm 0.00 in0.0 mm
08:20 AM 32.0°F0.0°C 24.7°F-4.1°C 74% 23.0 mph N37.0 kmh N 26.0 mph41.8 kmh 29.50 in999.0 mb 0.00 in0.0 mm 0.00 in0.0 mm 0.00 in0.0 mm
08:21 AM 32.0°F0.0°C 24.7°F-4.1°C 74% 6.0 mph NNE9.7 kmh NNE 26.0 mph41.8 kmh 29.50 in999.0 mb 0.00 in0.0 mm 0.00 in0.0 mm 0.00 in0.0 mm
08:22 AM 32.0°F0.0°C 24.7°F-4.1°C 74% 12.0 mph NNE19.3 kmh NNE 26.0 mph41.8 kmh 29.50 in999.0 mb 0.00 in0.0 mm 0.00 in0.0 mm 0.00 in0.0 mm
08:23 AM 32.0°F0.0°C 24.3°F-4.3°C 73% 7.0 mph NNE11.3 kmh NNE 26.0 mph41.8 kmh 29.50 in999.0 mb 0.00 in0.0 mm 0.00 in0.0 mm 0.00 in0.0 mm
08:24 AM 32.0°F0.0°C 24.3°F-4.3°C 73% 7.0 mph NE11.3 kmh NE 26.0 mph41.8 kmh 29.51 in999.3 mb 0.00 in0.0 mm 0.00 in0.0 mm 0.00 in0.0 mm
08:25 AM 32.0°F0.0°C 24.7°F-4.1°C 74% 21.0 mph NNE33.8 kmh NNE 26.0 mph41.8 kmh 29.51 in999.3 mb 0.00 in0.0 mm 0.00 in0.0 mm 0.00 in0.0 mm
08:26 AM 32.0°F0.0°C 24.3°F-4.3°C 73% 8.0 mph N12.9 kmh N 26.0 mph41.8 kmh 29.51 in999.3 mb 0.00 in0.0 mm 0.00 in0.0 mm 0.00 in0.0 mm
08:27 AM 32.0°F0.0°C 24.3°F-4.3°C 73% 10.0 mph 16.1 kmh 26.0 mph41.8 kmh 29.51 in999.3 mb 0.00 in0.0 mm 0.00 in0.0 mm 0.00 in0.0 mm
08:28 AM 32.0°F0.0°C 24.3°F-4.3°C 73% 10.0 mph NE16.1 kmh NE 26.0 mph41.8 kmh 29.51 in999.3 mb 0.00 in0.0 mm 0.00 in0.0 mm 0.00 in0.0 mm
08:29 AM 32.0°F0.0°C 24.3°F-4.3°C 73% 7.0 mph N11.3 kmh N 26.0 mph41.8 kmh 29.51 in999.3 mb 0.00 in0.0 mm 0.00 in0.0 mm 0.00 in0.0 mm
08:30 AM 32.0°F0.0°C 24.3°F-4.3°C 73% 9.0 mph N14.5 kmh N 26.0 mph41.8 kmh 29.51 in999.3 mb 0.00 in0.0 mm 0.00 in0.0 mm 0.00 in0.0 mm
08:31 AM 32.0°F0.0°C 24.3°F-4.3°C 73% 8.0 mph N12.9 kmh N 26.0 mph41.8 kmh 29.51 in999.3 mb 0.00 in0.0 mm 0.00 in0.0 mm 0.00 in0.0 mm
08:32 AM 32.0°F0.0°C 24.3°F-4.3°C 73% 8.0 mph N12.9 kmh N 26.0 mph41.8 kmh 29.51 in999.3 mb 0.00 in0.0 mm 0.00 in0.0 mm 0.00 in0.0 mm
08:33 AM 32.1°F0.1°C 24.4°F-4.2°C 73% 16.0 mph NNE25.7 kmh NNE 26.0 mph41.8 kmh 29.51 in999.3 mb 0.00 in0.0 mm 0.00 in0.0 mm 0.00 in0.0 mm
08:34 AM 32.1°F0.1°C 24.4°F-4.2°C 73% 13.0 mph NE20.9 kmh NE 26.0 mph41.8 kmh 29.51 in999.3 mb 0.00 in0.0 mm 0.00 in0.0 mm 0.00 in0.0 mm
08:35 AM 32.1°F0.1°C 24.4°F-4.2°C 73% 10.0 mph N16.1 kmh N 21.0 mph33.8 kmh 29.51 in999.3 mb 0.00 in0.0 mm 0.00 in0.0 mm 0.00 in0.0 mm
08:36 AM 32.1°F0.1°C 24.4°F-4.2°C 73% 9.0 mph NNE14.5 kmh NNE 21.0 mph33.8 kmh 29.51 in999.3 mb 0.00 in0.0 mm 0.00 in0.0 mm 0.00 in0.0 mm
08:37 AM 32.1°F0.1°C 24.4°F-4.2°C 73% 9.0 mph NE14.5 kmh NE 21.0 mph33.8 kmh 29.51 in999.3 mb 0.00 in0.0 mm 0.00 in0.0 mm 0.00 in0.0 mm
08:38 AM 32.1°F0.1°C 24.4°F-4.2°C 73% 15.0 mph NW24.1 kmh NW 21.0 mph33.8 kmh 29.51 in999.3 mb 0.00 in0.0 mm 0.00 in0.0 mm 0.00 in0.0 mm
08:39 AM 32.1°F0.1°C 24.4°F-4.2°C 73% 11.0 mph ENE17.7 kmh ENE 21.0 mph33.8 kmh 29.51 in999.3 mb 0.00 in0.0 mm 0.00 in0.0 mm 0.00 in0.0 mm
08:40 AM 32.1°F0.1°C 24.4°F-4.2°C 73% 7.0 mph NNE11.3 kmh NNE 21.0 mph33.8 kmh 29.52 in999.7 mb 0.00 in0.0 mm 0.00 in0.0 mm 0.00 in0.0 mm
08:41 AM 32.1°F0.1°C 24.4°F-4.2°C 73% 8.0 mph N12.9 kmh N 21.0 mph33.8 kmh 29.51 in999.3 mb 0.00 in0.0 mm 0.00 in0.0 mm 0.00 in0.0 mm
08:42 AM 32.2°F0.1°C 24.5°F-4.2°C 73% 10.0 mph NNE16.1 kmh NNE 21.0 mph33.8 kmh 29.51 in999.3 mb 0.00 in0.0 mm 0.00 in0.0 mm 0.00 in0.0 mm
08:43 AM 32.2°F0.1°C 24.5°F-4.2°C 73% 6.0 mph N9.7 kmh N 21.0 mph33.8 kmh 29.51 in999.3 mb 0.00 in0.0 mm 0.00 in0.0 mm 0.00 in0.0 mm
08:44 AM 32.2°F0.1°C 24.5°F-4.2°C 73% 9.0 mph NE14.5 kmh NE 21.0 mph33.8 kmh 29.51 in999.3 mb 0.00 in0.0 mm 0.00 in0.0 mm 0.00 in0.0 mm
08:45 AM 32.2°F0.1°C 24.5°F-4.2°C 73% 19.0 mph NNE30.6 kmh NNE 23.0 mph37.0 kmh 29.51 in999.3 mb 0.00 in0.0 mm 0.00 in0.0 mm 0.00 in0.0 mm
08:46 AM 32.2°F0.1°C 24.5°F-4.2°C 73% 16.0 mph NE25.7 kmh NE 23.0 mph37.0 kmh 29.51 in999.3 mb 0.00 in0.0 mm 0.00 in0.0 mm 0.00 in0.0 mm
08:47 AM 32.2°F0.1°C 24.2°F-4.3°C 72% 7.0 mph NE11.3 kmh NE 23.0 mph37.0 kmh 29.51 in999.3 mb 0.00 in0.0 mm 0.00 in0.0 mm 0.00 in0.0 mm
08:48 AM 32.2°F0.1°C 24.2°F-4.3°C 72% 12.0 mph N19.3 kmh N 23.0 mph37.0 kmh 29.51 in999.3 mb 0.00 in0.0 mm 0.00 in0.0 mm 0.00 in0.0 mm
08:49 AM 32.2°F0.1°C 24.2°F-4.3°C 72% 10.0 mph ENE16.1 kmh ENE 23.0 mph37.0 kmh 29.51 in999.3 mb 0.00 in0.0 mm 0.00 in0.0 mm 0.00 in0.0 mm
08:50 AM 32.2°F0.1°C 24.2°F-4.3°C 72% 11.0 mph NNE17.7 kmh NNE 23.0 mph37.0 kmh 29.51 in999.3 mb 0.00 in0.0 mm 0.00 in0.0 mm 0.00 in0.0 mm
08:51 AM 32.2°F0.1°C 24.2°F-4.3°C 72% 12.0 mph ENE19.3 kmh ENE 23.0 mph37.0 kmh 29.51 in999.3 mb 0.00 in0.0 mm 0.00 in0.0 mm 0.00 in0.0 mm
08:52 AM 32.2°F0.1°C 24.5°F-4.2°C 73% 8.0 mph NE12.9 kmh NE 23.0 mph37.0 kmh 29.51 in999.3 mb 0.00 in0.0 mm 0.00 in0.0 mm 0.00 in0.0 mm
08:53 AM 32.2°F0.1°C 24.5°F-4.2°C 73% 3.0 mph N4.8 kmh N 23.0 mph37.0 kmh 29.52 in999.7 mb 0.00 in0.0 mm 0.00 in0.0 mm 0.00 in0.0 mm
08:54 AM 32.2°F0.1°C 24.5°F-4.2°C 73% 12.0 mph N19.3 kmh N 23.0 mph37.0 kmh 29.51 in999.3 mb 0.00 in0.0 mm 0.00 in0.0 mm 0.00 in0.0 mm
08:55 AM 32.2°F0.1°C 24.2°F-4.3°C 72% 12.0 mph N19.3 kmh N 23.0 mph37.0 kmh 29.51 in999.3 mb 0.00 in0.0 mm 0.00 in0.0 mm 0.00 in0.0 mm
08:56 AM 32.2°F0.1°C 24.2°F-4.3°C 72% 15.0 mph NE24.1 kmh NE 23.0 mph37.0 kmh 29.51 in999.3 mb 0.00 in0.0 mm 0.00 in0.0 mm 0.00 in0.0 mm
08:57 AM 32.2°F0.1°C 24.2°F-4.3°C 72% 10.0 mph N16.1 kmh N 23.0 mph37.0 kmh 29.51 in999.3 mb 0.00 in0.0 mm 0.00 in0.0 mm 0.00 in0.0 mm
08:58 AM 32.2°F0.1°C 24.2°F-4.3°C 72% 14.0 mph NE22.5 kmh NE 23.0 mph37.0 kmh 29.51 in999.3 mb 0.00 in0.0 mm 0.00 in0.0 mm 0.00 in0.0 mm
08:59 AM 32.2°F0.1°C 24.2°F-4.3°C 72% 11.0 mph NE17.7 kmh NE 23.0 mph37.0 kmh 29.51 in999.3 mb 0.00 in0.0 mm 0.00 in0.0 mm 0.00 in0.0 mm
09:00 AM 32.2°F0.1°C 24.5°F-4.2°C 73% 9.0 mph NE14.5 kmh NE 23.0 mph37.0 kmh 29.51 in999.3 mb 0.00 in0.0 mm 0.00 in0.0 mm 0.00 in0.0 mm
09:01 AM 32.2°F0.1°C 24.5°F-4.2°C 73% 10.0 mph NNE16.1 kmh NNE 23.0 mph37.0 kmh 29.51 in999.3 mb 0.00 in0.0 mm 0.00 in0.0 mm 0.00 in0.0 mm
09:02 AM 32.2°F0.1°C 24.5°F-4.2°C 73% 16.0 mph NNE25.7 kmh NNE 23.0 mph37.0 kmh 29.51 in999.3 mb 0.00 in0.0 mm 0.00 in0.0 mm 0.00 in0.0 mm
09:03 AM 32.2°F0.1°C 24.5°F-4.2°C 73% 9.0 mph N14.5 kmh N 23.0 mph37.0 kmh 29.51 in999.3 mb 0.00 in0.0 mm 0.00 in0.0 mm 0.00 in0.0 mm
09:04 AM 32.2°F0.1°C 24.5°F-4.2°C 73% 5.0 mph NNE8.0 kmh NNE 23.0 mph37.0 kmh 29.51 in999.3 mb 0.00 in0.0 mm 0.00 in0.0 mm 0.00 in0.0 mm
09:05 AM 32.1°F0.1°C 24.4°F-4.2°C 73% 7.0 mph NE11.3 kmh NE 23.0 mph37.0 kmh 29.51 in999.3 mb 0.00 in0.0 mm 0.00 in0.0 mm 0.00 in0.0 mm
09:06 AM 32.1°F0.1°C 24.4°F-4.2°C 73% 8.0 mph NNE12.9 kmh NNE 23.0 mph37.0 kmh 29.51 in999.3 mb 0.00 in0.0 mm 0.00 in0.0 mm 0.00 in0.0 mm
09:07 AM 32.1°F0.1°C 24.4°F-4.2°C 73% 19.0 mph NNE30.6 kmh NNE 23.0 mph37.0 kmh 29.51 in999.3 mb 0.00 in0.0 mm 0.00 in0.0 mm 0.00 in0.0 mm
09:08 AM 32.1°F0.1°C 24.4°F-4.2°C 73% 10.0 mph NNE16.1 kmh NNE 23.0 mph37.0 kmh 29.51 in999.3 mb 0.00 in0.0 mm 0.00 in0.0 mm 0.00 in0.0 mm
09:09 AM 32.1°F0.1°C 24.4°F-4.2°C 73% 18.0 mph NNE29.0 kmh NNE 23.0 mph37.0 kmh 29.51 in999.3 mb 0.00 in0.0 mm 0.00 in0.0 mm 0.00 in0.0 mm
09:10 AM 32.1°F0.1°C 24.4°F-4.2°C 73% 12.0 mph NE19.3 kmh NE 23.0 mph37.0 kmh 29.51 in999.3 mb 0.00 in0.0 mm 0.00 in0.0 mm 0.00 in0.0 mm
09:11 AM 32.1°F0.1°C 24.4°F-4.2°C 73% 7.0 mph NNE11.3 kmh NNE 23.0 mph37.0 kmh 29.51 in999.3 mb 0.00 in0.0 mm 0.00 in0.0 mm 0.00 in0.0 mm
09:12 AM 32.1°F0.1°C 24.4°F-4.2°C 73% 16.0 mph E25.7 kmh E 23.0 mph37.0 kmh 29.51 in999.3 mb 0.00 in0.0 mm 0.00 in0.0 mm 0.00 in0.0 mm
09:13 AM 32.1°F0.1°C 24.4°F-4.2°C 73% 7.0 mph NE11.3 kmh NE 23.0 mph37.0 kmh 29.52 in999.7 mb 0.00 in0.0 mm 0.00 in0.0 mm 0.00 in0.0 mm
09:14 AM 32.1°F0.1°C 24.4°F-4.2°C 73% 9.0 mph NE14.5 kmh NE 23.0 mph37.0 kmh 29.51 in999.3 mb 0.00 in0.0 mm 0.00 in0.0 mm 0.00 in0.0 mm
09:15 AM 32.1°F0.1°C 24.4°F-4.2°C 73% 11.0 mph N17.7 kmh N 23.0 mph37.0 kmh 29.51 in999.3 mb 0.00 in0.0 mm 0.00 in0.0 mm 0.00 in0.0 mm
09:16 AM 32.1°F0.1°C 24.4°F-4.2°C 73% 5.0 mph NW8.0 kmh NW 23.0 mph37.0 kmh 29.51 in999.3 mb 0.00 in0.0 mm 0.00 in0.0 mm 0.00 in0.0 mm
09:17 AM 32.1°F0.1°C 24.4°F-4.2°C 73% 13.0 mph NE20.9 kmh NE 23.0 mph37.0 kmh 29.51 in999.3 mb 0.00 in0.0 mm 0.00 in0.0 mm 0.00 in0.0 mm
09:18 AM 32.1°F0.1°C 24.4°F-4.2°C 73% 19.0 mph NNE30.6 kmh NNE 23.0 mph37.0 kmh 29.51 in999.3 mb 0.00 in0.0 mm 0.00 in0.0 mm 0.00 in0.0 mm
09:19 AM 32.2°F0.1°C 24.5°F-4.2°C 73% 7.0 mph N11.3 kmh N 23.0 mph37.0 kmh 29.51 in999.3 mb 0.00 in0.0 mm 0.00 in0.0 mm 0.00 in0.0 mm
09:20 AM 32.2°F0.1°C 24.5°F-4.2°C 73% 5.0 mph N8.0 kmh N 23.0 mph37.0 kmh 29.51 in999.3 mb 0.00 in0.0 mm 0.00 in0.0 mm 0.00 in0.0 mm
09:21 AM 32.1°F0.1°C 24.4°F-4.2°C 73% 11.0 mph NE17.7 kmh NE 23.0 mph37.0 kmh 29.51 in999.3 mb 0.00 in0.0 mm 0.00 in0.0 mm 0.00 in0.0 mm
09:22 AM 32.2°F0.1°C 24.9°F-3.9°C 74% 11.0 mph NE17.7 kmh NE 23.0 mph37.0 kmh 29.51 in999.3 mb 0.00 in0.0 mm 0.00 in0.0 mm 0.00 in0.0 mm
09:23 AM 32.1°F0.1°C 24.4°F-4.2°C 73% 10.0 mph NE16.1 kmh NE 23.0 mph37.0 kmh 29.51 in999.3 mb 0.00 in0.0 mm 0.00 in0.0 mm 0.00 in0.0 mm
09:24 AM 32.1°F0.1°C 24.4°F-4.2°C 73% 7.0 mph N11.3 kmh N 23.0 mph37.0 kmh 29.51 in999.3 mb 0.00 in0.0 mm 0.00 in0.0 mm 0.00 in0.0 mm
09:25 AM 32.2°F0.1°C 24.5°F-4.2°C 73% 3.0 mph N4.8 kmh N 21.0 mph33.8 kmh 29.51 in999.3 mb 0.00 in0.0 mm 0.00 in0.0 mm 0.00 in0.0 mm
09:26 AM 32.1°F0.1°C 24.4°F-4.2°C 73% 9.0 mph N14.5 kmh N 21.0 mph33.8 kmh 29.51 in999.3 mb 0.00 in0.0 mm 0.00 in0.0 mm 0.00 in0.0 mm
09:27 AM 32.2°F0.1°C 24.5°F-4.2°C 73% 10.0 mph N16.1 kmh N 21.0 mph33.8 kmh 29.51 in999.3 mb 0.00 in0.0 mm 0.00 in0.0 mm 0.00 in0.0 mm
09:28 AM 32.2°F0.1°C 24.5°F-4.2°C 73% 8.0 mph NE12.9 kmh NE 21.0 mph33.8 kmh 29.51 in999.3 mb 0.00 in0.0 mm 0.00 in0.0 mm 0.00 in0.0 mm
09:29 AM 32.2°F0.1°C 24.5°F-4.2°C 73% 16.0 mph NE25.7 kmh NE 21.0 mph33.8 kmh 29.51 in999.3 mb 0.00 in0.0 mm 0.00 in0.0 mm 0.00 in0.0 mm
09:30 AM 32.2°F0.1°C 24.5°F-4.2°C 73% 11.0 mph N17.7 kmh N 21.0 mph33.8 kmh 29.52 in999.7 mb 0.00 in0.0 mm 0.00 in0.0 mm 0.00 in0.0 mm
09:31 AM 32.2°F0.1°C 24.2°F-4.3°C 72% 9.0 mph NE14.5 kmh NE 21.0 mph33.8 kmh 29.51 in999.3 mb 0.00 in0.0 mm 0.00 in0.0 mm 0.00 in0.0 mm
09:32 AM 32.2°F0.1°C 24.5°F-4.2°C 73% 9.0 mph NE14.5 kmh NE 21.0 mph33.8 kmh 29.51 in999.3 mb 0.00 in0.0 mm 0.00 in0.0 mm 0.00 in0.0 mm
09:33 AM 32.3°F0.2°C 24.6°F-4.1°C 73% 5.0 mph 8.0 kmh 21.0 mph33.8 kmh 29.51 in999.3 mb 0.00 in0.0 mm 0.00 in0.0 mm 0.00 in0.0 mm
09:34 AM 32.3°F0.2°C 24.3°F-4.3°C 72% 15.0 mph N24.1 kmh N 21.0 mph33.8 kmh 29.51 in999.3 mb 0.00 in0.0 mm 0.00 in0.0 mm 0.00 in0.0 mm
09:35 AM 32.3°F0.2°C 24.3°F-4.3°C 72% 11.0 mph NNE17.7 kmh NNE 18.0 mph29.0 kmh 29.51 in999.3 mb 0.00 in0.0 mm 0.00 in0.0 mm 0.00 in0.0 mm
09:36 AM 32.4°F0.2°C 24.4°F-4.2°C 72% 7.0 mph NE11.3 kmh NE 18.0 mph29.0 kmh 29.51 in999.3 mb 0.00 in0.0 mm 0.00 in0.0 mm 0.00 in0.0 mm
09:37 AM 32.4°F0.2°C 24.7°F-4.1°C 73% 14.0 mph NNE22.5 kmh NNE 18.0 mph29.0 kmh 29.51 in999.3 mb 0.00 in0.0 mm 0.00 in0.0 mm 0.00 in0.0 mm
09:38 AM 32.4°F0.2°C 24.4°F-4.2°C 72% 9.0 mph NE14.5 kmh NE 18.0 mph29.0 kmh 29.51 in999.3 mb 0.00 in0.0 mm 0.00 in0.0 mm 0.00 in0.0 mm
09:39 AM 32.4°F0.2°C 24.4°F-4.2°C 72% 16.0 mph NE25.7 kmh NE 19.0 mph30.6 kmh 29.51 in999.3 mb 0.00 in0.0 mm 0.00 in0.0 mm 0.00 in0.0 mm
09:40 AM 32.4°F0.2°C 24.4°F-4.2°C 72% 7.0 mph NE11.3 kmh NE 19.0 mph30.6 kmh 29.51 in999.3 mb 0.00 in0.0 mm 0.00 in0.0 mm 0.00 in0.0 mm
09:41 AM 32.4°F0.2°C 24.4°F-4.2°C 72% 5.0 mph N8.0 kmh N 19.0 mph30.6 kmh 29.51 in999.3 mb 0.00 in0.0 mm 0.00 in0.0 mm 0.00 in0.0 mm
09:42 AM 32.4°F0.2°C 24.4°F-4.2°C 72% 9.0 mph NE14.5 kmh NE 19.0 mph30.6 kmh 29.51 in999.3 mb 0.00 in0.0 mm 0.00 in0.0 mm 0.00 in0.0 mm
09:43 AM 32.4°F0.2°C 24.4°F-4.2°C 72% 13.0 mph NE20.9 kmh NE 19.0 mph30.6 kmh 29.51 in999.3 mb 0.00 in0.0 mm 0.00 in0.0 mm 0.00 in0.0 mm
09:44 AM 32.4°F0.2°C 24.4°F-4.2°C 72% 5.0 mph NNE8.0 kmh NNE 19.0 mph30.6 kmh 29.51 in999.3 mb 0.00 in0.0 mm 0.00 in0.0 mm 0.00 in0.0 mm
09:45 AM 32.5°F0.3°C 24.5°F-4.2°C 72% 7.0 mph N11.3 kmh N 19.0 mph30.6 kmh 29.51 in999.3 mb 0.00 in0.0 mm 0.00 in0.0 mm 0.00 in0.0 mm
09:46 AM 32.5°F0.3°C 24.5°F-4.2°C 72% 8.0 mph N12.9 kmh N 22.0 mph35.4 kmh 29.52 in999.7 mb 0.00 in0.0 mm 0.00 in0.0 mm 0.00 in0.0 mm
09:47 AM 32.5°F0.3°C 24.2°F-4.3°C 71% 14.0 mph NE22.5 kmh NE 22.0 mph35.4 kmh 29.52 in999.7 mb 0.00 in0.0 mm 0.00 in0.0 mm 0.00 in0.0 mm
09:48 AM 32.5°F0.3°C 24.5°F-4.2°C 72% 12.0 mph NNW19.3 kmh NNW 22.0 mph35.4 kmh 29.51 in999.3 mb 0.00 in0.0 mm 0.00 in0.0 mm 0.00 in0.0 mm
09:49 AM 32.6°F0.3°C 24.6°F-4.1°C 72% 6.0 mph NE9.7 kmh NE 22.0 mph35.4 kmh 29.52 in999.7 mb 0.00 in0.0 mm 0.00 in0.0 mm 0.00 in0.0 mm
09:50 AM 32.6°F0.3°C 24.6°F-4.1°C 72% 12.0 mph NNE19.3 kmh NNE 22.0 mph35.4 kmh 29.51 in999.3 mb 0.00 in0.0 mm 0.00 in0.0 mm 0.00 in0.0 mm
09:51 AM 32.6°F0.3°C 24.6°F-4.1°C 72% 20.0 mph NE32.2 kmh NE 22.0 mph35.4 kmh 29.52 in999.7 mb 0.00 in0.0 mm 0.00 in0.0 mm 0.00 in0.0 mm
09:52 AM 32.6°F0.3°C 24.3°F-4.3°C 71% 11.0 mph ENE17.7 kmh ENE 22.0 mph35.4 kmh 29.52 in999.7 mb 0.00 in0.0 mm 0.00 in0.0 mm 0.00 in0.0 mm
09:53 AM 32.6°F0.3°C 24.6°F-4.1°C 72% 8.0 mph NNE12.9 kmh NNE 22.0 mph35.4 kmh 29.51 in999.3 mb 0.00 in0.0 mm 0.00 in0.0 mm 0.00 in0.0 mm
09:54 AM 32.6°F0.3°C 24.6°F-4.1°C 72% 14.0 mph NE22.5 kmh NE 22.0 mph35.4 kmh 29.52 in999.7 mb 0.00 in0.0 mm 0.00 in0.0 mm 0.00 in0.0 mm
09:55 AM 32.6°F0.3°C 24.3°F-4.3°C 71% 18.0 mph NE29.0 kmh NE 22.0 mph35.4 kmh 29.51 in999.3 mb 0.00 in0.0 mm 0.00 in0.0 mm 0.00 in0.0 mm
09:56 AM 32.6°F0.3°C 24.6°F-4.1°C 72% 13.0 mph NNE20.9 kmh NNE 22.0 mph35.4 kmh 29.52 in999.7 mb 0.00 in0.0 mm 0.00 in0.0 mm 0.00 in0.0 mm
09:57 AM 32.6°F0.3°C 24.3°F-4.3°C 71% 5.0 mph NW8.0 kmh NW 22.0 mph35.4 kmh 29.52 in999.7 mb 0.00 in0.0 mm 0.00 in0.0 mm 0.00 in0.0 mm
09:58 AM 32.6°F0.3°C 24.3°F-4.3°C 71% 8.0 mph NNE12.9 kmh NNE 22.0 mph35.4 kmh 29.52 in999.7 mb 0.00 in0.0 mm 0.00 in0.0 mm 0.00 in0.0 mm
09:59 AM 32.6°F0.3°C 24.3°F-4.3°C 71% 12.0 mph N19.3 kmh N 22.0 mph35.4 kmh 29.52 in999.7 mb 0.00 in0.0 mm 0.00 in0.0 mm 0.00 in0.0 mm
10:00 AM 32.6°F0.3°C 24.3°F-4.3°C 71% 6.0 mph N9.7 kmh N 22.0 mph35.4 kmh 29.52 in999.7 mb 0.00 in0.0 mm 0.00 in0.0 mm 0.00 in0.0 mm
10:01 AM 32.6°F0.3°C 24.3°F-4.3°C 71% 10.0 mph N16.1 kmh N 22.0 mph35.4 kmh 29.52 in999.7 mb 0.00 in0.0 mm 0.00 in0.0 mm 0.00 in0.0 mm
10:02 AM 32.6°F0.3°C 24.3°F-4.3°C 71% 8.0 mph NNE12.9 kmh NNE 22.0 mph35.4 kmh 29.52 in999.7 mb 0.00 in0.0 mm 0.00 in0.0 mm 0.00 in0.0 mm
10:03 AM 32.7°F0.4°C 24.4°F-4.2°C 71% 10.0 mph NE16.1 kmh NE 22.0 mph35.4 kmh 29.52 in999.7 mb 0.00 in0.0 mm 0.00 in0.0 mm 0.00 in0.0 mm
10:04 AM 32.7°F0.4°C 24.4°F-4.2°C 71% 11.0 mph NE17.7 kmh NE 22.0 mph35.4 kmh 29.52 in999.7 mb 0.00 in0.0 mm 0.00 in0.0 mm 0.00 in0.0 mm
10:05 AM 32.7°F0.4°C 24.4°F-4.2°C 71% 10.0 mph NE16.1 kmh NE 22.0 mph35.4 kmh 29.52 in999.7 mb 0.00 in0.0 mm 0.00 in0.0 mm 0.00 in0.0 mm
10:06 AM 32.7°F0.4°C 24.4°F-4.2°C 71% 14.0 mph NE22.5 kmh NE 21.0 mph33.8 kmh 29.52 in999.7 mb 0.00 in0.0 mm 0.00 in0.0 mm 0.00 in0.0 mm
10:07 AM 32.7°F0.4°C 24.4°F-4.2°C 71% 10.0 mph NE16.1 kmh NE 21.0 mph33.8 kmh 29.51 in999.3 mb 0.00 in0.0 mm 0.00 in0.0 mm 0.00 in0.0 mm
10:08 AM 32.7°F0.4°C 24.4°F-4.2°C 71% 9.0 mph NE14.5 kmh NE 21.0 mph33.8 kmh 29.52 in999.7 mb 0.00 in0.0 mm 0.00 in0.0 mm 0.00 in0.0 mm
10:09 AM 32.8°F0.4°C 24.4°F-4.2°C 71% 7.0 mph NNE11.3 kmh NNE 21.0 mph33.8 kmh 29.52 in999.7 mb 0.00 in0.0 mm 0.00 in0.0 mm 0.00 in0.0 mm
10:10 AM 32.8°F0.4°C 24.4°F-4.2°C 71% 13.0 mph NNW20.9 kmh NNW 21.0 mph33.8 kmh 29.51 in999.3 mb 0.00 in0.0 mm 0.00 in0.0 mm 0.00 in0.0 mm
10:11 AM 32.8°F0.4°C 24.4°F-4.2°C 71% 9.0 mph NNE14.5 kmh NNE 21.0 mph33.8 kmh 29.51 in999.3 mb 0.00 in0.0 mm 0.00 in0.0 mm 0.00 in0.0 mm
10:12 AM 32.8°F0.4°C 24.4°F-4.2°C 71% 13.0 mph NE20.9 kmh NE 21.0 mph33.8 kmh 29.52 in999.7 mb 0.00 in0.0 mm 0.00 in0.0 mm 0.00 in0.0 mm
10:13 AM 32.8°F0.4°C 24.4°F-4.2°C 71% 12.0 mph NE19.3 kmh NE 21.0 mph33.8 kmh 29.52 in999.7 mb 0.00 in0.0 mm 0.00 in0.0 mm 0.00 in0.0 mm
10:14 AM 32.8°F0.4°C 24.4°F-4.2°C 71% 13.0 mph N20.9 kmh N 28.0 mph45.1 kmh 29.52 in999.7 mb 0.00 in0.0 mm 0.00 in0.0 mm 0.00 in0.0 mm
10:15 AM 32.8°F0.4°C 24.4°F-4.2°C 71% 11.0 mph N17.7 kmh N 28.0 mph45.1 kmh 29.52 in999.7 mb 0.00 in0.0 mm 0.00 in0.0 mm 0.00 in0.0 mm
10:16 AM 32.8°F0.4°C 24.4°F-4.2°C 71% 10.0 mph 16.1 kmh 28.0 mph45.1 kmh 29.52 in999.7 mb 0.00 in0.0 mm 0.00 in0.0 mm 0.00 in0.0 mm
10:17 AM 32.7°F0.4°C 24.4°F-4.2°C 71% 9.0 mph NNE14.5 kmh NNE 28.0 mph45.1 kmh 29.52 in999.7 mb 0.00 in0.0 mm 0.00 in0.0 mm 0.00 in0.0 mm
10:18 AM 32.8°F0.4°C 24.4°F-4.2°C 71% 9.0 mph NNE14.5 kmh NNE 28.0 mph45.1 kmh 29.52 in999.7 mb 0.00 in0.0 mm 0.00 in0.0 mm 0.00 in0.0 mm
10:19 AM 32.8°F0.4°C 24.4°F-4.2°C 71% 8.0 mph NNE12.9 kmh NNE 28.0 mph45.1 kmh 29.52 in999.7 mb 0.00 in0.0 mm 0.00 in0.0 mm 0.00 in0.0 mm
10:20 AM 32.8°F0.4°C 24.4°F-4.2°C 71% 11.0 mph ENE17.7 kmh ENE 28.0 mph45.1 kmh 29.52 in999.7 mb 0.00 in0.0 mm 0.00 in0.0 mm 0.00 in0.0 mm
10:21 AM 32.8°F0.4°C 24.4°F-4.2°C 71% 13.0 mph N20.9 kmh N 28.0 mph45.1 kmh 29.52 in999.7 mb 0.00 in0.0 mm 0.00 in0.0 mm 0.00 in0.0 mm
10:22 AM 32.8°F0.4°C 24.4°F-4.2°C 71% 9.0 mph N14.5 kmh N 28.0 mph45.1 kmh 29.52 in999.7 mb 0.00 in0.0 mm 0.00 in0.0 mm 0.00 in0.0 mm
10:23 AM 32.8°F0.4°C 24.4°F-4.2°C 71% 10.0 mph N16.1 kmh N 28.0 mph45.1 kmh 29.52 in999.7 mb 0.00 in0.0 mm 0.00 in0.0 mm 0.00 in0.0 mm
10:24 AM 32.7°F0.4°C 24.4°F-4.2°C 71% 11.0 mph NNE17.7 kmh NNE 28.0 mph45.1 kmh 29.52 in999.7 mb 0.00 in0.0 mm 0.00 in0.0 mm 0.00 in0.0 mm
10:25 AM 32.7°F0.4°C 24.4°F-4.2°C 71% 7.0 mph N11.3 kmh N 28.0 mph45.1 kmh 29.51 in999.3 mb 0.00 in0.0 mm 0.00 in0.0 mm 0.00 in0.0 mm
10:26 AM 32.7°F0.4°C 24.4°F-4.2°C 71% 15.0 mph NE24.1 kmh NE 28.0 mph45.1 kmh 29.51 in999.3 mb 0.00 in0.0 mm 0.00 in0.0 mm 0.00 in0.0 mm
10:27 AM 32.8°F0.4°C 24.4°F-4.2°C 71% 8.0 mph NNE12.9 kmh NNE 28.0 mph45.1 kmh 29.52 in999.7 mb 0.00 in0.0 mm 0.00 in0.0 mm 0.00 in0.0 mm
10:28 AM 32.8°F0.4°C 24.4°F-4.2°C 71% 10.0 mph NNE16.1 kmh NNE 28.0 mph45.1 kmh 29.52 in999.7 mb 0.00 in0.0 mm 0.00 in0.0 mm 0.00 in0.0 mm
10:29 AM 32.8°F0.4°C 24.4°F-4.2°C 71% 11.0 mph N17.7 kmh N 28.0 mph45.1 kmh 29.52 in999.7 mb 0.00 in0.0 mm 0.00 in0.0 mm 0.00 in0.0 mm
10:30 AM 32.8°F0.4°C 24.8°F-4.0°C 72% 15.0 mph NNE24.1 kmh NNE 28.0 mph45.1 kmh 29.52 in999.7 mb 0.00 in0.0 mm 0.00 in0.0 mm 0.00 in0.0 mm
10:31 AM 32.8°F0.4°C 24.4°F-4.2°C 71% 12.0 mph N19.3 kmh N 28.0 mph45.1 kmh 29.52 in999.7 mb 0.00 in0.0 mm 0.00 in0.0 mm 0.00 in0.0 mm
10:32 AM 32.8°F0.4°C 24.4°F-4.2°C 71% 13.0 mph 20.9 kmh 28.0 mph45.1 kmh 29.52 in999.7 mb 0.00 in0.0 mm 0.00 in0.0 mm 0.00 in0.0 mm
10:33 AM 32.8°F0.4°C 24.4°F-4.2°C 71% 11.0 mph N17.7 kmh N 28.0 mph45.1 kmh 29.51 in999.3 mb 0.00 in0.0 mm 0.00 in0.0 mm 0.00 in0.0 mm
10:34 AM 32.9°F0.5°C 24.5°F-4.2°C 71% 8.0 mph NE12.9 kmh NE 24.0 mph38.6 kmh 29.52 in999.7 mb 0.00 in0.0 mm 0.00 in0.0 mm 0.00 in0.0 mm
10:35 AM 32.9°F0.5°C 24.5°F-4.2°C 71% 8.0 mph N12.9 kmh N 24.0 mph38.6 kmh 29.51 in999.3 mb 0.00 in0.0 mm 0.00 in0.0 mm 0.00 in0.0 mm
10:36 AM 32.9°F0.5°C 24.9°F-3.9°C 72% 10.0 mph NNE16.1 kmh NNE 24.0 mph38.6 kmh 29.51 in999.3 mb 0.00 in0.0 mm 0.00 in0.0 mm 0.00 in0.0 mm
10:37 AM 32.9°F0.5°C 24.9°F-3.9°C 72% 9.0 mph NE14.5 kmh NE 24.0 mph38.6 kmh 29.52 in999.7 mb 0.00 in0.0 mm 0.00 in0.0 mm 0.00 in0.0 mm
10:38 AM 32.8°F0.4°C 24.8°F-4.0°C 72% 10.0 mph NNE16.1 kmh NNE 24.0 mph38.6 kmh 29.51 in999.3 mb 0.00 in0.0 mm 0.00 in0.0 mm 0.00 in0.0 mm
10:39 AM 32.8°F0.4°C 24.8°F-4.0°C 72% 13.0 mph NNE20.9 kmh NNE 24.0 mph38.6 kmh 29.51 in999.3 mb 0.00 in0.0 mm 0.00 in0.0 mm 0.00 in0.0 mm
10:40 AM 32.8°F0.4°C 24.4°F-4.2°C 71% 10.0 mph NE16.1 kmh NE 24.0 mph38.6 kmh 29.51 in999.3 mb 0.00 in0.0 mm 0.00 in0.0 mm 0.00 in0.0 mm
10:41 AM 32.8°F0.4°C 24.4°F-4.2°C 71% 10.0 mph NNE16.1 kmh NNE 24.0 mph38.6 kmh 29.50 in999.0 mb 0.00 in0.0 mm 0.00 in0.0 mm 0.00 in0.0 mm
10:42 AM 32.8°F0.4°C 24.4°F-4.2°C 71% 13.0 mph N20.9 kmh N 24.0 mph38.6 kmh 29.51 in999.3 mb 0.00 in0.0 mm 0.00 in0.0 mm 0.00 in0.0 mm
10:43 AM 32.8°F0.4°C 24.4°F-4.2°C 71% 11.0 mph NE17.7 kmh NE 24.0 mph38.6 kmh 29.51 in999.3 mb 0.00 in0.0 mm 0.00 in0.0 mm 0.00 in0.0 mm
10:44 AM 32.9°F0.5°C 24.2°F-4.3°C 70% 13.0 mph NNE20.9 kmh NNE 17.0 mph27.4 kmh 29.51 in999.3 mb 0.00 in0.0 mm 0.00 in0.0 mm 0.00 in0.0 mm
10:45 AM 32.9°F0.5°C 24.5°F-4.2°C 71% 8.0 mph ENE12.9 kmh ENE 17.0 mph27.4 kmh 29.51 in999.3 mb 0.00 in0.0 mm 0.00 in0.0 mm 0.00 in0.0 mm
10:46 AM 32.9°F0.5°C 24.2°F-4.3°C 70% 12.0 mph NE19.3 kmh NE 21.0 mph33.8 kmh 29.51 in999.3 mb 0.00 in0.0 mm 0.00 in0.0 mm 0.00 in0.0 mm
10:47 AM 32.9°F0.5°C 23.9°F-4.5°C 69% 6.0 mph NNE9.7 kmh NNE 21.0 mph33.8 kmh 29.51 in999.3 mb 0.00 in0.0 mm 0.00 in0.0 mm 0.00 in0.0 mm
10:48 AM 32.9°F0.5°C 24.2°F-4.3°C 70% 15.0 mph NNE24.1 kmh NNE 21.0 mph33.8 kmh 29.51 in999.3 mb 0.00 in0.0 mm 0.00 in0.0 mm 0.00 in0.0 mm
10:49 AM 32.9°F0.5°C 24.2°F-4.3°C 70% 14.0 mph NNE22.5 kmh NNE 27.0 mph43.5 kmh 29.51 in999.3 mb 0.00 in0.0 mm 0.00 in0.0 mm 0.00 in0.0 mm
10:50 AM 32.9°F0.5°C 24.2°F-4.3°C 70% 25.0 mph NNE40.2 kmh NNE 27.0 mph43.5 kmh 29.51 in999.3 mb 0.00 in0.0 mm 0.00 in0.0 mm 0.00 in0.0 mm
10:51 AM 32.9°F0.5°C 24.2°F-4.3°C 70% 14.0 mph N22.5 kmh N 27.0 mph43.5 kmh 29.51 in999.3 mb 0.00 in0.0 mm 0.00 in0.0 mm 0.00 in0.0 mm
10:52 AM 32.9°F0.5°C 24.2°F-4.3°C 70% 13.0 mph NE20.9 kmh NE 27.0 mph43.5 kmh 29.51 in999.3 mb 0.00 in0.0 mm 0.00 in0.0 mm 0.00 in0.0 mm
10:53 AM 32.9°F0.5°C 24.2°F-4.3°C 70% 14.0 mph NE22.5 kmh NE 27.0 mph43.5 kmh 29.51 in999.3 mb 0.00 in0.0 mm 0.00 in0.0 mm 0.00 in0.0 mm
10:54 AM 32.9°F0.5°C 24.2°F-4.3°C 70% 8.0 mph NNE12.9 kmh NNE 27.0 mph43.5 kmh 29.51 in999.3 mb 0.00 in0.0 mm 0.00 in0.0 mm 0.00 in0.0 mm
10:55 AM 32.9°F0.5°C 24.5°F-4.2°C 71% 12.0 mph NNE19.3 kmh NNE 27.0 mph43.5 kmh 29.51 in999.3 mb 0.00 in0.0 mm 0.00 in0.0 mm 0.00 in0.0 mm
10:56 AM 32.9°F0.5°C 24.2°F-4.3°C 70% 8.0 mph ENE12.9 kmh ENE 27.0 mph43.5 kmh 29.51 in999.3 mb 0.00 in0.0 mm 0.00 in0.0 mm 0.00 in0.0 mm
10:57 AM 32.9°F0.5°C 24.2°F-4.3°C 70% 10.0 mph NE16.1 kmh NE 27.0 mph43.5 kmh 29.51 in999.3 mb 0.00 in0.0 mm 0.00 in0.0 mm 0.00 in0.0 mm
10:58 AM 32.9°F0.5°C 24.2°F-4.3°C 70% 12.0 mph NE19.3 kmh NE 27.0 mph43.5 kmh 29.51 in999.3 mb 0.00 in0.0 mm 0.00 in0.0 mm 0.00 in0.0 mm
10:59 AM 32.9°F0.5°C 24.2°F-4.3°C 70% 11.0 mph NE17.7 kmh NE 27.0 mph43.5 kmh 29.51 in999.3 mb 0.00 in0.0 mm 0.00 in0.0 mm 0.00 in0.0 mm
11:00 AM 32.9°F0.5°C 24.2°F-4.3°C 70% 15.0 mph NE24.1 kmh NE 27.0 mph43.5 kmh 29.51 in999.3 mb 0.00 in0.0 mm 0.00 in0.0 mm 0.00 in0.0 mm
11:01 AM 32.9°F0.5°C 24.2°F-4.3°C 70% 11.0 mph N17.7 kmh N 27.0 mph43.5 kmh 29.51 in999.3 mb 0.00 in0.0 mm 0.00 in0.0 mm 0.00 in0.0 mm
11:02 AM 32.9°F0.5°C 24.2°F-4.3°C 70% 10.0 mph NE16.1 kmh NE 27.0 mph43.5 kmh 29.51 in999.3 mb 0.00 in0.0 mm 0.00 in0.0 mm 0.00 in0.0 mm
11:03 AM 32.9°F0.5°C 24.2°F-4.3°C 70% 12.0 mph N19.3 kmh N 27.0 mph43.5 kmh 29.52 in999.7 mb 0.00 in0.0 mm 0.00 in0.0 mm 0.00 in0.0 mm
11:04 AM 33.0°F0.6°C 24.3°F-4.3°C 70% 16.0 mph N25.7 kmh N 27.0 mph43.5 kmh 29.52 in999.7 mb 0.00 in0.0 mm 0.00 in0.0 mm 0.00 in0.0 mm
11:05 AM 33.0°F0.6°C 24.3°F-4.3°C 70% 13.0 mph ENE20.9 kmh ENE 27.0 mph43.5 kmh 29.51 in999.3 mb 0.00 in0.0 mm 0.00 in0.0 mm 0.00 in0.0 mm
11:06 AM 33.0°F0.6°C 24.3°F-4.3°C 70% 14.0 mph NE22.5 kmh NE 27.0 mph43.5 kmh 29.51 in999.3 mb 0.00 in0.0 mm 0.00 in0.0 mm 0.00 in0.0 mm
11:07 AM 32.9°F0.5°C 24.2°F-4.3°C 70% 5.0 mph N8.0 kmh N 27.0 mph43.5 kmh 29.52 in999.7 mb 0.00 in0.0 mm 0.00 in0.0 mm 0.00 in0.0 mm
11:08 AM 32.9°F0.5°C 24.5°F-4.2°C 71% 11.0 mph N17.7 kmh N 27.0 mph43.5 kmh 29.52 in999.7 mb 0.00 in0.0 mm 0.00 in0.0 mm 0.00 in0.0 mm
11:09 AM 32.9°F0.5°C 24.5°F-4.2°C 71% 9.0 mph NE14.5 kmh NE 23.0 mph37.0 kmh 29.52 in999.7 mb 0.00 in0.0 mm 0.00 in0.0 mm 0.00 in0.0 mm
11:10 AM 33.0°F0.6°C 24.3°F-4.3°C 70% 8.0 mph NE12.9 kmh NE 23.0 mph37.0 kmh 29.51 in999.3 mb 0.00 in0.0 mm 0.00 in0.0 mm 0.00 in0.0 mm
11:11 AM 32.9°F0.5°C 24.5°F-4.2°C 71% 5.0 mph NNE8.0 kmh NNE 23.0 mph37.0 kmh 29.52 in999.7 mb 0.00 in0.0 mm 0.00 in0.0 mm 0.00 in0.0 mm
11:12 AM 33.0°F0.6°C 24.6°F-4.1°C 71% 13.0 mph NE20.9 kmh NE 24.0 mph38.6 kmh 29.52 in999.7 mb 0.00 in0.0 mm 0.00 in0.0 mm 0.00 in0.0 mm
11:13 AM 33.0°F0.6°C 24.6°F-4.1°C 71% 9.0 mph NE14.5 kmh NE 24.0 mph38.6 kmh 29.51 in999.3 mb 0.00 in0.0 mm 0.00 in0.0 mm 0.00 in0.0 mm
11:14 AM 33.0°F0.6°C 24.3°F-4.3°C 70% 9.0 mph NNW14.5 kmh NNW 24.0 mph38.6 kmh 29.52 in999.7 mb 0.00 in0.0 mm 0.00 in0.0 mm 0.00 in0.0 mm
11:15 AM 33.1°F0.6°C 24.4°F-4.2°C 70% 11.0 mph NE17.7 kmh NE 24.0 mph38.6 kmh 29.51 in999.3 mb 0.00 in0.0 mm 0.00 in0.0 mm 0.00 in0.0 mm
11:16 AM 33.1°F0.6°C 24.7°F-4.1°C 71% 23.0 mph NE37.0 kmh NE 26.0 mph41.8 kmh 29.51 in999.3 mb 0.00 in0.0 mm 0.00 in0.0 mm 0.00 in0.0 mm
11:17 AM 33.1°F0.6°C 24.4°F-4.2°C 70% 13.0 mph NNE20.9 kmh NNE 26.0 mph41.8 kmh 29.51 in999.3 mb 0.00 in0.0 mm 0.00 in0.0 mm 0.00 in0.0 mm
11:18 AM 33.1°F0.6°C 24.4°F-4.2°C 70% 19.0 mph NE30.6 kmh NE 26.0 mph41.8 kmh 29.52 in999.7 mb 0.00 in0.0 mm 0.00 in0.0 mm 0.00 in0.0 mm
11:19 AM 33.1°F0.6°C 24.4°F-4.2°C 70% 11.0 mph ENE17.7 kmh ENE 26.0 mph41.8 kmh 29.51 in999.3 mb 0.00 in0.0 mm 0.00 in0.0 mm 0.00 in0.0 mm
11:20 AM 33.1°F0.6°C 24.7°F-4.1°C 71% 7.0 mph NE11.3 kmh NE 26.0 mph41.8 kmh 29.51 in999.3 mb 0.00 in0.0 mm 0.00 in0.0 mm 0.00 in0.0 mm
11:21 AM 33.0°F0.6°C 24.6°F-4.1°C 71% 6.0 mph NE9.7 kmh NE 26.0 mph41.8 kmh 29.52 in999.7 mb 0.00 in0.0 mm 0.00 in0.0 mm 0.00 in0.0 mm
11:22 AM 33.0°F0.6°C 24.6°F-4.1°C 71% 14.0 mph ENE22.5 kmh ENE 26.0 mph41.8 kmh 29.51 in999.3 mb 0.00 in0.0 mm 0.00 in0.0 mm 0.00 in0.0 mm
11:23 AM 33.0°F0.6°C 24.6°F-4.1°C 71% 8.0 mph NNE12.9 kmh NNE 26.0 mph41.8 kmh 29.51 in999.3 mb 0.00 in0.0 mm 0.00 in0.0 mm 0.00 in0.0 mm
11:24 AM 33.0°F0.6°C 24.6°F-4.1°C 71% 7.0 mph NW11.3 kmh NW 26.0 mph41.8 kmh 29.51 in999.3 mb 0.00 in0.0 mm 0.00 in0.0 mm 0.00 in0.0 mm
11:25 AM 33.1°F0.6°C 24.4°F-4.2°C 70% 6.0 mph NE9.7 kmh NE 26.0 mph41.8 kmh 29.51 in999.3 mb 0.00 in0.0 mm 0.00 in0.0 mm 0.00 in0.0 mm
11:26 AM 33.1°F0.6°C 24.4°F-4.2°C 70% 10.0 mph NE16.1 kmh NE 26.0 mph41.8 kmh 29.51 in999.3 mb 0.00 in0.0 mm 0.00 in0.0 mm 0.00 in0.0 mm
11:27 AM 33.1°F0.6°C 24.4°F-4.2°C 70% 10.0 mph NE16.1 kmh NE 26.0 mph41.8 kmh 29.52 in999.7 mb 0.00 in0.0 mm 0.00 in0.0 mm 0.00 in0.0 mm
11:28 AM 33.1°F0.6°C 24.4°F-4.2°C 70% 17.0 mph NE27.4 kmh NE 26.0 mph41.8 kmh 29.52 in999.7 mb 0.00 in0.0 mm 0.00 in0.0 mm 0.00 in0.0 mm
11:29 AM 33.1°F0.6°C 24.4°F-4.2°C 70% 10.0 mph NNE16.1 kmh NNE 26.0 mph41.8 kmh 29.52 in999.7 mb 0.00 in0.0 mm 0.00 in0.0 mm 0.00 in0.0 mm
11:30 AM 33.1°F0.6°C 24.4°F-4.2°C 70% 13.0 mph NNE20.9 kmh NNE 26.0 mph41.8 kmh 29.52 in999.7 mb 0.00 in0.0 mm 0.00 in0.0 mm 0.00 in0.0 mm
11:31 AM 33.1°F0.6°C 24.4°F-4.2°C 70% 14.0 mph NNE22.5 kmh NNE 26.0 mph41.8 kmh 29.51 in999.3 mb 0.00 in0.0 mm 0.00 in0.0 mm 0.00 in0.0 mm
11:32 AM 33.1°F0.6°C 24.7°F-4.1°C 71% 13.0 mph NE20.9 kmh NE 26.0 mph41.8 kmh 29.51 in999.3 mb 0.00 in0.0 mm 0.00 in0.0 mm 0.00 in0.0 mm
11:33 AM 33.1°F0.6°C 24.7°F-4.1°C 71% 7.0 mph NE11.3 kmh NE 26.0 mph41.8 kmh 29.52 in999.7 mb 0.00 in0.0 mm 0.00 in0.0 mm 0.00 in0.0 mm
11:34 AM 33.1°F0.6°C 24.7°F-4.1°C 71% 9.0 mph NE14.5 kmh NE 26.0 mph41.8 kmh 29.52 in999.7 mb 0.00 in0.0 mm 0.00 in0.0 mm 0.00 in0.0 mm
11:35 AM 33.1°F0.6°C 24.7°F-4.1°C 71% 8.0 mph NE12.9 kmh NE 26.0 mph41.8 kmh 29.52 in999.7 mb 0.00 in0.0 mm 0.00 in0.0 mm 0.00 in0.0 mm
11:36 AM 33.1°F0.6°C 24.7°F-4.1°C 71% 9.0 mph N14.5 kmh N 24.0 mph38.6 kmh 29.52 in999.7 mb 0.00 in0.0 mm 0.00 in0.0 mm 0.00 in0.0 mm
11:37 AM 33.1°F0.6°C 24.4°F-4.2°C 70% 17.0 mph ENE27.4 kmh ENE 24.0 mph38.6 kmh 29.52 in999.7 mb 0.00 in0.0 mm 0.00 in0.0 mm 0.00 in0.0 mm
11:38 AM 33.1°F0.6°C 24.7°F-4.1°C 71% 11.0 mph N17.7 kmh N 24.0 mph38.6 kmh 29.52 in999.7 mb 0.00 in0.0 mm 0.00 in0.0 mm 0.00 in0.0 mm
11:39 AM 33.1°F0.6°C 24.4°F-4.2°C 70% 12.0 mph N19.3 kmh N 24.0 mph38.6 kmh 29.52 in999.7 mb 0.00 in0.0 mm 0.00 in0.0 mm 0.00 in0.0 mm
11:40 AM 33.1°F0.6°C 24.4°F-4.2°C 70% 8.0 mph ENE12.9 kmh ENE 24.0 mph38.6 kmh 29.52 in999.7 mb 0.00 in0.0 mm 0.00 in0.0 mm 0.00 in0.0 mm
11:41 AM 33.1°F0.6°C 24.4°F-4.2°C 70% 10.0 mph 16.1 kmh 24.0 mph38.6 kmh 29.52 in999.7 mb 0.00 in0.0 mm 0.00 in0.0 mm 0.00 in0.0 mm
11:42 AM 33.1°F0.6°C 24.4°F-4.2°C 70% 16.0 mph NE25.7 kmh NE 24.0 mph38.6 kmh 29.52 in999.7 mb 0.00 in0.0 mm 0.00 in0.0 mm 0.00 in0.0 mm
11:43 AM 33.1°F0.6°C 24.4°F-4.2°C 70% 12.0 mph NNE19.3 kmh NNE 24.0 mph38.6 kmh 29.51 in999.3 mb 0.00 in0.0 mm 0.00 in0.0 mm 0.00 in0.0 mm
11:44 AM 33.1°F0.6°C 24.7°F-4.1°C 71% 7.0 mph NE11.3 kmh NE 24.0 mph38.6 kmh 29.52 in999.7 mb 0.00 in0.0 mm 0.00 in0.0 mm 0.00 in0.0 mm
11:45 AM 33.1°F0.6°C 24.7°F-4.1°C 71% 16.0 mph NE25.7 kmh NE 24.0 mph38.6 kmh 29.52 in999.7 mb 0.00 in0.0 mm 0.00 in0.0 mm 0.00 in0.0 mm
11:46 AM 33.1°F0.6°C 24.7°F-4.1°C 71% 13.0 mph NE20.9 kmh NE 24.0 mph38.6 kmh 29.52 in999.7 mb 0.00 in0.0 mm 0.00 in0.0 mm 0.00 in0.0 mm
11:47 AM 33.1°F0.6°C 24.4°F-4.2°C 70% 9.0 mph E14.5 kmh E 22.0 mph35.4 kmh 29.52 in999.7 mb 0.00 in0.0 mm 0.00 in0.0 mm 0.00 in0.0 mm
11:48 AM 33.1°F0.6°C 24.4°F-4.2°C 70% 23.0 mph NE37.0 kmh NE 23.0 mph37.0 kmh 29.51 in999.3 mb 0.00 in0.0 mm 0.00 in0.0 mm 0.00 in0.0 mm
11:49 AM 33.1°F0.6°C 24.7°F-4.1°C 71% 24.0 mph NNE38.6 kmh NNE 24.0 mph38.6 kmh 29.52 in999.7 mb 0.00 in0.0 mm 0.00 in0.0 mm 0.00 in0.0 mm
11:50 AM 33.1°F0.6°C 24.7°F-4.1°C 71% 12.0 mph 19.3 kmh 24.0 mph38.6 kmh 29.52 in999.7 mb 0.00 in0.0 mm 0.00 in0.0 mm 0.00 in0.0 mm
11:51 AM 33.1°F0.6°C 24.7°F-4.1°C 71% 8.0 mph NE12.9 kmh NE 24.0 mph38.6 kmh 29.52 in999.7 mb 0.00 in0.0 mm 0.00 in0.0 mm 0.00 in0.0 mm
11:52 AM 33.1°F0.6°C 24.4°F-4.2°C 70% 11.0 mph N17.7 kmh N 24.0 mph38.6 kmh 29.52 in999.7 mb 0.00 in0.0 mm 0.00 in0.0 mm 0.00 in0.0 mm
11:53 AM 33.1°F0.6°C 24.4°F-4.2°C 70% 23.0 mph NE37.0 kmh NE 24.0 mph38.6 kmh 29.52 in999.7 mb 0.00 in0.0 mm 0.00 in0.0 mm 0.00 in0.0 mm
11:54 AM 33.1°F0.6°C 24.4°F-4.2°C 70% 7.0 mph NNE11.3 kmh NNE 24.0 mph38.6 kmh 29.52 in999.7 mb 0.00 in0.0 mm 0.00 in0.0 mm 0.00 in0.0 mm
11:55 AM 33.1°F0.6°C 24.4°F-4.2°C 70% 12.0 mph N19.3 kmh N 24.0 mph38.6 kmh 29.52 in999.7 mb 0.00 in0.0 mm 0.00 in0.0 mm 0.00 in0.0 mm
11:56 AM 33.1°F0.6°C 24.4°F-4.2°C 70% 17.0 mph N27.4 kmh N 24.0 mph38.6 kmh 29.52 in999.7 mb 0.00 in0.0 mm 0.00 in0.0 mm 0.00 in0.0 mm
11:57 AM 33.1°F0.6°C 24.4°F-4.2°C 70% 16.0 mph NE25.7 kmh NE 24.0 mph38.6 kmh 29.52 in999.7 mb 0.00 in0.0 mm 0.00 in0.0 mm 0.00 in0.0 mm
11:58 AM 33.1°F0.6°C 24.1°F-4.4°C 69% 9.0 mph NE14.5 kmh NE 24.0 mph38.6 kmh 29.52 in999.7 mb 0.00 in0.0 mm 0.00 in0.0 mm 0.00 in0.0 mm
11:59 AM 33.1°F0.6°C 24.4°F-4.2°C 70% 12.0 mph NE19.3 kmh NE 24.0 mph38.6 kmh 29.52 in999.7 mb 0.00 in0.0 mm 0.00 in0.0 mm 0.00 in0.0 mm
12:00 PM 33.1°F0.6°C 24.4°F-4.2°C 70% 4.0 mph NNE6.4 kmh NNE 24.0 mph38.6 kmh 29.52 in999.7 mb 0.00 in0.0 mm 0.00 in0.0 mm 0.00 in0.0 mm
12:01 PM 33.1°F0.6°C 24.1°F-4.4°C 69% 10.0 mph NE16.1 kmh NE 24.0 mph38.6 kmh 29.52 in999.7 mb 0.00 in0.0 mm 0.00 in0.0 mm 0.00 in0.0 mm
12:02 PM 33.1°F0.6°C 24.1°F-4.4°C 69% 18.0 mph NE29.0 kmh NE 27.0 mph43.5 kmh 29.52 in999.7 mb 0.00 in0.0 mm 0.00 in0.0 mm 0.00 in0.0 mm
12:03 PM 33.0°F0.6°C 24.3°F-4.3°C 70% 8.0 mph NE12.9 kmh NE 27.0 mph43.5 kmh 29.52 in999.7 mb 0.00 in0.0 mm 0.00 in0.0 mm 0.00 in0.0 mm
12:04 PM 33.0°F0.6°C 24.3°F-4.3°C 70% 10.0 mph N16.1 kmh N 27.0 mph43.5 kmh 29.52 in999.7 mb 0.00 in0.0 mm 0.00 in0.0 mm 0.00 in0.0 mm
12:05 PM 33.0°F0.6°C 24.3°F-4.3°C 70% 11.0 mph N17.7 kmh N 27.0 mph43.5 kmh 29.52 in999.7 mb 0.00 in0.0 mm 0.00 in0.0 mm 0.00 in0.0 mm
12:06 PM 33.0°F0.6°C 24.3°F-4.3°C 70% 7.0 mph NE11.3 kmh NE 27.0 mph43.5 kmh 29.52 in999.7 mb 0.00 in0.0 mm 0.00 in0.0 mm 0.00 in0.0 mm
12:07 PM 33.1°F0.6°C 24.4°F-4.2°C 70% 17.0 mph NNE27.4 kmh NNE 27.0 mph43.5 kmh 29.52 in999.7 mb 0.00 in0.0 mm 0.00 in0.0 mm 0.00 in0.0 mm
12:08 PM 33.1°F0.6°C 24.4°F-4.2°C 70% 11.0 mph NE17.7 kmh NE 27.0 mph43.5 kmh 29.52 in999.7 mb 0.00 in0.0 mm 0.00 in0.0 mm 0.00 in0.0 mm
12:09 PM 33.1°F0.6°C 24.4°F-4.2°C 70% 16.0 mph NE25.7 kmh NE 27.0 mph43.5 kmh 29.52 in999.7 mb 0.00 in0.0 mm 0.00 in0.0 mm 0.00 in0.0 mm
12:10 PM 33.1°F0.6°C 24.4°F-4.2°C 70% 7.0 mph NNE11.3 kmh NNE 27.0 mph43.5 kmh 29.52 in999.7 mb 0.00 in0.0 mm 0.00 in0.0 mm 0.00 in0.0 mm
12:11 PM 33.1°F0.6°C 24.4°F-4.2°C 70% 11.0 mph N17.7 kmh N 27.0 mph43.5 kmh 29.52 in999.7 mb 0.00 in0.0 mm 0.00 in0.0 mm 0.00 in0.0 mm
12:12 PM 33.1°F0.6°C 24.4°F-4.2°C 70% 5.0 mph NE8.0 kmh NE 27.0 mph43.5 kmh 29.52 in999.7 mb 0.00 in0.0 mm 0.00 in0.0 mm 0.00 in0.0 mm
12:13 PM 33.2°F0.7°C 24.8°F-4.0°C 71% 6.0 mph NE9.7 kmh NE 27.0 mph43.5 kmh 29.52 in999.7 mb 0.00 in0.0 mm 0.00 in0.0 mm 0.00 in0.0 mm
12:14 PM 33.2°F0.7°C 24.8°F-4.0°C 71% 15.0 mph NE24.1 kmh NE 27.0 mph43.5 kmh 29.52 in999.7 mb 0.00 in0.0 mm 0.00 in0.0 mm 0.00 in0.0 mm
12:15 PM 33.2°F0.7°C 24.5°F-4.2°C 70% 14.0 mph N22.5 kmh N 27.0 mph43.5 kmh 29.52 in999.7 mb 0.00 in0.0 mm 0.00 in0.0 mm 0.00 in0.0 mm
12:16 PM 33.2°F0.7°C 24.5°F-4.2°C 70% 7.0 mph NE11.3 kmh NE 27.0 mph43.5 kmh 29.52 in999.7 mb 0.00 in0.0 mm 0.00 in0.0 mm 0.00 in0.0 mm
12:17 PM 33.3°F0.7°C 24.9°F-3.9°C 71% 10.0 mph NE16.1 kmh NE 27.0 mph43.5 kmh 29.52 in999.7 mb 0.00 in0.0 mm 0.00 in0.0 mm 0.00 in0.0 mm
12:18 PM 33.3°F0.7°C 24.9°F-3.9°C 71% 15.0 mph NE24.1 kmh NE 27.0 mph43.5 kmh 29.52 in999.7 mb 0.00 in0.0 mm 0.00 in0.0 mm 0.00 in0.0 mm
12:19 PM 33.3°F0.7°C 24.6°F-4.1°C 70% 12.0 mph N19.3 kmh N 27.0 mph43.5 kmh 29.52 in999.7 mb 0.00 in0.0 mm 0.00 in0.0 mm 0.00 in0.0 mm
12:20 PM 33.3°F0.7°C 24.6°F-4.1°C 70% 5.0 mph NNE8.0 kmh NNE 27.0 mph43.5 kmh 29.52 in999.7 mb 0.00 in0.0 mm 0.00 in0.0 mm 0.00 in0.0 mm
12:21 PM 33.3°F0.7°C 24.9°F-3.9°C 71% 11.0 mph NNE17.7 kmh NNE 27.0 mph43.5 kmh 29.52 in999.7 mb 0.00 in0.0 mm 0.00 in0.0 mm 0.00 in0.0 mm
12:22 PM 33.4°F0.8°C 24.7°F-4.1°C 70% 13.0 mph NE20.9 kmh NE 21.0 mph33.8 kmh 29.52 in999.7 mb 0.00 in0.0 mm 0.00 in0.0 mm 0.00 in0.0 mm
12:23 PM 33.4°F0.8°C 25.0°F-3.9°C 71% 15.0 mph NE24.1 kmh NE 21.0 mph33.8 kmh 29.52 in999.7 mb 0.00 in0.0 mm 0.00 in0.0 mm 0.00 in0.0 mm
12:24 PM 33.4°F0.8°C 24.7°F-4.1°C 70% 10.0 mph NE16.1 kmh NE 21.0 mph33.8 kmh 29.52 in999.7 mb 0.00 in0.0 mm 0.00 in0.0 mm 0.00 in0.0 mm
12:25 PM 33.4°F0.8°C 24.7°F-4.1°C 70% 12.0 mph ENE19.3 kmh ENE 21.0 mph33.8 kmh 29.52 in999.7 mb 0.00 in0.0 mm 0.00 in0.0 mm 0.00 in0.0 mm
12:26 PM 33.4°F0.8°C 24.7°F-4.1°C 70% 17.0 mph NE27.4 kmh NE 21.0 mph33.8 kmh 29.52 in999.7 mb 0.00 in0.0 mm 0.00 in0.0 mm 0.00 in0.0 mm
12:27 PM 33.4°F0.8°C 24.7°F-4.1°C 70% 10.0 mph NNE16.1 kmh NNE 21.0 mph33.8 kmh 29.52 in999.7 mb 0.00 in0.0 mm 0.00 in0.0 mm 0.00 in0.0 mm
12:28 PM 33.5°F0.8°C 24.8°F-4.0°C 70% 10.0 mph NE16.1 kmh NE 21.0 mph33.8 kmh 29.52 in999.7 mb 0.00 in0.0 mm 0.00 in0.0 mm 0.00 in0.0 mm
12:29 PM 33.5°F0.8°C 24.8°F-4.0°C 70% 11.0 mph NNE17.7 kmh NNE 21.0 mph33.8 kmh 29.52 in999.7 mb 0.00 in0.0 mm 0.00 in0.0 mm 0.00 in0.0 mm
12:30 PM 33.5°F0.8°C 24.4°F-4.2°C 69% 25.0 mph ENE40.2 kmh ENE 25.0 mph40.2 kmh 29.52 in999.7 mb 0.00 in0.0 mm 0.00 in0.0 mm 0.00 in0.0 mm
12:31 PM 33.4°F0.8°C 24.3°F-4.3°C 69% 15.0 mph ENE24.1 kmh ENE 25.0 mph40.2 kmh 29.52 in999.7 mb 0.00 in0.0 mm 0.00 in0.0 mm 0.00 in0.0 mm
12:32 PM 33.4°F0.8°C 24.7°F-4.1°C 70% 13.0 mph NE20.9 kmh NE 25.0 mph40.2 kmh 29.53 in1000.0 mb 0.00 in0.0 mm 0.00 in0.0 mm 0.00 in0.0 mm
12:33 PM 33.3°F0.7°C 24.6°F-4.1°C 70% 15.0 mph NE24.1 kmh NE 27.0 mph43.5 kmh 29.52 in999.7 mb 0.00 in0.0 mm 0.00 in0.0 mm 0.00 in0.0 mm
12:34 PM 33.3°F0.7°C 24.6°F-4.1°C 70% 5.0 mph NNE8.0 kmh NNE 27.0 mph43.5 kmh 29.52 in999.7 mb 0.00 in0.0 mm 0.00 in0.0 mm 0.00 in0.0 mm
12:35 PM 33.2°F0.7°C 24.5°F-4.2°C 70% 12.0 mph NNE19.3 kmh NNE 27.0 mph43.5 kmh 29.52 in999.7 mb 0.00 in0.0 mm 0.00 in0.0 mm 0.00 in0.0 mm
12:36 PM 33.2°F0.7°C 24.8°F-4.0°C 71% 11.0 mph NE17.7 kmh NE 27.0 mph43.5 kmh 29.53 in1000.0 mb 0.00 in0.0 mm 0.00 in0.0 mm 0.00 in0.0 mm
12:37 PM 33.2°F0.7°C 24.5°F-4.2°C 70% 22.0 mph E35.4 kmh E 27.0 mph43.5 kmh 29.53 in1000.0 mb 0.00 in0.0 mm 0.00 in0.0 mm 0.00 in0.0 mm
12:38 PM 33.1°F0.6°C 24.7°F-4.1°C 71% 24.0 mph NE38.6 kmh NE 27.0 mph43.5 kmh 29.53 in1000.0 mb 0.00 in0.0 mm 0.00 in0.0 mm 0.00 in0.0 mm
12:39 PM 33.1°F0.6°C 24.4°F-4.2°C 70% 13.0 mph ENE20.9 kmh ENE 32.0 mph51.5 kmh 29.52 in999.7 mb 0.00 in0.0 mm 0.00 in0.0 mm 0.00 in0.0 mm
12:40 PM 33.1°F0.6°C 24.4°F-4.2°C 70% 12.0 mph NE19.3 kmh NE 32.0 mph51.5 kmh 29.52 in999.7 mb 0.00 in0.0 mm 0.00 in0.0 mm 0.00 in0.0 mm
12:41 PM 33.0°F0.6°C 24.6°F-4.1°C 71% 10.0 mph NE16.1 kmh NE 32.0 mph51.5 kmh 29.52 in999.7 mb 0.00 in0.0 mm 0.00 in0.0 mm 0.00 in0.0 mm
12:42 PM 33.1°F0.6°C 24.7°F-4.1°C 71% 12.0 mph NNE19.3 kmh NNE 32.0 mph51.5 kmh 29.53 in1000.0 mb 0.00 in0.0 mm 0.00 in0.0 mm 0.00 in0.0 mm
12:43 PM 33.1°F0.6°C 24.7°F-4.1°C 71% 11.0 mph NNE17.7 kmh NNE 32.0 mph51.5 kmh 29.53 in1000.0 mb 0.00 in0.0 mm 0.00 in0.0 mm 0.00 in0.0 mm
12:44 PM 33.1°F0.6°C 24.4°F-4.2°C 70% 11.0 mph NE17.7 kmh NE 32.0 mph51.5 kmh 29.53 in1000.0 mb 0.00 in0.0 mm 0.00 in0.0 mm 0.00 in0.0 mm
12:45 PM 33.1°F0.6°C 24.7°F-4.1°C 71% 11.0 mph NE17.7 kmh NE 32.0 mph51.5 kmh 29.53 in1000.0 mb 0.00 in0.0 mm 0.00 in0.0 mm 0.00 in0.0 mm
12:46 PM 33.2°F0.7°C 24.8°F-4.0°C 71% 11.0 mph N17.7 kmh N 32.0 mph51.5 kmh 29.53 in1000.0 mb 0.00 in0.0 mm 0.00 in0.0 mm 0.00 in0.0 mm
12:47 PM 33.3°F0.7°C 24.9°F-3.9°C 71% 16.0 mph NNE25.7 kmh NNE 32.0 mph51.5 kmh 29.53 in1000.0 mb 0.00 in0.0 mm 0.00 in0.0 mm 0.00 in0.0 mm
12:48 PM 33.3°F0.7°C 24.9°F-3.9°C 71% 13.0 mph NE20.9 kmh NE 32.0 mph51.5 kmh 29.52 in999.7 mb 0.00 in0.0 mm 0.00 in0.0 mm 0.00 in0.0 mm
12:49 PM 33.3°F0.7°C 24.9°F-3.9°C 71% 12.0 mph NNE19.3 kmh NNE 32.0 mph51.5 kmh 29.53 in1000.0 mb 0.00 in0.0 mm 0.00 in0.0 mm 0.00 in0.0 mm
12:50 PM 33.3°F0.7°C 24.9°F-3.9°C 71% 8.0 mph N12.9 kmh N 32.0 mph51.5 kmh 29.53 in1000.0 mb 0.00 in0.0 mm 0.00 in0.0 mm 0.00 in0.0 mm
12:51 PM 33.4°F0.8°C 25.0°F-3.9°C 71% 8.0 mph NNE12.9 kmh NNE 32.0 mph51.5 kmh 29.53 in1000.0 mb 0.00 in0.0 mm 0.00 in0.0 mm 0.00 in0.0 mm
12:52 PM 33.5°F0.8°C 25.1°F-3.8°C 71% 6.0 mph NE9.7 kmh NE 32.0 mph51.5 kmh 29.53 in1000.0 mb 0.00 in0.0 mm 0.00 in0.0 mm 0.00 in0.0 mm
12:53 PM 33.5°F0.8°C 24.8°F-4.0°C 70% 15.0 mph NE24.1 kmh NE 32.0 mph51.5 kmh 29.52 in999.7 mb 0.00 in0.0 mm 0.00 in0.0 mm 0.00 in0.0 mm
12:54 PM 33.5°F0.8°C 24.8°F-4.0°C 70% 13.0 mph 20.9 kmh 32.0 mph51.5 kmh 29.52 in999.7 mb 0.00 in0.0 mm 0.00 in0.0 mm 0.00 in0.0 mm
12:55 PM 33.4°F0.8°C 24.7°F-4.1°C 70% 13.0 mph NNE20.9 kmh NNE 32.0 mph51.5 kmh 29.53 in1000.0 mb 0.00 in0.0 mm 0.00 in0.0 mm 0.00 in0.0 mm
12:56 PM 33.4°F0.8°C 24.7°F-4.1°C 70% 17.0 mph NE27.4 kmh NE 32.0 mph51.5 kmh 29.53 in1000.0 mb 0.00 in0.0 mm 0.00 in0.0 mm 0.00 in0.0 mm
12:57 PM 33.3°F0.7°C 24.6°F-4.1°C 70% 21.0 mph NNE33.8 kmh NNE 32.0 mph51.5 kmh 29.53 in1000.0 mb 0.00 in0.0 mm 0.00 in0.0 mm 0.00 in0.0 mm
12:58 PM 33.2°F0.7°C 24.5°F-4.2°C 70% 13.0 mph N20.9 kmh N 32.0 mph51.5 kmh 29.53 in1000.0 mb 0.00 in0.0 mm 0.00 in0.0 mm 0.00 in0.0 mm
12:59 PM 33.2°F0.7°C 24.8°F-4.0°C 71% 10.0 mph NE16.1 kmh NE 27.0 mph43.5 kmh 29.53 in1000.0 mb 0.00 in0.0 mm 0.00 in0.0 mm 0.00 in0.0 mm
01:00 PM 33.2°F0.7°C 24.8°F-4.0°C 71% 13.0 mph ENE20.9 kmh ENE 27.0 mph43.5 kmh 29.53 in1000.0 mb 0.00 in0.0 mm 0.00 in0.0 mm 0.00 in0.0 mm
01:01 PM 33.2°F0.7°C 24.8°F-4.0°C 71% 12.0 mph N19.3 kmh N 27.0 mph43.5 kmh 29.53 in1000.0 mb 0.00 in0.0 mm 0.00 in0.0 mm 0.00 in0.0 mm
01:02 PM 33.2°F0.7°C 24.8°F-4.0°C 71% 14.0 mph NE22.5 kmh NE 27.0 mph43.5 kmh 29.53 in1000.0 mb 0.00 in0.0 mm 0.00 in0.0 mm 0.00 in0.0 mm
01:03 PM 33.2°F0.7°C 24.8°F-4.0°C 71% 22.0 mph NNE35.4 kmh NNE 27.0 mph43.5 kmh 29.53 in1000.0 mb 0.00 in0.0 mm 0.00 in0.0 mm 0.00 in0.0 mm
01:04 PM 33.1°F0.6°C 24.4°F-4.2°C 70% 17.0 mph NE27.4 kmh NE 27.0 mph43.5 kmh 29.53 in1000.0 mb 0.00 in0.0 mm 0.00 in0.0 mm 0.00 in0.0 mm
01:05 PM 33.1°F0.6°C 24.4°F-4.2°C 70% 14.0 mph NE22.5 kmh NE 27.0 mph43.5 kmh 29.53 in1000.0 mb 0.00 in0.0 mm 0.00 in0.0 mm 0.00 in0.0 mm
01:06 PM 33.1°F0.6°C 24.4°F-4.2°C 70% 6.0 mph NE9.7 kmh NE 27.0 mph43.5 kmh 29.53 in1000.0 mb 0.00 in0.0 mm 0.00 in0.0 mm 0.00 in0.0 mm
01:07 PM 33.0°F0.6°C 24.6°F-4.1°C 71% 10.0 mph ENE16.1 kmh ENE 27.0 mph43.5 kmh 29.53 in1000.0 mb 0.00 in0.0 mm 0.00 in0.0 mm 0.00 in0.0 mm
01:08 PM 33.0°F0.6°C 24.6°F-4.1°C 71% 19.0 mph NNE30.6 kmh NNE 27.0 mph43.5 kmh 29.53 in1000.0 mb 0.00 in0.0 mm 0.00 in0.0 mm 0.00 in0.0 mm
01:09 PM 33.0°F0.6°C 24.6°F-4.1°C 71% 12.0 mph NE19.3 kmh NE 27.0 mph43.5 kmh 29.53 in1000.0 mb 0.00 in0.0 mm 0.00 in0.0 mm 0.00 in0.0 mm
01:10 PM 33.0°F0.6°C 24.6°F-4.1°C 71% 7.0 mph ENE11.3 kmh ENE 27.0 mph43.5 kmh 29.53 in1000.0 mb 0.00 in0.0 mm 0.00 in0.0 mm 0.00 in0.0 mm
01:11 PM 33.0°F0.6°C 25.0°F-3.9°C 72% 11.0 mph NE17.7 kmh NE 27.0 mph43.5 kmh 29.53 in1000.0 mb 0.00 in0.0 mm 0.00 in0.0 mm 0.00 in0.0 mm
01:12 PM 33.0°F0.6°C 24.6°F-4.1°C 71% 8.0 mph NE12.9 kmh NE 27.0 mph43.5 kmh 29.53 in1000.0 mb 0.00 in0.0 mm 0.00 in0.0 mm 0.00 in0.0 mm
01:13 PM 33.1°F0.6°C 25.1°F-3.8°C 72% 7.0 mph N11.3 kmh N 27.0 mph43.5 kmh 29.53 in1000.0 mb 0.00 in0.0 mm 0.00 in0.0 mm 0.00 in0.0 mm
01:14 PM 33.1°F0.6°C 25.1°F-3.8°C 72% 15.0 mph NE24.1 kmh NE 27.0 mph43.5 kmh 29.54 in1000.3 mb 0.00 in0.0 mm 0.00 in0.0 mm 0.00 in0.0 mm
01:15 PM 33.1°F0.6°C 24.7°F-4.1°C 71% 11.0 mph NE17.7 kmh NE 27.0 mph43.5 kmh 29.53 in1000.0 mb 0.00 in0.0 mm 0.00 in0.0 mm 0.00 in0.0 mm
01:16 PM 33.2°F0.7°C 24.8°F-4.0°C 71% 14.0 mph NE22.5 kmh NE 27.0 mph43.5 kmh 29.53 in1000.0 mb 0.00 in0.0 mm 0.00 in0.0 mm 0.00 in0.0 mm
01:17 PM 33.2°F0.7°C 24.8°F-4.0°C 71% 14.0 mph NNE22.5 kmh NNE 27.0 mph43.5 kmh 29.53 in1000.0 mb 0.00 in0.0 mm 0.00 in0.0 mm 0.00 in0.0 mm
01:18 PM 33.2°F0.7°C 24.8°F-4.0°C 71% 13.0 mph NE20.9 kmh NE 27.0 mph43.5 kmh 29.54 in1000.3 mb 0.00 in0.0 mm 0.00 in0.0 mm 0.00 in0.0 mm
01:19 PM 33.2°F0.7°C 25.2°F-3.8°C 72% 9.0 mph NE14.5 kmh NE 18.0 mph29.0 kmh 29.54 in1000.3 mb 0.00 in0.0 mm 0.00 in0.0 mm 0.00 in0.0 mm
01:20 PM 33.2°F0.7°C 25.2°F-3.8°C 72% 15.0 mph NE24.1 kmh NE 18.0 mph29.0 kmh 29.54 in1000.3 mb 0.00 in0.0 mm 0.00 in0.0 mm 0.00 in0.0 mm
01:21 PM 33.2°F0.7°C 25.2°F-3.8°C 72% 9.0 mph NE14.5 kmh NE 21.0 mph33.8 kmh 29.53 in1000.0 mb 0.00 in0.0 mm 0.00 in0.0 mm 0.00 in0.0 mm
01:22 PM 33.2°F0.7°C 25.2°F-3.8°C 72% 11.0 mph NE17.7 kmh NE 21.0 mph33.8 kmh 29.53 in1000.0 mb 0.00 in0.0 mm 0.00 in0.0 mm 0.00 in0.0 mm
01:23 PM 33.2°F0.7°C 25.2°F-3.8°C 72% 15.0 mph NE24.1 kmh NE 21.0 mph33.8 kmh 29.54 in1000.3 mb 0.00 in0.0 mm 0.00 in0.0 mm 0.00 in0.0 mm
01:24 PM 33.2°F0.7°C 24.8°F-4.0°C 71% 10.0 mph 16.1 kmh 21.0 mph33.8 kmh 29.54 in1000.3 mb 0.00 in0.0 mm 0.00 in0.0 mm 0.00 in0.0 mm
01:25 PM 33.2°F0.7°C 25.2°F-3.8°C 72% 18.0 mph N29.0 kmh N 21.0 mph33.8 kmh 29.53 in1000.0 mb 0.00 in0.0 mm 0.00 in0.0 mm 0.00 in0.0 mm
01:26 PM 33.2°F0.7°C 24.8°F-4.0°C 71% 13.0 mph N20.9 kmh N 21.0 mph33.8 kmh 29.54 in1000.3 mb 0.00 in0.0 mm 0.00 in0.0 mm 0.00 in0.0 mm
01:27 PM 33.3°F0.7°C 24.9°F-3.9°C 71% 15.0 mph N24.1 kmh N 21.0 mph33.8 kmh 29.54 in1000.3 mb 0.00 in0.0 mm 0.00 in0.0 mm 0.00 in0.0 mm
01:28 PM 33.3°F0.7°C 25.3°F-3.7°C 72% 8.0 mph NE12.9 kmh NE 21.0 mph33.8 kmh 29.54 in1000.3 mb 0.00 in0.0 mm 0.00 in0.0 mm 0.00 in0.0 mm
01:29 PM 33.4°F0.8°C 25.4°F-3.7°C 72% 15.0 mph NNE24.1 kmh NNE 21.0 mph33.8 kmh 29.54 in1000.3 mb 0.00 in0.0 mm 0.00 in0.0 mm 0.00 in0.0 mm
01:30 PM 33.5°F0.8°C 25.1°F-3.8°C 71% 12.0 mph ENE19.3 kmh ENE 22.0 mph35.4 kmh 29.54 in1000.3 mb 0.00 in0.0 mm 0.00 in0.0 mm 0.00 in0.0 mm
01:31 PM 33.5°F0.8°C 25.5°F-3.6°C 72% 18.0 mph N29.0 kmh N 24.0 mph38.6 kmh 29.53 in1000.0 mb 0.00 in0.0 mm 0.00 in0.0 mm 0.00 in0.0 mm
01:32 PM 33.5°F0.8°C 25.1°F-3.8°C 71% 12.0 mph NNE19.3 kmh NNE 24.0 mph38.6 kmh 29.54 in1000.3 mb 0.00 in0.0 mm 0.00 in0.0 mm 0.00 in0.0 mm
01:33 PM 33.5°F0.8°C 25.1°F-3.8°C 71% 16.0 mph NNE25.7 kmh NNE 24.0 mph38.6 kmh 29.53 in1000.0 mb 0.00 in0.0 mm 0.00 in0.0 mm 0.00 in0.0 mm
01:34 PM 33.5°F0.8°C 25.5°F-3.6°C 72% 17.0 mph NE27.4 kmh NE 24.0 mph38.6 kmh 29.54 in1000.3 mb 0.00 in0.0 mm 0.00 in0.0 mm 0.00 in0.0 mm
01:35 PM 33.5°F0.8°C 25.1°F-3.8°C 71% 11.0 mph NNE17.7 kmh NNE 24.0 mph38.6 kmh 29.53 in1000.0 mb 0.00 in0.0 mm 0.00 in0.0 mm 0.00 in0.0 mm
01:36 PM 33.5°F0.8°C 25.1°F-3.8°C 71% 11.0 mph NE17.7 kmh NE 24.0 mph38.6 kmh 29.54 in1000.3 mb 0.00 in0.0 mm 0.00 in0.0 mm 0.00 in0.0 mm
01:37 PM 33.4°F0.8°C 25.0°F-3.9°C 71% 14.0 mph N22.5 kmh N 24.0 mph38.6 kmh 29.54 in1000.3 mb 0.00 in0.0 mm 0.00 in0.0 mm 0.00 in0.0 mm
01:38 PM 33.4°F0.8°C 25.0°F-3.9°C 71% 14.0 mph ENE22.5 kmh ENE 24.0 mph38.6 kmh 29.54 in1000.3 mb 0.00 in0.0 mm 0.00 in0.0 mm 0.00 in0.0 mm
01:39 PM 33.4°F0.8°C 25.4°F-3.7°C 72% 8.0 mph NE12.9 kmh NE 24.0 mph38.6 kmh 29.54 in1000.3 mb 0.00 in0.0 mm 0.00 in0.0 mm 0.00 in0.0 mm
01:40 PM 33.5°F0.8°C 25.5°F-3.6°C 72% 8.0 mph N12.9 kmh N 24.0 mph38.6 kmh 29.54 in1000.3 mb 0.00 in0.0 mm 0.00 in0.0 mm 0.00 in0.0 mm
01:41 PM 33.6°F0.9°C 25.9°F-3.4°C 73% 9.0 mph ENE14.5 kmh ENE 24.0 mph38.6 kmh 29.54 in1000.3 mb 0.00 in0.0 mm 0.00 in0.0 mm 0.00 in0.0 mm
01:42 PM 33.6°F0.9°C 25.6°F-3.6°C 72% 6.0 mph NE9.7 kmh NE 24.0 mph38.6 kmh 29.54 in1000.3 mb 0.00 in0.0 mm 0.00 in0.0 mm 0.00 in0.0 mm
01:43 PM 33.6°F0.9°C 25.9°F-3.4°C 73% 9.0 mph NE14.5 kmh NE 24.0 mph38.6 kmh 29.54 in1000.3 mb 0.00 in0.0 mm 0.00 in0.0 mm 0.00 in0.0 mm
01:44 PM 33.7°F0.9°C 26.0°F-3.3°C 73% 7.0 mph NNE11.3 kmh NNE 24.0 mph38.6 kmh 29.54 in1000.3 mb 0.00 in0.0 mm 0.00 in0.0 mm 0.00 in0.0 mm
01:45 PM 33.7°F0.9°C 25.7°F-3.5°C 72% 13.0 mph NE20.9 kmh NE 24.0 mph38.6 kmh 29.54 in1000.3 mb 0.00 in0.0 mm 0.00 in0.0 mm 0.00 in0.0 mm
01:46 PM 33.7°F0.9°C 25.3°F-3.7°C 71% 14.0 mph NE22.5 kmh NE 24.0 mph38.6 kmh 29.54 in1000.3 mb 0.00 in0.0 mm 0.00 in0.0 mm 0.00 in0.0 mm
01:47 PM 33.7°F0.9°C 25.3°F-3.7°C 71% 10.0 mph NNE16.1 kmh NNE 24.0 mph38.6 kmh 29.54 in1000.3 mb 0.00 in0.0 mm 0.00 in0.0 mm 0.00 in0.0 mm
01:48 PM 33.7°F0.9°C 25.7°F-3.5°C 72% 12.0 mph NE19.3 kmh NE 24.0 mph38.6 kmh 29.54 in1000.3 mb 0.00 in0.0 mm 0.00 in0.0 mm 0.00 in0.0 mm
01:49 PM 33.7°F0.9°C 25.3°F-3.7°C 71% 19.0 mph N30.6 kmh N 26.0 mph41.8 kmh 29.54 in1000.3 mb 0.00 in0.0 mm 0.00 in0.0 mm 0.00 in0.0 mm
01:50 PM 33.6°F0.9°C 25.2°F-3.8°C 71% 17.0 mph N27.4 kmh N 26.0 mph41.8 kmh 29.54 in1000.3 mb 0.00 in0.0 mm 0.00 in0.0 mm 0.00 in0.0 mm
01:51 PM 33.6°F0.9°C 25.6°F-3.6°C 72% 10.0 mph NE16.1 kmh NE 26.0 mph41.8 kmh 29.54 in1000.3 mb 0.00 in0.0 mm 0.00 in0.0 mm 0.00 in0.0 mm
01:52 PM 33.5°F0.8°C 25.1°F-3.8°C 71% 14.0 mph NNE22.5 kmh NNE 26.0 mph41.8 kmh 29.54 in1000.3 mb 0.00 in0.0 mm 0.00 in0.0 mm 0.00 in0.0 mm
01:53 PM 33.5°F0.8°C 25.5°F-3.6°C 72% 10.0 mph NE16.1 kmh NE 26.0 mph41.8 kmh 29.54 in1000.3 mb 0.00 in0.0 mm 0.00 in0.0 mm 0.00 in0.0 mm
01:54 PM 33.5°F0.8°C 25.5°F-3.6°C 72% 9.0 mph NE14.5 kmh NE 26.0 mph41.8 kmh 29.55 in1000.7 mb 0.00 in0.0 mm 0.00 in0.0 mm 0.00 in0.0 mm
01:55 PM 33.4°F0.8°C 25.4°F-3.7°C 72% 9.0 mph NE14.5 kmh NE 26.0 mph41.8 kmh 29.54 in1000.3 mb 0.00 in0.0 mm 0.00 in0.0 mm 0.00 in0.0 mm
01:56 PM 33.4°F0.8°C 25.4°F-3.7°C 72% 5.0 mph NNE8.0 kmh NNE 26.0 mph41.8 kmh 29.55 in1000.7 mb 0.00 in0.0 mm 0.00 in0.0 mm 0.00 in0.0 mm
01:57 PM 33.4°F0.8°C 25.4°F-3.7°C 72% 8.0 mph NE12.9 kmh NE 26.0 mph41.8 kmh 29.54 in1000.3 mb 0.00 in0.0 mm 0.00 in0.0 mm 0.00 in0.0 mm
01:58 PM 33.4°F0.8°C 25.4°F-3.7°C 72% 8.0 mph NNE12.9 kmh NNE 26.0 mph41.8 kmh 29.55 in1000.7 mb 0.00 in0.0 mm 0.00 in0.0 mm 0.00 in0.0 mm
01:59 PM 33.4°F0.8°C 25.4°F-3.7°C 72% 17.0 mph ENE27.4 kmh ENE 26.0 mph41.8 kmh 29.54 in1000.3 mb 0.00 in0.0 mm 0.00 in0.0 mm 0.00 in0.0 mm
02:00 PM 33.3°F0.7°C 25.3°F-3.7°C 72% 11.0 mph NNE17.7 kmh NNE 26.0 mph41.8 kmh 29.55 in1000.7 mb 0.00 in0.0 mm 0.00 in0.0 mm 0.00 in0.0 mm
02:01 PM 33.3°F0.7°C 25.3°F-3.7°C 72% 10.0 mph NNE16.1 kmh NNE 26.0 mph41.8 kmh 29.55 in1000.7 mb 0.00 in0.0 mm 0.00 in0.0 mm 0.00 in0.0 mm
02:02 PM 33.3°F0.7°C 25.3°F-3.7°C 72% 15.0 mph NNE24.1 kmh NNE 26.0 mph41.8 kmh 29.55 in1000.7 mb 0.00 in0.0 mm 0.00 in0.0 mm 0.00 in0.0 mm
02:03 PM 33.3°F0.7°C 25.3°F-3.7°C 72% 12.0 mph N19.3 kmh N 26.0 mph41.8 kmh 29.55 in1000.7 mb 0.00 in0.0 mm 0.00 in0.0 mm 0.00 in0.0 mm
02:04 PM 33.3°F0.7°C 25.3°F-3.7°C 72% 11.0 mph NNE17.7 kmh NNE 26.0 mph41.8 kmh 29.55 in1000.7 mb 0.00 in0.0 mm 0.00 in0.0 mm 0.00 in0.0 mm
02:05 PM 33.4°F0.8°C 25.7°F-3.5°C 73% 8.0 mph NNE12.9 kmh NNE 26.0 mph41.8 kmh 29.55 in1000.7 mb 0.00 in0.0 mm 0.00 in0.0 mm 0.00 in0.0 mm
02:06 PM 33.3°F0.7°C 25.3°F-3.7°C 72% 15.0 mph NE24.1 kmh NE 26.0 mph41.8 kmh 29.55 in1000.7 mb 0.00 in0.0 mm 0.00 in0.0 mm 0.00 in0.0 mm
02:07 PM 33.3°F0.7°C 25.3°F-3.7°C 72% 10.0 mph NNE16.1 kmh NNE 26.0 mph41.8 kmh 29.55 in1000.7 mb 0.00 in0.0 mm 0.00 in0.0 mm 0.00 in0.0 mm
02:08 PM 33.3°F0.7°C 25.3°F-3.7°C 72% 11.0 mph NE17.7 kmh NE 26.0 mph41.8 kmh 29.55 in1000.7 mb 0.00 in0.0 mm 0.00 in0.0 mm 0.00 in0.0 mm
02:09 PM 33.2°F0.7°C 25.2°F-3.8°C 72% 7.0 mph NE11.3 kmh NE 20.0 mph32.2 kmh 29.55 in1000.7 mb 0.00 in0.0 mm 0.00 in0.0 mm 0.00 in0.0 mm
02:10 PM 33.2°F0.7°C 25.2°F-3.8°C 72% 15.0 mph N24.1 kmh N 20.0 mph32.2 kmh 29.55 in1000.7 mb 0.00 in0.0 mm 0.00 in0.0 mm 0.00 in0.0 mm
02:11 PM 33.1°F0.6°C 25.1°F-3.8°C 72% 15.0 mph ENE24.1 kmh ENE 20.0 mph32.2 kmh 29.55 in1000.7 mb 0.00 in0.0 mm 0.00 in0.0 mm 0.00 in0.0 mm
02:12 PM 33.1°F0.6°C 25.1°F-3.8°C 72% 9.0 mph NE14.5 kmh NE 20.0 mph32.2 kmh 29.55 in1000.7 mb 0.00 in0.0 mm 0.00 in0.0 mm 0.00 in0.0 mm
02:13 PM 33.0°F0.6°C 25.3°F-3.7°C 73% 12.0 mph NE19.3 kmh NE 20.0 mph32.2 kmh 29.55 in1000.7 mb 0.00 in0.0 mm 0.00 in0.0 mm 0.00 in0.0 mm
02:14 PM 33.0°F0.6°C 25.3°F-3.7°C 73% 12.0 mph 19.3 kmh 20.0 mph32.2 kmh 29.55 in1000.7 mb 0.00 in0.0 mm 0.00 in0.0 mm 0.00 in0.0 mm
02:15 PM 32.9°F0.5°C 24.9°F-3.9°C 72% 8.0 mph NNE12.9 kmh NNE 20.0 mph32.2 kmh 29.55 in1000.7 mb 0.00 in0.0 mm 0.00 in0.0 mm 0.00 in0.0 mm
02:16 PM 32.9°F0.5°C 24.9°F-3.9°C 72% 12.0 mph NNE19.3 kmh NNE 20.0 mph32.2 kmh 29.55 in1000.7 mb 0.00 in0.0 mm 0.00 in0.0 mm 0.00 in0.0 mm
02:17 PM 32.9°F0.5°C 24.9°F-3.9°C 72% 13.0 mph NE20.9 kmh NE 20.0 mph32.2 kmh 29.56 in1001.0 mb 0.00 in0.0 mm 0.00 in0.0 mm 0.00 in0.0 mm
02:18 PM 32.8°F0.4°C 24.8°F-4.0°C 72% 7.0 mph NE11.3 kmh NE 22.0 mph35.4 kmh 29.55 in1000.7 mb 0.00 in0.0 mm 0.00 in0.0 mm 0.00 in0.0 mm
02:19 PM 32.8°F0.4°C 24.8°F-4.0°C 72% 14.0 mph NNE22.5 kmh NNE 22.0 mph35.4 kmh 29.55 in1000.7 mb 0.00 in0.0 mm 0.00 in0.0 mm 0.00 in0.0 mm
02:20 PM 32.7°F0.4°C 24.7°F-4.1°C 72% 17.0 mph NE27.4 kmh NE 23.0 mph37.0 kmh 29.56 in1001.0 mb 0.00 in0.0 mm 0.00 in0.0 mm 0.00 in0.0 mm
02:21 PM 32.7°F0.4°C 24.4°F-4.2°C 71% 13.0 mph NE20.9 kmh NE 24.0 mph38.6 kmh 29.56 in1001.0 mb 0.00 in0.0 mm 0.00 in0.0 mm 0.00 in0.0 mm
02:22 PM 32.6°F0.3°C 24.6°F-4.1°C 72% 8.0 mph NNE12.9 kmh NNE 24.0 mph38.6 kmh 29.56 in1001.0 mb 0.00 in0.0 mm 0.00 in0.0 mm 0.00 in0.0 mm
02:23 PM 32.6°F0.3°C 24.6°F-4.1°C 72% 11.0 mph NNE17.7 kmh NNE 24.0 mph38.6 kmh 29.56 in1001.0 mb 0.00 in0.0 mm 0.00 in0.0 mm 0.00 in0.0 mm
02:24 PM 32.6°F0.3°C 24.6°F-4.1°C 72% 11.0 mph NE17.7 kmh NE 24.0 mph38.6 kmh 29.56 in1001.0 mb 0.00 in0.0 mm 0.00 in0.0 mm 0.00 in0.0 mm
02:25 PM 32.5°F0.3°C 24.5°F-4.2°C 72% 15.0 mph N24.1 kmh N 24.0 mph38.6 kmh 29.56 in1001.0 mb 0.00 in0.0 mm 0.00 in0.0 mm 0.00 in0.0 mm
02:26 PM 32.5°F0.3°C 24.5°F-4.2°C 72% 12.0 mph NNE19.3 kmh NNE 24.0 mph38.6 kmh 29.56 in1001.0 mb 0.00 in0.0 mm 0.00 in0.0 mm 0.00 in0.0 mm
02:27 PM 32.5°F0.3°C 24.8°F-4.0°C 73% 8.0 mph NE12.9 kmh NE 24.0 mph38.6 kmh 29.56 in1001.0 mb 0.00 in0.0 mm 0.00 in0.0 mm 0.00 in0.0 mm
02:28 PM 32.4°F0.2°C 24.7°F-4.1°C 73% 9.0 mph N14.5 kmh N 24.0 mph38.6 kmh 29.56 in1001.0 mb 0.00 in0.0 mm 0.00 in0.0 mm 0.00 in0.0 mm
02:29 PM 32.4°F0.2°C 24.7°F-4.1°C 73% 16.0 mph NNE25.7 kmh NNE 24.0 mph38.6 kmh 29.56 in1001.0 mb 0.00 in0.0 mm 0.00 in0.0 mm 0.00 in0.0 mm
02:30 PM 32.4°F0.2°C 24.7°F-4.1°C 73% 13.0 mph 20.9 kmh 24.0 mph38.6 kmh 29.56 in1001.0 mb 0.00 in0.0 mm 0.00 in0.0 mm 0.00 in0.0 mm
02:31 PM 32.4°F0.2°C 24.4°F-4.2°C 72% 12.0 mph NNE19.3 kmh NNE 24.0 mph38.6 kmh 29.56 in1001.0 mb 0.00 in0.0 mm 0.00 in0.0 mm 0.00 in0.0 mm
02:32 PM 32.4°F0.2°C 24.4°F-4.2°C 72% 9.0 mph NE14.5 kmh NE 24.0 mph38.6 kmh 29.56 in1001.0 mb 0.00 in0.0 mm 0.00 in0.0 mm 0.00 in0.0 mm
02:33 PM 32.4°F0.2°C 24.7°F-4.1°C 73% 9.0 mph NE14.5 kmh NE 24.0 mph38.6 kmh 29.56 in1001.0 mb 0.00 in0.0 mm 0.00 in0.0 mm 0.00 in0.0 mm
02:34 PM 32.4°F0.2°C 24.4°F-4.2°C 72% 13.0 mph ENE20.9 kmh ENE 24.0 mph38.6 kmh 29.56 in1001.0 mb 0.00 in0.0 mm 0.00 in0.0 mm 0.00 in0.0 mm
02:35 PM 32.4°F0.2°C 24.4°F-4.2°C 72% 7.0 mph NE11.3 kmh NE 24.0 mph38.6 kmh 29.56 in1001.0 mb 0.00 in0.0 mm 0.00 in0.0 mm 0.00 in0.0 mm
02:36 PM 32.4°F0.2°C 24.4°F-4.2°C 72% 15.0 mph NE24.1 kmh NE 24.0 mph38.6 kmh 29.56 in1001.0 mb 0.00 in0.0 mm 0.00 in0.0 mm 0.00 in0.0 mm
02:37 PM 32.4°F0.2°C 24.4°F-4.2°C 72% 16.0 mph N25.7 kmh N 24.0 mph38.6 kmh 29.56 in1001.0 mb 0.00 in0.0 mm 0.00 in0.0 mm 0.00 in0.0 mm
02:38 PM 32.4°F0.2°C 24.4°F-4.2°C 72% 6.0 mph NNE9.7 kmh NNE 24.0 mph38.6 kmh 29.56 in1001.0 mb 0.00 in0.0 mm 0.00 in0.0 mm 0.00 in0.0 mm
02:39 PM 32.4°F0.2°C 24.4°F-4.2°C 72% 13.0 mph N20.9 kmh N 24.0 mph38.6 kmh 29.56 in1001.0 mb 0.00 in0.0 mm 0.00 in0.0 mm 0.00 in0.0 mm
02:40 PM 32.4°F0.2°C 24.4°F-4.2°C 72% 14.0 mph 22.5 kmh 24.0 mph38.6 kmh 29.56 in1001.0 mb 0.00 in0.0 mm 0.00 in0.0 mm 0.00 in0.0 mm
02:41 PM 32.4°F0.2°C 24.1°F-4.4°C 71% 11.0 mph N17.7 kmh N 21.0 mph33.8 kmh 29.56 in1001.0 mb 0.00 in0.0 mm 0.00 in0.0 mm 0.00 in0.0 mm
02:42 PM 32.4°F0.2°C 24.1°F-4.4°C 71% 8.0 mph NNE12.9 kmh NNE 22.0 mph35.4 kmh 29.56 in1001.0 mb 0.00 in0.0 mm 0.00 in0.0 mm 0.00 in0.0 mm
02:43 PM 32.4°F0.2°C 24.1°F-4.4°C 71% 8.0 mph N12.9 kmh N 22.0 mph35.4 kmh 29.56 in1001.0 mb 0.00 in0.0 mm 0.00 in0.0 mm 0.00 in0.0 mm
02:44 PM 32.4°F0.2°C 24.4°F-4.2°C 72% 9.0 mph NNE14.5 kmh NNE 22.0 mph35.4 kmh 29.56 in1001.0 mb 0.00 in0.0 mm 0.00 in0.0 mm 0.00 in0.0 mm
02:45 PM 32.4°F0.2°C 24.4°F-4.2°C 72% 5.0 mph NE8.0 kmh NE 22.0 mph35.4 kmh 29.56 in1001.0 mb 0.00 in0.0 mm 0.00 in0.0 mm 0.00 in0.0 mm
02:46 PM 32.4°F0.2°C 24.4°F-4.2°C 72% 11.0 mph NE17.7 kmh NE 22.0 mph35.4 kmh 29.56 in1001.0 mb 0.00 in0.0 mm 0.00 in0.0 mm 0.00 in0.0 mm
02:47 PM 32.3°F0.2°C 24.0°F-4.4°C 71% 9.0 mph N14.5 kmh N 22.0 mph35.4 kmh 29.56 in1001.0 mb 0.00 in0.0 mm 0.00 in0.0 mm 0.00 in0.0 mm
02:48 PM 32.4°F0.2°C 24.1°F-4.4°C 71% 10.0 mph N16.1 kmh N 22.0 mph35.4 kmh 29.57 in1001.4 mb 0.00 in0.0 mm 0.00 in0.0 mm 0.00 in0.0 mm
02:49 PM 32.3°F0.2°C 24.0°F-4.4°C 71% 10.0 mph NE16.1 kmh NE 22.0 mph35.4 kmh 29.57 in1001.4 mb 0.00 in0.0 mm 0.00 in0.0 mm 0.00 in0.0 mm
02:50 PM 32.3°F0.2°C 24.0°F-4.4°C 71% 8.0 mph N12.9 kmh N 22.0 mph35.4 kmh 29.56 in1001.0 mb 0.00 in0.0 mm 0.00 in0.0 mm 0.00 in0.0 mm
02:51 PM 32.3°F0.2°C 24.0°F-4.4°C 71% 13.0 mph NE20.9 kmh NE 22.0 mph35.4 kmh 29.56 in1001.0 mb 0.00 in0.0 mm 0.00 in0.0 mm 0.00 in0.0 mm
02:52 PM 32.3°F0.2°C 24.3°F-4.3°C 72% 6.0 mph NE9.7 kmh NE 22.0 mph35.4 kmh 29.56 in1001.0 mb 0.00 in0.0 mm 0.00 in0.0 mm 0.00 in0.0 mm
02:53 PM 32.3°F0.2°C 24.3°F-4.3°C 72% 5.0 mph NNE8.0 kmh NNE 22.0 mph35.4 kmh 29.57 in1001.4 mb 0.00 in0.0 mm 0.00 in0.0 mm 0.00 in0.0 mm
02:54 PM 32.3°F0.2°C 24.3°F-4.3°C 72% 11.0 mph N17.7 kmh N 22.0 mph35.4 kmh 29.57 in1001.4 mb 0.00 in0.0 mm 0.00 in0.0 mm 0.00 in0.0 mm
02:55 PM 32.2°F0.1°C 23.9°F-4.5°C 71% 16.0 mph NNE25.7 kmh NNE 22.0 mph35.4 kmh 29.57 in1001.4 mb 0.00 in0.0 mm 0.00 in0.0 mm 0.00 in0.0 mm
02:56 PM 32.2°F0.1°C 23.9°F-4.5°C 71% 17.0 mph N27.4 kmh N 22.0 mph35.4 kmh 29.57 in1001.4 mb 0.00 in0.0 mm 0.00 in0.0 mm 0.00 in0.0 mm
02:57 PM 32.2°F0.1°C 23.9°F-4.5°C 71% 6.0 mph NE9.7 kmh NE 25.0 mph40.2 kmh 29.57 in1001.4 mb 0.00 in0.0 mm 0.00 in0.0 mm 0.00 in0.0 mm
02:58 PM 32.2°F0.1°C 23.9°F-4.5°C 71% 12.0 mph NE19.3 kmh NE 25.0 mph40.2 kmh 29.57 in1001.4 mb 0.00 in0.0 mm 0.00 in0.0 mm 0.00 in0.0 mm
02:59 PM 32.2°F0.1°C 23.9°F-4.5°C 71% 9.0 mph NE14.5 kmh NE 25.0 mph40.2 kmh 29.57 in1001.4 mb 0.00 in0.0 mm 0.00 in0.0 mm 0.00 in0.0 mm
03:00 PM 32.2°F0.1°C 24.2°F-4.3°C 72% 9.0 mph NNE14.5 kmh NNE 25.0 mph40.2 kmh 29.57 in1001.4 mb 0.00 in0.0 mm 0.00 in0.0 mm 0.00 in0.0 mm
03:01 PM 32.2°F0.1°C 23.9°F-4.5°C 71% 15.0 mph NE24.1 kmh NE 25.0 mph40.2 kmh 29.57 in1001.4 mb 0.00 in0.0 mm 0.00 in0.0 mm 0.00 in0.0 mm
03:02 PM 32.2°F0.1°C 23.9°F-4.5°C 71% 8.0 mph NNW12.9 kmh NNW 25.0 mph40.2 kmh 29.57 in1001.4 mb 0.00 in0.0 mm 0.00 in0.0 mm 0.00 in0.0 mm
03:03 PM 32.2°F0.1°C 23.9°F-4.5°C 71% 10.0 mph NNE16.1 kmh NNE 25.0 mph40.2 kmh 29.57 in1001.4 mb 0.00 in0.0 mm 0.00 in0.0 mm 0.00 in0.0 mm
03:04 PM 32.2°F0.1°C 23.9°F-4.5°C 71% 8.0 mph NNE12.9 kmh NNE 25.0 mph40.2 kmh 29.57 in1001.4 mb 0.00 in0.0 mm 0.00 in0.0 mm 0.00 in0.0 mm
03:05 PM 32.2°F0.1°C 23.9°F-4.5°C 71% 19.0 mph NE30.6 kmh NE 25.0 mph40.2 kmh 29.57 in1001.4 mb 0.00 in0.0 mm 0.00 in0.0 mm 0.00 in0.0 mm
03:06 PM 32.2°F0.1°C 23.9°F-4.5°C 71% 15.0 mph NNE24.1 kmh NNE 25.0 mph40.2 kmh 29.57 in1001.4 mb 0.00 in0.0 mm 0.00 in0.0 mm 0.00 in0.0 mm
03:07 PM 32.2°F0.1°C 24.2°F-4.3°C 72% 15.0 mph NNE24.1 kmh NNE 25.0 mph40.2 kmh 29.57 in1001.4 mb 0.00 in0.0 mm 0.00 in0.0 mm 0.00 in0.0 mm
03:08 PM 32.2°F0.1°C 23.9°F-4.5°C 71% 10.0 mph NNE16.1 kmh NNE 25.0 mph40.2 kmh 29.57 in1001.4 mb 0.00 in0.0 mm 0.00 in0.0 mm 0.00 in0.0 mm
03:09 PM 32.2°F0.1°C 24.2°F-4.3°C 72% 15.0 mph N24.1 kmh N 25.0 mph40.2 kmh 29.57 in1001.4 mb 0.00 in0.0 mm 0.00 in0.0 mm 0.00 in0.0 mm
03:10 PM 32.1°F0.1°C 23.8°F-4.6°C 71% 13.0 mph N20.9 kmh N 25.0 mph40.2 kmh 29.57 in1001.4 mb 0.00 in0.0 mm 0.00 in0.0 mm 0.00 in0.0 mm
03:11 PM 32.2°F0.1°C 24.2°F-4.3°C 72% 11.0 mph NE17.7 kmh NE 25.0 mph40.2 kmh 29.57 in1001.4 mb 0.00 in0.0 mm 0.00 in0.0 mm 0.00 in0.0 mm
03:12 PM 32.1°F0.1°C 23.8°F-4.6°C 71% 9.0 mph NNE14.5 kmh NNE 25.0 mph40.2 kmh 29.57 in1001.4 mb 0.00 in0.0 mm 0.00 in0.0 mm 0.00 in0.0 mm
03:13 PM 32.1°F0.1°C 24.1°F-4.4°C 72% 7.0 mph NE11.3 kmh NE 25.0 mph40.2 kmh 29.57 in1001.4 mb 0.00 in0.0 mm 0.00 in0.0 mm 0.00 in0.0 mm
03:14 PM 32.1°F0.1°C 24.1°F-4.4°C 72% 11.0 mph N17.7 kmh N 25.0 mph40.2 kmh 29.58 in1001.7 mb 0.00 in0.0 mm 0.00 in0.0 mm 0.00 in0.0 mm
03:15 PM 32.1°F0.1°C 24.1°F-4.4°C 72% 16.0 mph ENE25.7 kmh ENE 25.0 mph40.2 kmh 29.58 in1001.7 mb 0.00 in0.0 mm 0.00 in0.0 mm 0.00 in0.0 mm
03:16 PM 32.1°F0.1°C 24.1°F-4.4°C 72% 13.0 mph NE20.9 kmh NE 25.0 mph40.2 kmh 29.57 in1001.4 mb 0.00 in0.0 mm 0.00 in0.0 mm 0.00 in0.0 mm
03:17 PM 32.0°F0.0°C 24.0°F-4.4°C 72% 10.0 mph NNE16.1 kmh NNE 21.0 mph33.8 kmh 29.58 in1001.7 mb 0.00 in0.0 mm 0.00 in0.0 mm 0.00 in0.0 mm
03:18 PM 32.0°F0.0°C 24.0°F-4.4°C 72% 14.0 mph NE22.5 kmh NE 21.0 mph33.8 kmh 29.58 in1001.7 mb 0.00 in0.0 mm 0.00 in0.0 mm 0.00 in0.0 mm
03:19 PM 32.0°F0.0°C 24.0°F-4.4°C 72% 15.0 mph NE24.1 kmh NE 21.0 mph33.8 kmh 29.58 in1001.7 mb 0.00 in0.0 mm 0.00 in0.0 mm 0.00 in0.0 mm
03:20 PM 32.0°F0.0°C 24.0°F-4.4°C 72% 6.0 mph NE9.7 kmh NE 21.0 mph33.8 kmh 29.58 in1001.7 mb 0.00 in0.0 mm 0.00 in0.0 mm 0.00 in0.0 mm
03:21 PM 31.9°F-0.1°C 24.2°F-4.3°C 73% 12.0 mph NNE19.3 kmh NNE 21.0 mph33.8 kmh 29.57 in1001.4 mb 0.00 in0.0 mm 0.00 in0.0 mm 0.00 in0.0 mm
03:22 PM 31.9°F-0.1°C 23.9°F-4.5°C 72% 12.0 mph NE19.3 kmh NE 21.0 mph33.8 kmh 29.58 in1001.7 mb 0.00 in0.0 mm 0.00 in0.0 mm 0.00 in0.0 mm
03:23 PM 31.9°F-0.1°C 23.9°F-4.5°C 72% 16.0 mph NNE25.7 kmh NNE 21.0 mph33.8 kmh 29.58 in1001.7 mb 0.00 in0.0 mm 0.00 in0.0 mm 0.00 in0.0 mm
03:24 PM 31.9°F-0.1°C 23.9°F-4.5°C 72% 8.0 mph NNE12.9 kmh NNE 21.0 mph33.8 kmh 29.58 in1001.7 mb 0.00 in0.0 mm 0.00 in0.0 mm 0.00 in0.0 mm
03:25 PM 31.9°F-0.1°C 23.9°F-4.5°C 72% 10.0 mph ENE16.1 kmh ENE 21.0 mph33.8 kmh 29.58 in1001.7 mb 0.00 in0.0 mm 0.00 in0.0 mm 0.00 in0.0 mm
03:26 PM 31.8°F-0.1°C 23.8°F-4.6°C 72% 11.0 mph NE17.7 kmh NE 21.0 mph33.8 kmh 29.58 in1001.7 mb 0.00 in0.0 mm 0.00 in0.0 mm 0.00 in0.0 mm
03:27 PM 31.8°F-0.1°C 23.8°F-4.6°C 72% 8.0 mph E12.9 kmh E 20.0 mph32.2 kmh 29.58 in1001.7 mb 0.00 in0.0 mm 0.00 in0.0 mm 0.00 in0.0 mm
03:28 PM 31.8°F-0.1°C 23.8°F-4.6°C 72% 8.0 mph NNE12.9 kmh NNE 20.0 mph32.2 kmh 29.58 in1001.7 mb 0.00 in0.0 mm 0.00 in0.0 mm 0.00 in0.0 mm
03:29 PM 31.8°F-0.1°C 24.1°F-4.4°C 73% 10.0 mph NE16.1 kmh NE 20.0 mph32.2 kmh 29.58 in1001.7 mb 0.00 in0.0 mm 0.00 in0.0 mm 0.00 in0.0 mm
03:30 PM 31.8°F-0.1°C 23.8°F-4.6°C 72% 15.0 mph N24.1 kmh N 20.0 mph32.2 kmh 29.59 in1002.0 mb 0.00 in0.0 mm 0.00 in0.0 mm 0.00 in0.0 mm
03:31 PM 31.8°F-0.1°C 23.8°F-4.6°C 72% 6.0 mph NNE9.7 kmh NNE 21.0 mph33.8 kmh 29.59 in1002.0 mb 0.00 in0.0 mm 0.00 in0.0 mm 0.00 in0.0 mm
03:32 PM 31.8°F-0.1°C 23.8°F-4.6°C 72% 7.0 mph NE11.3 kmh NE 21.0 mph33.8 kmh 29.58 in1001.7 mb 0.00 in0.0 mm 0.00 in0.0 mm 0.00 in0.0 mm
03:33 PM 31.9°F-0.1°C 23.9°F-4.5°C 72% 8.0 mph NNE12.9 kmh NNE 21.0 mph33.8 kmh 29.59 in1002.0 mb 0.00 in0.0 mm 0.00 in0.0 mm 0.00 in0.0 mm
03:34 PM 31.9°F-0.1°C 23.9°F-4.5°C 72% 14.0 mph NE22.5 kmh NE 21.0 mph33.8 kmh 29.59 in1002.0 mb 0.00 in0.0 mm 0.00 in0.0 mm 0.00 in0.0 mm
03:35 PM 31.9°F-0.1°C 23.6°F-4.7°C 71% 8.0 mph NE12.9 kmh NE 21.0 mph33.8 kmh 29.59 in1002.0 mb 0.00 in0.0 mm 0.00 in0.0 mm 0.00 in0.0 mm
03:36 PM 31.8°F-0.1°C 23.5°F-4.7°C 71% 14.0 mph N22.5 kmh N 21.0 mph33.8 kmh 29.59 in1002.0 mb 0.00 in0.0 mm 0.00 in0.0 mm 0.00 in0.0 mm
03:37 PM 31.8°F-0.1°C 23.8°F-4.6°C 72% 9.0 mph NNE14.5 kmh NNE 21.0 mph33.8 kmh 29.59 in1002.0 mb 0.00 in0.0 mm 0.00 in0.0 mm 0.00 in0.0 mm
03:38 PM 31.8°F-0.1°C 23.8°F-4.6°C 72% 12.0 mph N19.3 kmh N 21.0 mph33.8 kmh 29.59 in1002.0 mb 0.00 in0.0 mm 0.00 in0.0 mm 0.00 in0.0 mm
03:39 PM 31.7°F-0.2°C 23.7°F-4.6°C 72% 10.0 mph NE16.1 kmh NE 21.0 mph33.8 kmh 29.59 in1002.0 mb 0.00 in0.0 mm 0.00 in0.0 mm 0.00 in0.0 mm
03:40 PM 31.7°F-0.2°C 23.7°F-4.6°C 72% 11.0 mph 17.7 kmh 22.0 mph35.4 kmh 29.59 in1002.0 mb 0.00 in0.0 mm 0.00 in0.0 mm 0.00 in0.0 mm
03:41 PM 31.7°F-0.2°C 23.7°F-4.6°C 72% 10.0 mph NE16.1 kmh NE 22.0 mph35.4 kmh 29.59 in1002.0 mb 0.00 in0.0 mm 0.00 in0.0 mm 0.00 in0.0 mm
03:42 PM 31.6°F-0.2°C 23.6°F-4.7°C 72% 16.0 mph NE25.7 kmh NE 22.0 mph35.4 kmh 29.59 in1002.0 mb 0.00 in0.0 mm 0.00 in0.0 mm 0.00 in0.0 mm
03:43 PM 31.6°F-0.2°C 23.6°F-4.7°C 72% 11.0 mph N17.7 kmh N 22.0 mph35.4 kmh 29.60 in1002.4 mb 0.00 in0.0 mm 0.00 in0.0 mm 0.00 in0.0 mm
03:44 PM 31.6°F-0.2°C 23.6°F-4.7°C 72% 12.0 mph NE19.3 kmh NE 22.0 mph35.4 kmh 29.59 in1002.0 mb 0.00 in0.0 mm 0.00 in0.0 mm 0.00 in0.0 mm
03:45 PM 31.6°F-0.2°C 24.0°F-4.4°C 73% 13.0 mph NE20.9 kmh NE 22.0 mph35.4 kmh 29.59 in1002.0 mb 0.00 in0.0 mm 0.00 in0.0 mm 0.00 in0.0 mm
03:46 PM 31.5°F-0.3°C 23.5°F-4.7°C 72% 9.0 mph NE14.5 kmh NE 22.0 mph35.4 kmh 29.59 in1002.0 mb 0.00 in0.0 mm 0.00 in0.0 mm 0.00 in0.0 mm
03:47 PM 31.5°F-0.3°C 23.9°F-4.5°C 73% 11.0 mph NNE17.7 kmh NNE 22.0 mph35.4 kmh 29.59 in1002.0 mb 0.00 in0.0 mm 0.00 in0.0 mm 0.00 in0.0 mm
03:48 PM 31.5°F-0.3°C 23.9°F-4.5°C 73% 7.0 mph N11.3 kmh N 22.0 mph35.4 kmh 29.59 in1002.0 mb 0.00 in0.0 mm 0.00 in0.0 mm 0.00 in0.0 mm
03:49 PM 31.5°F-0.3°C 23.9°F-4.5°C 73% 5.0 mph N8.0 kmh N 22.0 mph35.4 kmh 29.59 in1002.0 mb 0.00 in0.0 mm 0.00 in0.0 mm 0.00 in0.0 mm
03:50 PM 31.5°F-0.3°C 23.9°F-4.5°C 73% 12.0 mph NNE19.3 kmh NNE 22.0 mph35.4 kmh 29.59 in1002.0 mb 0.00 in0.0 mm 0.00 in0.0 mm 0.00 in0.0 mm
03:51 PM 31.5°F-0.3°C 23.9°F-4.5°C 73% 9.0 mph NE14.5 kmh NE 22.0 mph35.4 kmh 29.60 in1002.4 mb 0.00 in0.0 mm 0.00 in0.0 mm 0.00 in0.0 mm
03:52 PM 31.4°F-0.3°C 23.8°F-4.6°C 73% 10.0 mph N16.1 kmh N 22.0 mph35.4 kmh 29.59 in1002.0 mb 0.00 in0.0 mm 0.00 in0.0 mm 0.00 in0.0 mm
03:53 PM 31.4°F-0.3°C 23.8°F-4.6°C 73% 14.0 mph NNE22.5 kmh NNE 22.0 mph35.4 kmh 29.60 in1002.4 mb 0.00 in0.0 mm 0.00 in0.0 mm 0.00 in0.0 mm
03:54 PM 31.4°F-0.3°C 23.8°F-4.6°C 73% 10.0 mph NNE16.1 kmh NNE 22.0 mph35.4 kmh 29.60 in1002.4 mb 0.00 in0.0 mm 0.00 in0.0 mm 0.00 in0.0 mm
03:55 PM 31.4°F-0.3°C 23.8°F-4.6°C 73% 6.0 mph N9.7 kmh N 22.0 mph35.4 kmh 29.60 in1002.4 mb 0.00 in0.0 mm 0.00 in0.0 mm 0.00 in0.0 mm
03:56 PM 31.4°F-0.3°C 23.8°F-4.6°C 73% 6.0 mph NE9.7 kmh NE 22.0 mph35.4 kmh 29.60 in1002.4 mb 0.00 in0.0 mm 0.00 in0.0 mm 0.00 in0.0 mm
03:57 PM 31.4°F-0.3°C 23.8°F-4.6°C 73% 11.0 mph NE17.7 kmh NE 22.0 mph35.4 kmh 29.60 in1002.4 mb 0.00 in0.0 mm 0.00 in0.0 mm 0.00 in0.0 mm
03:58 PM 31.4°F-0.3°C 23.4°F-4.8°C 72% 9.0 mph 14.5 kmh 22.0 mph35.4 kmh 29.60 in1002.4 mb 0.00 in0.0 mm 0.00 in0.0 mm 0.00 in0.0 mm
03:59 PM 31.4°F-0.3°C 23.8°F-4.6°C 73% 8.0 mph NNE12.9 kmh NNE 22.0 mph35.4 kmh 29.60 in1002.4 mb 0.00 in0.0 mm 0.00 in0.0 mm 0.00 in0.0 mm
04:00 PM 31.4°F-0.3°C 23.8°F-4.6°C 73% 10.0 mph NE16.1 kmh NE 19.0 mph30.6 kmh 29.60 in1002.4 mb 0.00 in0.0 mm 0.00 in0.0 mm 0.00 in0.0 mm
04:01 PM 31.4°F-0.3°C 23.8°F-4.6°C 73% 12.0 mph NNE19.3 kmh NNE 19.0 mph30.6 kmh 29.60 in1002.4 mb 0.00 in0.0 mm 0.00 in0.0 mm 0.00 in0.0 mm
04:02 PM 31.4°F-0.3°C 23.8°F-4.6°C 73% 15.0 mph N24.1 kmh N 19.0 mph30.6 kmh 29.60 in1002.4 mb 0.00 in0.0 mm 0.00 in0.0 mm 0.00 in0.0 mm
04:03 PM 31.4°F-0.3°C 23.8°F-4.6°C 73% 9.0 mph N14.5 kmh N 19.0 mph30.6 kmh 29.60 in1002.4 mb 0.00 in0.0 mm 0.00 in0.0 mm 0.00 in0.0 mm
04:04 PM 31.3°F-0.4°C 23.3°F-4.8°C 72% 6.0 mph NE9.7 kmh NE 19.0 mph30.6 kmh 29.60 in1002.4 mb 0.00 in0.0 mm 0.00 in0.0 mm 0.00 in0.0 mm
04:05 PM 31.3°F-0.4°C 23.7°F-4.6°C 73% 4.0 mph NNE6.4 kmh NNE 19.0 mph30.6 kmh 29.60 in1002.4 mb 0.00 in0.0 mm 0.00 in0.0 mm 0.00 in0.0 mm
04:06 PM 31.3°F-0.4°C 23.7°F-4.6°C 73% 16.0 mph N25.7 kmh N 19.0 mph30.6 kmh 29.60 in1002.4 mb 0.00 in0.0 mm 0.00 in0.0 mm 0.00 in0.0 mm
04:07 PM 31.3°F-0.4°C 23.3°F-4.8°C 72% 13.0 mph NE20.9 kmh NE 19.0 mph30.6 kmh 29.60 in1002.4 mb 0.00 in0.0 mm 0.00 in0.0 mm 0.00 in0.0 mm
04:08 PM 31.3°F-0.4°C 23.3°F-4.8°C 72% 7.0 mph NNE11.3 kmh NNE 19.0 mph30.6 kmh 29.61 in1002.7 mb 0.00 in0.0 mm 0.00 in0.0 mm 0.00 in0.0 mm
04:09 PM 31.3°F-0.4°C 23.3°F-4.8°C 72% 4.0 mph NNE6.4 kmh NNE 19.0 mph30.6 kmh 29.61 in1002.7 mb 0.00 in0.0 mm 0.00 in0.0 mm 0.00 in0.0 mm
04:10 PM 31.3°F-0.4°C 23.7°F-4.6°C 73% 8.0 mph NNE12.9 kmh NNE 18.0 mph29.0 kmh 29.61 in1002.7 mb 0.00 in0.0 mm 0.00 in0.0 mm 0.00 in0.0 mm
04:11 PM 31.2°F-0.4°C 23.2°F-4.9°C 72% 16.0 mph NE25.7 kmh NE 18.0 mph29.0 kmh 29.61 in1002.7 mb 0.00 in0.0 mm 0.00 in0.0 mm 0.00 in0.0 mm
04:12 PM 31.3°F-0.4°C 23.3°F-4.8°C 72% 10.0 mph N16.1 kmh N 18.0 mph29.0 kmh 29.61 in1002.7 mb 0.00 in0.0 mm 0.00 in0.0 mm 0.00 in0.0 mm
04:13 PM 31.2°F-0.4°C 23.2°F-4.9°C 72% 9.0 mph N14.5 kmh N 19.0 mph30.6 kmh 29.61 in1002.7 mb 0.00 in0.0 mm 0.00 in0.0 mm 0.00 in0.0 mm
04:14 PM 31.3°F-0.4°C 23.3°F-4.8°C 72% 7.0 mph NNE11.3 kmh NNE 19.0 mph30.6 kmh 29.61 in1002.7 mb 0.00 in0.0 mm 0.00 in0.0 mm 0.00 in0.0 mm
04:15 PM 31.2°F-0.4°C 23.2°F-4.9°C 72% 9.0 mph N14.5 kmh N 19.0 mph30.6 kmh 29.61 in1002.7 mb 0.00 in0.0 mm 0.00 in0.0 mm 0.00 in0.0 mm
04:16 PM 31.3°F-0.4°C 23.3°F-4.8°C 72% 13.0 mph N20.9 kmh N 19.0 mph30.6 kmh 29.61 in1002.7 mb 0.00 in0.0 mm 0.00 in0.0 mm 0.00 in0.0 mm
04:17 PM 31.2°F-0.4°C 23.2°F-4.9°C 72% 5.0 mph NE8.0 kmh NE 19.0 mph30.6 kmh 29.61 in1002.7 mb 0.00 in0.0 mm 0.00 in0.0 mm 0.00 in0.0 mm
04:18 PM 31.2°F-0.4°C 23.2°F-4.9°C 72% 5.0 mph NE8.0 kmh NE 19.0 mph30.6 kmh 29.61 in1002.7 mb 0.00 in0.0 mm 0.00 in0.0 mm 0.00 in0.0 mm
04:19 PM 31.2°F-0.4°C 23.2°F-4.9°C 72% 8.0 mph NE12.9 kmh NE 19.0 mph30.6 kmh 29.61 in1002.7 mb 0.00 in0.0 mm 0.00 in0.0 mm 0.00 in0.0 mm
04:20 PM 31.2°F-0.4°C 23.6°F-4.7°C 73% 13.0 mph N20.9 kmh N 19.0 mph30.6 kmh 29.61 in1002.7 mb 0.00 in0.0 mm 0.00 in0.0 mm 0.00 in0.0 mm
04:21 PM 31.2°F-0.4°C 23.2°F-4.9°C 72% 9.0 mph NNE14.5 kmh NNE 19.0 mph30.6 kmh 29.61 in1002.7 mb 0.00 in0.0 mm 0.00 in0.0 mm 0.00 in0.0 mm
04:22 PM 31.2°F-0.4°C 23.2°F-4.9°C 72% 10.0 mph ENE16.1 kmh ENE 19.0 mph30.6 kmh 29.61 in1002.7 mb 0.00 in0.0 mm 0.00 in0.0 mm 0.00 in0.0 mm
04:23 PM 31.2°F-0.4°C 23.6°F-4.7°C 73% 10.0 mph NNE16.1 kmh NNE 19.0 mph30.6 kmh 29.61 in1002.7 mb 0.00 in0.0 mm 0.00 in0.0 mm 0.00 in0.0 mm
04:24 PM 31.2°F-0.4°C 23.6°F-4.7°C 73% 10.0 mph 16.1 kmh 19.0 mph30.6 kmh 29.61 in1002.7 mb 0.00 in0.0 mm 0.00 in0.0 mm 0.00 in0.0 mm
04:25 PM 31.2°F-0.4°C 23.2°F-4.9°C 72% 7.0 mph NE11.3 kmh NE 19.0 mph30.6 kmh 29.61 in1002.7 mb 0.00 in0.0 mm 0.00 in0.0 mm 0.00 in0.0 mm
04:26 PM 31.2°F-0.4°C 23.2°F-4.9°C 72% 11.0 mph NE17.7 kmh NE 19.0 mph30.6 kmh 29.61 in1002.7 mb 0.00 in0.0 mm 0.00 in0.0 mm 0.00 in0.0 mm
04:27 PM 31.1°F-0.5°C 23.5°F-4.7°C 73% 8.0 mph NE12.9 kmh NE 19.0 mph30.6 kmh 29.60 in1002.4 mb 0.00 in0.0 mm 0.00 in0.0 mm 0.00 in0.0 mm
04:28 PM 31.1°F-0.5°C 23.5°F-4.7°C 73% 8.0 mph NE12.9 kmh NE 19.0 mph30.6 kmh 29.61 in1002.7 mb 0.00 in0.0 mm 0.00 in0.0 mm 0.00 in0.0 mm
04:29 PM 31.1°F-0.5°C 23.5°F-4.7°C 73% 6.0 mph N9.7 kmh N 19.0 mph30.6 kmh 29.61 in1002.7 mb 0.00 in0.0 mm 0.00 in0.0 mm 0.00 in0.0 mm
04:30 PM 31.1°F-0.5°C 23.5°F-4.7°C 73% 7.0 mph NNE11.3 kmh NNE 19.0 mph30.6 kmh 29.61 in1002.7 mb 0.00 in0.0 mm 0.00 in0.0 mm 0.00 in0.0 mm
04:31 PM 31.0°F-0.6°C 23.4°F-4.8°C 73% 6.0 mph N9.7 kmh N 19.0 mph30.6 kmh 29.61 in1002.7 mb 0.00 in0.0 mm 0.00 in0.0 mm 0.00 in0.0 mm
04:32 PM 31.0°F-0.6°C 23.4°F-4.8°C 73% 7.0 mph NE11.3 kmh NE 19.0 mph30.6 kmh 29.61 in1002.7 mb 0.00 in0.0 mm 0.00 in0.0 mm 0.00 in0.0 mm
04:33 PM 31.0°F-0.6°C 23.4°F-4.8°C 73% 5.0 mph N8.0 kmh N 17.0 mph27.4 kmh 29.61 in1002.7 mb 0.00 in0.0 mm 0.00 in0.0 mm 0.00 in0.0 mm
04:34 PM 31.0°F-0.6°C 23.4°F-4.8°C 73% 11.0 mph N17.7 kmh N 18.0 mph29.0 kmh 29.61 in1002.7 mb 0.00 in0.0 mm 0.00 in0.0 mm 0.00 in0.0 mm
04:35 PM 31.0°F-0.6°C 23.4°F-4.8°C 73% 8.0 mph NE12.9 kmh NE 18.0 mph29.0 kmh 29.61 in1002.7 mb 0.00 in0.0 mm 0.00 in0.0 mm 0.00 in0.0 mm
04:36 PM 31.0°F-0.6°C 23.4°F-4.8°C 73% 7.0 mph NNW11.3 kmh NNW 18.0 mph29.0 kmh 29.61 in1002.7 mb 0.00 in0.0 mm 0.00 in0.0 mm 0.00 in0.0 mm
04:37 PM 31.0°F-0.6°C 23.1°F-4.9°C 72% 12.0 mph NNE19.3 kmh NNE 21.0 mph33.8 kmh 29.61 in1002.7 mb 0.00 in0.0 mm 0.00 in0.0 mm 0.00 in0.0 mm
04:38 PM 31.0°F-0.6°C 23.1°F-4.9°C 72% 8.0 mph N12.9 kmh N 21.0 mph33.8 kmh 29.61 in1002.7 mb 0.00 in0.0 mm 0.00 in0.0 mm 0.00 in0.0 mm
04:39 PM 31.0°F-0.6°C 23.4°F-4.8°C 73% 8.0 mph N12.9 kmh N 21.0 mph33.8 kmh 29.61 in1002.7 mb 0.00 in0.0 mm 0.00 in0.0 mm 0.00 in0.0 mm
04:40 PM 31.0°F-0.6°C 23.4°F-4.8°C 73% 8.0 mph NE12.9 kmh NE 21.0 mph33.8 kmh 29.62 in1003.0 mb 0.00 in0.0 mm 0.00 in0.0 mm 0.00 in0.0 mm
04:41 PM 31.0°F-0.6°C 23.4°F-4.8°C 73% 8.0 mph NE12.9 kmh NE 21.0 mph33.8 kmh 29.62 in1003.0 mb 0.00 in0.0 mm 0.00 in0.0 mm 0.00 in0.0 mm
04:42 PM 31.0°F-0.6°C 23.4°F-4.8°C 73% 6.0 mph N9.7 kmh N 21.0 mph33.8 kmh 29.62 in1003.0 mb 0.00 in0.0 mm 0.00 in0.0 mm 0.00 in0.0 mm
04:43 PM 31.0°F-0.6°C 23.1°F-4.9°C 72% 6.0 mph NE9.7 kmh NE 21.0 mph33.8 kmh 29.61 in1002.7 mb 0.00 in0.0 mm 0.00 in0.0 mm 0.00 in0.0 mm
04:44 PM 31.0°F-0.6°C 23.1°F-4.9°C 72% 6.0 mph NNE9.7 kmh NNE 21.0 mph33.8 kmh 29.62 in1003.0 mb 0.00 in0.0 mm 0.00 in0.0 mm 0.00 in0.0 mm
04:45 PM 31.0°F-0.6°C 23.1°F-4.9°C 72% 6.0 mph NE9.7 kmh NE 21.0 mph33.8 kmh 29.62 in1003.0 mb 0.00 in0.0 mm 0.00 in0.0 mm 0.00 in0.0 mm
04:46 PM 31.0°F-0.6°C 23.1°F-4.9°C 72% 9.0 mph ENE14.5 kmh ENE 21.0 mph33.8 kmh 29.62 in1003.0 mb 0.00 in0.0 mm 0.00 in0.0 mm 0.00 in0.0 mm
04:47 PM 31.0°F-0.6°C 23.1°F-4.9°C 72% 10.0 mph N16.1 kmh N 21.0 mph33.8 kmh 29.62 in1003.0 mb 0.00 in0.0 mm 0.00 in0.0 mm 0.00 in0.0 mm
04:48 PM 31.0°F-0.6°C 23.1°F-4.9°C 72% 9.0 mph N14.5 kmh N 21.0 mph33.8 kmh 29.62 in1003.0 mb 0.00 in0.0 mm 0.00 in0.0 mm 0.00 in0.0 mm
04:49 PM 31.0°F-0.6°C 23.1°F-4.9°C 72% 8.0 mph NNE12.9 kmh NNE 21.0 mph33.8 kmh 29.62 in1003.0 mb 0.00 in0.0 mm 0.00 in0.0 mm 0.00 in0.0 mm
04:50 PM 31.0°F-0.6°C 23.1°F-4.9°C 72% 9.0 mph NE14.5 kmh NE 21.0 mph33.8 kmh 29.61 in1002.7 mb 0.00 in0.0 mm 0.00 in0.0 mm 0.00 in0.0 mm
04:51 PM 30.9°F-0.6°C 23.0°F-5.0°C 72% 7.0 mph NE11.3 kmh NE 21.0 mph33.8 kmh 29.62 in1003.0 mb 0.00 in0.0 mm 0.00 in0.0 mm 0.00 in0.0 mm
04:52 PM 31.0°F-0.6°C 23.1°F-4.9°C 72% 7.0 mph N11.3 kmh N 21.0 mph33.8 kmh 29.62 in1003.0 mb 0.00 in0.0 mm 0.00 in0.0 mm 0.00 in0.0 mm
04:53 PM 30.9°F-0.6°C 23.0°F-5.0°C 72% 9.0 mph N14.5 kmh N 21.0 mph33.8 kmh 29.62 in1003.0 mb 0.00 in0.0 mm 0.00 in0.0 mm 0.00 in0.0 mm
04:54 PM 30.9°F-0.6°C 23.0°F-5.0°C 72% 10.0 mph NE16.1 kmh NE 21.0 mph33.8 kmh 29.62 in1003.0 mb 0.00 in0.0 mm 0.00 in0.0 mm 0.00 in0.0 mm
04:55 PM 31.0°F-0.6°C 23.1°F-4.9°C 72% 6.0 mph NE9.7 kmh NE 21.0 mph33.8 kmh 29.62 in1003.0 mb 0.00 in0.0 mm 0.00 in0.0 mm 0.00 in0.0 mm
04:56 PM 30.9°F-0.6°C 23.0°F-5.0°C 72% 12.0 mph NNE19.3 kmh NNE 21.0 mph33.8 kmh 29.62 in1003.0 mb 0.00 in0.0 mm 0.00 in0.0 mm 0.00 in0.0 mm
04:57 PM 30.9°F-0.6°C 23.0°F-5.0°C 72% 11.0 mph N17.7 kmh N 19.0 mph30.6 kmh 29.62 in1003.0 mb 0.00 in0.0 mm 0.00 in0.0 mm 0.00 in0.0 mm
04:58 PM 30.9°F-0.6°C 23.0°F-5.0°C 72% 9.0 mph NE14.5 kmh NE 19.0 mph30.6 kmh 29.62 in1003.0 mb 0.00 in0.0 mm 0.00 in0.0 mm 0.00 in0.0 mm
04:59 PM 30.9°F-0.6°C 23.0°F-5.0°C 72% 12.0 mph N19.3 kmh N 19.0 mph30.6 kmh 29.62 in1003.0 mb 0.00 in0.0 mm 0.00 in0.0 mm 0.00 in0.0 mm
05:00 PM 30.9°F-0.6°C 23.0°F-5.0°C 72% 7.0 mph NNE11.3 kmh NNE 19.0 mph30.6 kmh 29.62 in1003.0 mb 0.00 in0.0 mm 0.00 in0.0 mm 0.00 in0.0 mm
05:01 PM 30.9°F-0.6°C 23.0°F-5.0°C 72% 13.0 mph NNE20.9 kmh NNE 19.0 mph30.6 kmh 29.62 in1003.0 mb 0.00 in0.0 mm 0.00 in0.0 mm 0.00 in0.0 mm
05:02 PM 30.8°F-0.7°C 22.9°F-5.1°C 72% 10.0 mph NE16.1 kmh NE 19.0 mph30.6 kmh 29.62 in1003.0 mb 0.00 in0.0 mm 0.00 in0.0 mm 0.00 in0.0 mm
05:03 PM 30.8°F-0.7°C 22.9°F-5.1°C 72% 9.0 mph NE14.5 kmh NE 19.0 mph30.6 kmh 29.62 in1003.0 mb 0.00 in0.0 mm 0.00 in0.0 mm 0.00 in0.0 mm
05:04 PM 30.8°F-0.7°C 22.9°F-5.1°C 72% 15.0 mph NNE24.1 kmh NNE 19.0 mph30.6 kmh 29.62 in1003.0 mb 0.00 in0.0 mm 0.00 in0.0 mm 0.00 in0.0 mm
05:05 PM 30.8°F-0.7°C 22.9°F-5.1°C 72% 15.0 mph NNE24.1 kmh NNE 19.0 mph30.6 kmh 29.62 in1003.0 mb 0.00 in0.0 mm 0.00 in0.0 mm 0.00 in0.0 mm
05:06 PM 30.8°F-0.7°C 22.9°F-5.1°C 72% 12.0 mph NNE19.3 kmh NNE 19.0 mph30.6 kmh 29.62 in1003.0 mb 0.00 in0.0 mm 0.00 in0.0 mm 0.00 in0.0 mm
05:07 PM 30.8°F-0.7°C 22.9°F-5.1°C 72% 14.0 mph NNE22.5 kmh NNE 19.0 mph30.6 kmh 29.62 in1003.0 mb 0.00 in0.0 mm 0.00 in0.0 mm 0.00 in0.0 mm
05:08 PM 30.8°F-0.7°C 22.9°F-5.1°C 72% 10.0 mph NNE16.1 kmh NNE 19.0 mph30.6 kmh 29.62 in1003.0 mb 0.00 in0.0 mm 0.00 in0.0 mm 0.00 in0.0 mm
05:09 PM 30.8°F-0.7°C 22.9°F-5.1°C 72% 10.0 mph NNE16.1 kmh NNE 19.0 mph30.6 kmh 29.62 in1003.0 mb 0.00 in0.0 mm 0.00 in0.0 mm 0.00 in0.0 mm
05:10 PM 30.8°F-0.7°C 22.9°F-5.1°C 72% 12.0 mph N19.3 kmh N 19.0 mph30.6 kmh 29.63 in1003.4 mb 0.00 in0.0 mm 0.00 in0.0 mm 0.00 in0.0 mm
05:11 PM 30.8°F-0.7°C 22.9°F-5.1°C 72% 9.0 mph NE14.5 kmh NE 19.0 mph30.6 kmh 29.63 in1003.4 mb 0.00 in0.0 mm 0.00 in0.0 mm 0.00 in0.0 mm
05:12 PM 30.8°F-0.7°C 22.9°F-5.1°C 72% 7.0 mph N11.3 kmh N 19.0 mph30.6 kmh 29.63 in1003.4 mb 0.00 in0.0 mm 0.00 in0.0 mm 0.00 in0.0 mm
05:13 PM 30.7°F-0.7°C 22.8°F-5.1°C 72% 3.0 mph ENE4.8 kmh ENE 19.0 mph30.6 kmh 29.63 in1003.4 mb 0.00 in0.0 mm 0.00 in0.0 mm 0.00 in0.0 mm
05:14 PM 30.7°F-0.7°C 23.1°F-4.9°C 73% 9.0 mph NNE14.5 kmh NNE 19.0 mph30.6 kmh 29.63 in1003.4 mb 0.00 in0.0 mm 0.00 in0.0 mm 0.00 in0.0 mm
05:15 PM 30.7°F-0.7°C 22.8°F-5.1°C 72% 7.0 mph NE11.3 kmh NE 19.0 mph30.6 kmh 29.63 in1003.4 mb 0.00 in0.0 mm 0.00 in0.0 mm 0.00 in0.0 mm
05:16 PM 30.7°F-0.7°C 22.8°F-5.1°C 72% 12.0 mph ENE19.3 kmh ENE 19.0 mph30.6 kmh 29.63 in1003.4 mb 0.00 in0.0 mm 0.00 in0.0 mm 0.00 in0.0 mm
05:17 PM 30.7°F-0.7°C 22.8°F-5.1°C 72% 10.0 mph NE16.1 kmh NE 16.0 mph25.7 kmh 29.63 in1003.4 mb 0.00 in0.0 mm 0.00 in0.0 mm 0.00 in0.0 mm
05:18 PM 30.7°F-0.7°C 22.8°F-5.1°C 72% 7.0 mph 11.3 kmh 16.0 mph25.7 kmh 29.63 in1003.4 mb 0.00 in0.0 mm 0.00 in0.0 mm 0.00 in0.0 mm
05:19 PM 30.6°F-0.8°C 22.7°F-5.2°C 72% 9.0 mph N14.5 kmh N 16.0 mph25.7 kmh 29.64 in1003.7 mb 0.00 in0.0 mm 0.00 in0.0 mm 0.00 in0.0 mm
05:20 PM 30.6°F-0.8°C 22.7°F-5.2°C 72% 6.0 mph NNE9.7 kmh NNE 17.0 mph27.4 kmh 29.63 in1003.4 mb 0.00 in0.0 mm 0.00 in0.0 mm 0.00 in0.0 mm
05:21 PM 30.6°F-0.8°C 22.7°F-5.2°C 72% 7.0 mph NE11.3 kmh NE 17.0 mph27.4 kmh 29.63 in1003.4 mb 0.00 in0.0 mm 0.00 in0.0 mm 0.00 in0.0 mm
05:22 PM 30.6°F-0.8°C 22.7°F-5.2°C 72% 12.0 mph NE19.3 kmh NE 23.0 mph37.0 kmh 29.64 in1003.7 mb 0.00 in0.0 mm 0.00 in0.0 mm 0.00 in0.0 mm
05:23 PM 30.6°F-0.8°C 22.7°F-5.2°C 72% 7.0 mph NE11.3 kmh NE 23.0 mph37.0 kmh 29.63 in1003.4 mb 0.00 in0.0 mm 0.00 in0.0 mm 0.00 in0.0 mm
05:24 PM 30.6°F-0.8°C 22.7°F-5.2°C 72% 7.0 mph N11.3 kmh N 23.0 mph37.0 kmh 29.64 in1003.7 mb 0.00 in0.0 mm 0.00 in0.0 mm 0.00 in0.0 mm
05:25 PM 30.6°F-0.8°C 22.7°F-5.2°C 72% 6.0 mph NE9.7 kmh NE 23.0 mph37.0 kmh 29.64 in1003.7 mb 0.00 in0.0 mm 0.00 in0.0 mm 0.00 in0.0 mm
05:26 PM 30.6°F-0.8°C 22.7°F-5.2°C 72% 9.0 mph NE14.5 kmh NE 23.0 mph37.0 kmh 29.64 in1003.7 mb 0.00 in0.0 mm 0.00 in0.0 mm 0.00 in0.0 mm
05:27 PM 30.6°F-0.8°C 22.7°F-5.2°C 72% 5.0 mph NE8.0 kmh NE 23.0 mph37.0 kmh 29.64 in1003.7 mb 0.00 in0.0 mm 0.00 in0.0 mm 0.00 in0.0 mm
05:28 PM 30.6°F-0.8°C 22.7°F-5.2°C 72% 16.0 mph NNE25.7 kmh NNE 23.0 mph37.0 kmh 29.64 in1003.7 mb 0.00 in0.0 mm 0.00 in0.0 mm 0.00 in0.0 mm
05:29 PM 30.7°F-0.7°C 22.8°F-5.1°C 72% 17.0 mph N27.4 kmh N 23.0 mph37.0 kmh 29.64 in1003.7 mb 0.00 in0.0 mm 0.00 in0.0 mm 0.00 in0.0 mm
05:30 PM 30.7°F-0.7°C 22.8°F-5.1°C 72% 7.0 mph NE11.3 kmh NE 23.0 mph37.0 kmh 29.64 in1003.7 mb 0.00 in0.0 mm 0.00 in0.0 mm 0.00 in0.0 mm
05:31 PM 30.7°F-0.7°C 22.8°F-5.1°C 72% 9.0 mph N14.5 kmh N 23.0 mph37.0 kmh 29.64 in1003.7 mb 0.00 in0.0 mm 0.00 in0.0 mm 0.00 in0.0 mm
05:32 PM 30.7°F-0.7°C 22.8°F-5.1°C 72% 3.0 mph NNE4.8 kmh NNE 23.0 mph37.0 kmh 29.64 in1003.7 mb 0.00 in0.0 mm 0.00 in0.0 mm 0.00 in0.0 mm
05:33 PM 30.6°F-0.8°C 22.7°F-5.2°C 72% 7.0 mph NE11.3 kmh NE 23.0 mph37.0 kmh 29.64 in1003.7 mb 0.00 in0.0 mm 0.00 in0.0 mm 0.00 in0.0 mm
05:34 PM 30.6°F-0.8°C 22.7°F-5.2°C 72% 18.0 mph NNE29.0 kmh NNE 23.0 mph37.0 kmh 29.64 in1003.7 mb 0.00 in0.0 mm 0.00 in0.0 mm 0.00 in0.0 mm
05:35 PM 30.6°F-0.8°C 22.7°F-5.2°C 72% 16.0 mph NNE25.7 kmh NNE 23.0 mph37.0 kmh 29.64 in1003.7 mb 0.00 in0.0 mm 0.00 in0.0 mm 0.00 in0.0 mm
05:36 PM 30.7°F-0.7°C 22.8°F-5.1°C 72% 13.0 mph N20.9 kmh N 23.0 mph37.0 kmh 29.64 in1003.7 mb 0.00 in0.0 mm 0.00 in0.0 mm 0.00 in0.0 mm
05:37 PM 30.7°F-0.7°C 22.8°F-5.1°C 72% 13.0 mph N20.9 kmh N 23.0 mph37.0 kmh 29.64 in1003.7 mb 0.00 in0.0 mm 0.00 in0.0 mm 0.00 in0.0 mm
05:38 PM 30.6°F-0.8°C 22.7°F-5.2°C 72% 7.0 mph NNE11.3 kmh NNE 23.0 mph37.0 kmh 29.64 in1003.7 mb 0.00 in0.0 mm 0.00 in0.0 mm 0.00 in0.0 mm
05:39 PM 30.6°F-0.8°C 22.7°F-5.2°C 72% 10.0 mph N16.1 kmh N 23.0 mph37.0 kmh 29.64 in1003.7 mb 0.00 in0.0 mm 0.00 in0.0 mm 0.00 in0.0 mm
05:40 PM 30.6°F-0.8°C 22.7°F-5.2°C 72% 10.0 mph NE16.1 kmh NE 23.0 mph37.0 kmh 29.64 in1003.7 mb 0.00 in0.0 mm 0.00 in0.0 mm 0.00 in0.0 mm
05:41 PM 30.6°F-0.8°C 22.7°F-5.2°C 72% 5.0 mph NE8.0 kmh NE 23.0 mph37.0 kmh 29.64 in1003.7 mb 0.00 in0.0 mm 0.00 in0.0 mm 0.00 in0.0 mm
05:42 PM 30.6°F-0.8°C 22.7°F-5.2°C 72% 9.0 mph ENE14.5 kmh ENE 18.0 mph29.0 kmh 29.64 in1003.7 mb 0.00 in0.0 mm 0.00 in0.0 mm 0.00 in0.0 mm
05:43 PM 30.6°F-0.8°C 22.7°F-5.2°C 72% 14.0 mph NNE22.5 kmh NNE 18.0 mph29.0 kmh 29.64 in1003.7 mb 0.00 in0.0 mm 0.00 in0.0 mm 0.00 in0.0 mm
05:44 PM 30.6°F-0.8°C 22.7°F-5.2°C 72% 13.0 mph NE20.9 kmh NE 18.0 mph29.0 kmh 29.64 in1003.7 mb 0.00 in0.0 mm 0.00 in0.0 mm 0.00 in0.0 mm
05:45 PM 30.7°F-0.7°C 22.8°F-5.1°C 72% 4.0 mph NNE6.4 kmh NNE 18.0 mph29.0 kmh 29.64 in1003.7 mb 0.00 in0.0 mm 0.00 in0.0 mm 0.00 in0.0 mm
05:46 PM 30.6°F-0.8°C 22.7°F-5.2°C 72% 19.0 mph NE30.6 kmh NE 19.0 mph30.6 kmh 29.64 in1003.7 mb 0.00 in0.0 mm 0.00 in0.0 mm 0.00 in0.0 mm
05:47 PM 30.6°F-0.8°C 22.7°F-5.2°C 72% 8.0 mph NE12.9 kmh NE 19.0 mph30.6 kmh 29.64 in1003.7 mb 0.00 in0.0 mm 0.00 in0.0 mm 0.00 in0.0 mm
05:48 PM 30.6°F-0.8°C 22.7°F-5.2°C 72% 9.0 mph NNE14.5 kmh NNE 19.0 mph30.6 kmh 29.64 in1003.7 mb 0.00 in0.0 mm 0.00 in0.0 mm 0.00 in0.0 mm
05:49 PM 30.6°F-0.8°C 22.7°F-5.2°C 72% 10.0 mph NE16.1 kmh NE 19.0 mph30.6 kmh 29.64 in1003.7 mb 0.00 in0.0 mm 0.00 in0.0 mm 0.00 in0.0 mm
05:50 PM 30.6°F-0.8°C 22.7°F-5.2°C 72% 7.0 mph NNE11.3 kmh NNE 19.0 mph30.6 kmh 29.64 in1003.7 mb 0.00 in0.0 mm 0.00 in0.0 mm 0.00 in0.0 mm
05:51 PM 30.6°F-0.8°C 22.7°F-5.2°C 72% 10.0 mph NE16.1 kmh NE 19.0 mph30.6 kmh 29.64 in1003.7 mb 0.00 in0.0 mm 0.00 in0.0 mm 0.00 in0.0 mm
05:52 PM 30.6°F-0.8°C 22.7°F-5.2°C 72% 7.0 mph N11.3 kmh N 19.0 mph30.6 kmh 29.64 in1003.7 mb 0.00 in0.0 mm 0.00 in0.0 mm 0.00 in0.0 mm
05:53 PM 30.6°F-0.8°C 22.7°F-5.2°C 72% 11.0 mph NNE17.7 kmh NNE 19.0 mph30.6 kmh 29.64 in1003.7 mb 0.00 in0.0 mm 0.00 in0.0 mm 0.00 in0.0 mm
05:54 PM 30.6°F-0.8°C 22.7°F-5.2°C 72% 9.0 mph NNE14.5 kmh NNE 19.0 mph30.6 kmh 29.64 in1003.7 mb 0.00 in0.0 mm 0.00 in0.0 mm 0.00 in0.0 mm
05:55 PM 30.6°F-0.8°C 22.7°F-5.2°C 72% 10.0 mph N16.1 kmh N 19.0 mph30.6 kmh 29.65 in1004.1 mb 0.00 in0.0 mm 0.00 in0.0 mm 0.00 in0.0 mm
05:56 PM 30.6°F-0.8°C 22.7°F-5.2°C 72% 5.0 mph NE8.0 kmh NE 19.0 mph30.6 kmh 29.64 in1003.7 mb 0.00 in0.0 mm 0.00 in0.0 mm 0.00 in0.0 mm
05:57 PM 30.6°F-0.8°C 22.7°F-5.2°C 72% 9.0 mph NNE14.5 kmh NNE 19.0 mph30.6 kmh 29.64 in1003.7 mb 0.00 in0.0 mm 0.00 in0.0 mm 0.00 in0.0 mm
05:58 PM 30.6°F-0.8°C 22.7°F-5.2°C 72% 13.0 mph N20.9 kmh N 19.0 mph30.6 kmh 29.64 in1003.7 mb 0.00 in0.0 mm 0.00 in0.0 mm 0.00 in0.0 mm
05:59 PM 30.6°F-0.8°C 22.7°F-5.2°C 72% 12.0 mph N19.3 kmh N 19.0 mph30.6 kmh 29.65 in1004.1 mb 0.00 in0.0 mm 0.00 in0.0 mm 0.00 in0.0 mm
06:00 PM 30.6°F-0.8°C 22.7°F-5.2°C 72% 10.0 mph NNE16.1 kmh NNE 19.0 mph30.6 kmh 29.65 in1004.1 mb 0.00 in0.0 mm 0.00 in0.0 mm 0.00 in0.0 mm
06:01 PM 30.6°F-0.8°C 22.7°F-5.2°C 72% 11.0 mph NNE17.7 kmh NNE 19.0 mph30.6 kmh 29.65 in1004.1 mb 0.00 in0.0 mm 0.00 in0.0 mm 0.00 in0.0 mm
06:02 PM 30.6°F-0.8°C 22.7°F-5.2°C 72% 3.0 mph N4.8 kmh N 19.0 mph30.6 kmh 29.65 in1004.1 mb 0.00 in0.0 mm 0.00 in0.0 mm 0.00 in0.0 mm
06:03 PM 30.5°F-0.8°C 22.6°F-5.2°C 72% 11.0 mph N17.7 kmh N 19.0 mph30.6 kmh 29.65 in1004.1 mb 0.00 in0.0 mm 0.00 in0.0 mm 0.00 in0.0 mm
06:04 PM 30.5°F-0.8°C 22.6°F-5.2°C 72% 9.0 mph NNE14.5 kmh NNE 19.0 mph30.6 kmh 29.65 in1004.1 mb 0.00 in0.0 mm 0.00 in0.0 mm 0.00 in0.0 mm
06:05 PM 30.5°F-0.8°C 22.6°F-5.2°C 72% 7.0 mph NNE11.3 kmh NNE 19.0 mph30.6 kmh 29.65 in1004.1 mb 0.00 in0.0 mm 0.00 in0.0 mm 0.00 in0.0 mm
06:06 PM 30.5°F-0.8°C 22.6°F-5.2°C 72% 11.0 mph NE17.7 kmh NE 19.0 mph30.6 kmh 29.65 in1004.1 mb 0.00 in0.0 mm 0.00 in0.0 mm 0.00 in0.0 mm
06:07 PM 30.5°F-0.8°C 22.6°F-5.2°C 72% 15.0 mph NE24.1 kmh NE 20.0 mph32.2 kmh 29.65 in1004.1 mb 0.00 in0.0 mm 0.00 in0.0 mm 0.00 in0.0 mm
06:08 PM 30.6°F-0.8°C 22.7°F-5.2°C 72% 7.0 mph NE11.3 kmh NE 20.0 mph32.2 kmh 29.65 in1004.1 mb 0.00 in0.0 mm 0.00 in0.0 mm 0.00 in0.0 mm
06:09 PM 30.6°F-0.8°C 22.7°F-5.2°C 72% 7.0 mph NE11.3 kmh NE 20.0 mph32.2 kmh 29.65 in1004.1 mb 0.00 in0.0 mm 0.00 in0.0 mm 0.00 in0.0 mm
06:10 PM 30.6°F-0.8°C 22.7°F-5.2°C 72% 16.0 mph NNE25.7 kmh NNE 20.0 mph32.2 kmh 29.65 in1004.1 mb 0.00 in0.0 mm 0.00 in0.0 mm 0.00 in0.0 mm
06:11 PM 30.6°F-0.8°C 22.7°F-5.2°C 72% 15.0 mph E24.1 kmh E 20.0 mph32.2 kmh 29.65 in1004.1 mb 0.00 in0.0 mm 0.00 in0.0 mm 0.00 in0.0 mm
06:12 PM 30.6°F-0.8°C 22.7°F-5.2°C 72% 13.0 mph N20.9 kmh N 20.0 mph32.2 kmh 29.66 in1004.4 mb 0.00 in0.0 mm 0.00 in0.0 mm 0.00 in0.0 mm
06:13 PM 30.6°F-0.8°C 23.0°F-5.0°C 73% 11.0 mph ENE17.7 kmh ENE 20.0 mph32.2 kmh 29.66 in1004.4 mb 0.00 in0.0 mm 0.00 in0.0 mm 0.00 in0.0 mm
06:14 PM 30.5°F-0.8°C 22.6°F-5.2°C 72% 14.0 mph NE22.5 kmh NE 20.0 mph32.2 kmh 29.66 in1004.4 mb 0.00 in0.0 mm 0.00 in0.0 mm 0.00 in0.0 mm
06:15 PM 30.5°F-0.8°C 22.9°F-5.1°C 73% 15.0 mph NE24.1 kmh NE 20.0 mph32.2 kmh 29.65 in1004.1 mb 0.00 in0.0 mm 0.00 in0.0 mm 0.00 in0.0 mm
06:16 PM 30.5°F-0.8°C 22.9°F-5.1°C 73% 12.0 mph NNE19.3 kmh NNE 20.0 mph32.2 kmh 29.66 in1004.4 mb 0.00 in0.0 mm 0.00 in0.0 mm 0.00 in0.0 mm
06:17 PM 30.5°F-0.8°C 22.9°F-5.1°C 73% 12.0 mph NE19.3 kmh NE 20.0 mph32.2 kmh 29.66 in1004.4 mb 0.00 in0.0 mm 0.00 in0.0 mm 0.00 in0.0 mm
06:18 PM 30.5°F-0.8°C 22.9°F-5.1°C 73% 10.0 mph NNE16.1 kmh NNE 20.0 mph32.2 kmh 29.66 in1004.4 mb 0.00 in0.0 mm 0.00 in0.0 mm 0.00 in0.0 mm
06:19 PM 30.5°F-0.8°C 22.9°F-5.1°C 73% 7.0 mph N11.3 kmh N 20.0 mph32.2 kmh 29.66 in1004.4 mb 0.00 in0.0 mm 0.00 in0.0 mm 0.00 in0.0 mm
06:20 PM 30.5°F-0.8°C 22.9°F-5.1°C 73% 3.0 mph N4.8 kmh N 20.0 mph32.2 kmh 29.66 in1004.4 mb 0.00 in0.0 mm 0.00 in0.0 mm 0.00 in0.0 mm
06:21 PM 30.5°F-0.8°C 22.9°F-5.1°C 73% 5.0 mph N8.0 kmh N 20.0 mph32.2 kmh 29.66 in1004.4 mb 0.00 in0.0 mm 0.00 in0.0 mm 0.00 in0.0 mm
06:22 PM 30.5°F-0.8°C 22.9°F-5.1°C 73% 5.0 mph NE8.0 kmh NE 20.0 mph32.2 kmh 29.66 in1004.4 mb 0.00 in0.0 mm 0.00 in0.0 mm 0.00 in0.0 mm
06:23 PM 30.4°F-0.9°C 22.8°F-5.1°C 73% 10.0 mph NE16.1 kmh NE 20.0 mph32.2 kmh 29.66 in1004.4 mb 0.00 in0.0 mm 0.00 in0.0 mm 0.00 in0.0 mm
06:24 PM 30.4°F-0.9°C 22.8°F-5.1°C 73% 8.0 mph NNE12.9 kmh NNE 20.0 mph32.2 kmh 29.66 in1004.4 mb 0.00 in0.0 mm 0.00 in0.0 mm 0.00 in0.0 mm
06:25 PM 30.4°F-0.9°C 22.8°F-5.1°C 73% 5.0 mph NNE8.0 kmh NNE 20.0 mph32.2 kmh 29.66 in1004.4 mb 0.00 in0.0 mm 0.00 in0.0 mm 0.00 in0.0 mm
06:26 PM 30.4°F-0.9°C 22.8°F-5.1°C 73% 9.0 mph NE14.5 kmh NE 20.0 mph32.2 kmh 29.66 in1004.4 mb 0.00 in0.0 mm 0.00 in0.0 mm 0.00 in0.0 mm
06:27 PM 30.4°F-0.9°C 22.8°F-5.1°C 73% 6.0 mph N9.7 kmh N 18.0 mph29.0 kmh 29.66 in1004.4 mb 0.00 in0.0 mm 0.00 in0.0 mm 0.00 in0.0 mm
06:28 PM 30.4°F-0.9°C 23.1°F-4.9°C 74% 6.0 mph 9.7 kmh 18.0 mph29.0 kmh 29.66 in1004.4 mb 0.00 in0.0 mm 0.00 in0.0 mm 0.00 in0.0 mm
06:29 PM 30.4°F-0.9°C 23.1°F-4.9°C 74% 10.0 mph NE16.1 kmh NE 18.0 mph29.0 kmh 29.66 in1004.4 mb 0.00 in0.0 mm 0.00 in0.0 mm 0.00 in0.0 mm
06:30 PM 30.4°F-0.9°C 22.8°F-5.1°C 73% 10.0 mph NE16.1 kmh NE 18.0 mph29.0 kmh 29.66 in1004.4 mb 0.00 in0.0 mm 0.00 in0.0 mm 0.00 in0.0 mm
06:31 PM 30.4°F-0.9°C 22.8°F-5.1°C 73% 7.0 mph NE11.3 kmh NE 18.0 mph29.0 kmh 29.66 in1004.4 mb 0.00 in0.0 mm 0.00 in0.0 mm 0.00 in0.0 mm
06:32 PM 30.4°F-0.9°C 23.1°F-4.9°C 74% 14.0 mph N22.5 kmh N 18.0 mph29.0 kmh 29.66 in1004.4 mb 0.00 in0.0 mm 0.00 in0.0 mm 0.00 in0.0 mm
06:33 PM 30.3°F-0.9°C 22.7°F-5.2°C 73% 10.0 mph NE16.1 kmh NE 18.0 mph29.0 kmh 29.66 in1004.4 mb 0.00 in0.0 mm 0.00 in0.0 mm 0.00 in0.0 mm
06:34 PM 30.3°F-0.9°C 22.7°F-5.2°C 73% 8.0 mph N12.9 kmh N 18.0 mph29.0 kmh 29.66 in1004.4 mb 0.00 in0.0 mm 0.00 in0.0 mm 0.00 in0.0 mm
06:35 PM 30.4°F-0.9°C 22.8°F-5.1°C 73% 7.0 mph 11.3 kmh 18.0 mph29.0 kmh 29.66 in1004.4 mb 0.00 in0.0 mm 0.00 in0.0 mm 0.00 in0.0 mm
06:36 PM 30.4°F-0.9°C 22.8°F-5.1°C 73% 13.0 mph NE20.9 kmh NE 18.0 mph29.0 kmh 29.66 in1004.4 mb 0.00 in0.0 mm 0.00 in0.0 mm 0.00 in0.0 mm
06:37 PM 30.4°F-0.9°C 22.8°F-5.1°C 73% 8.0 mph NNW12.9 kmh NNW 17.0 mph27.4 kmh 29.66 in1004.4 mb 0.00 in0.0 mm 0.00 in0.0 mm 0.00 in0.0 mm
06:38 PM 30.4°F-0.9°C 22.8°F-5.1°C 73% 10.0 mph NE16.1 kmh NE 17.0 mph27.4 kmh 29.66 in1004.4 mb 0.00 in0.0 mm 0.00 in0.0 mm 0.00 in0.0 mm
06:39 PM 30.3°F-0.9°C 22.7°F-5.2°C 73% 14.0 mph NE22.5 kmh NE 17.0 mph27.4 kmh 29.66 in1004.4 mb 0.00 in0.0 mm 0.00 in0.0 mm 0.00 in0.0 mm
06:40 PM 30.4°F-0.9°C 22.8°F-5.1°C 73% 6.0 mph N9.7 kmh N 17.0 mph27.4 kmh 29.66 in1004.4 mb 0.00 in0.0 mm 0.00 in0.0 mm 0.00 in0.0 mm
06:41 PM 30.4°F-0.9°C 22.8°F-5.1°C 73% 11.0 mph NE17.7 kmh NE 17.0 mph27.4 kmh 29.66 in1004.4 mb 0.00 in0.0 mm 0.00 in0.0 mm 0.00 in0.0 mm
06:42 PM 30.4°F-0.9°C 22.8°F-5.1°C 73% 5.0 mph NNE8.0 kmh NNE 17.0 mph27.4 kmh 29.66 in1004.4 mb 0.00 in0.0 mm 0.00 in0.0 mm 0.00 in0.0 mm
06:43 PM 30.4°F-0.9°C 22.8°F-5.1°C 73% 8.0 mph N12.9 kmh N 17.0 mph27.4 kmh 29.66 in1004.4 mb 0.00 in0.0 mm 0.00 in0.0 mm 0.00 in0.0 mm
06:44 PM 30.3°F-0.9°C 22.7°F-5.2°C 73% 10.0 mph N16.1 kmh N 22.0 mph35.4 kmh 29.67 in1004.7 mb 0.00 in0.0 mm 0.00 in0.0 mm 0.00 in0.0 mm
06:45 PM 30.4°F-0.9°C 22.8°F-5.1°C 73% 5.0 mph N8.0 kmh N 22.0 mph35.4 kmh 29.66 in1004.4 mb 0.00 in0.0 mm 0.00 in0.0 mm 0.00 in0.0 mm
06:46 PM 30.4°F-0.9°C 22.8°F-5.1°C 73% 10.0 mph NNE16.1 kmh NNE 22.0 mph35.4 kmh 29.66 in1004.4 mb 0.00 in0.0 mm 0.00 in0.0 mm 0.00 in0.0 mm
06:47 PM 30.4°F-0.9°C 22.8°F-5.1°C 73% 11.0 mph N17.7 kmh N 22.0 mph35.4 kmh 29.67 in1004.7 mb 0.00 in0.0 mm 0.00 in0.0 mm 0.00 in0.0 mm
06:48 PM 30.4°F-0.9°C 22.5°F-5.3°C 72% 7.0 mph ENE11.3 kmh ENE 22.0 mph35.4 kmh 29.67 in1004.7 mb 0.00 in0.0 mm 0.00 in0.0 mm 0.00 in0.0 mm
06:49 PM 30.4°F-0.9°C 22.8°F-5.1°C 73% 8.0 mph 12.9 kmh 22.0 mph35.4 kmh 29.67 in1004.7 mb 0.00 in0.0 mm 0.00 in0.0 mm 0.00 in0.0 mm
06:50 PM 30.3°F-0.9°C 22.7°F-5.2°C 73% 9.0 mph NE14.5 kmh NE 22.0 mph35.4 kmh 29.66 in1004.4 mb 0.00 in0.0 mm 0.00 in0.0 mm 0.00 in0.0 mm
06:51 PM 30.3°F-0.9°C 22.4°F-5.3°C 72% 5.0 mph NNE8.0 kmh NNE 22.0 mph35.4 kmh 29.67 in1004.7 mb 0.00 in0.0 mm 0.00 in0.0 mm 0.00 in0.0 mm
06:52 PM 30.3°F-0.9°C 22.7°F-5.2°C 73% 5.0 mph N8.0 kmh N 22.0 mph35.4 kmh 29.67 in1004.7 mb 0.00 in0.0 mm 0.00 in0.0 mm 0.00 in0.0 mm
06:53 PM 30.3°F-0.9°C 22.4°F-5.3°C 72% 8.0 mph NNE12.9 kmh NNE 22.0 mph35.4 kmh 29.67 in1004.7 mb 0.00 in0.0 mm 0.00 in0.0 mm 0.00 in0.0 mm
06:54 PM 30.3°F-0.9°C 22.4°F-5.3°C 72% 13.0 mph N20.9 kmh N 22.0 mph35.4 kmh 29.67 in1004.7 mb 0.00 in0.0 mm 0.00 in0.0 mm 0.00 in0.0 mm
06:55 PM 30.3°F-0.9°C 22.4°F-5.3°C 72% 8.0 mph NNE12.9 kmh NNE 22.0 mph35.4 kmh 29.67 in1004.7 mb 0.00 in0.0 mm 0.00 in0.0 mm 0.00 in0.0 mm
06:56 PM 30.4°F-0.9°C 22.5°F-5.3°C 72% 7.0 mph N11.3 kmh N 22.0 mph35.4 kmh 29.67 in1004.7 mb 0.00 in0.0 mm 0.00 in0.0 mm 0.00 in0.0 mm
06:57 PM 30.4°F-0.9°C 22.5°F-5.3°C 72% 7.0 mph N11.3 kmh N 22.0 mph35.4 kmh 29.67 in1004.7 mb 0.00 in0.0 mm 0.00 in0.0 mm 0.00 in0.0 mm
06:58 PM 30.4°F-0.9°C 22.5°F-5.3°C 72% 6.0 mph 9.7 kmh 22.0 mph35.4 kmh 29.67 in1004.7 mb 0.00 in0.0 mm 0.00 in0.0 mm 0.00 in0.0 mm
06:59 PM 30.4°F-0.9°C 22.1°F-5.5°C 71% 14.0 mph NNE22.5 kmh NNE 22.0 mph35.4 kmh 29.67 in1004.7 mb 0.00 in0.0 mm 0.00 in0.0 mm 0.00 in0.0 mm
07:00 PM 30.4°F-0.9°C 22.1°F-5.5°C 71% 10.0 mph N16.1 kmh N 22.0 mph35.4 kmh 29.67 in1004.7 mb 0.00 in0.0 mm 0.00 in0.0 mm 0.00 in0.0 mm
07:01 PM 30.4°F-0.9°C 22.1°F-5.5°C 71% 6.0 mph N9.7 kmh N 22.0 mph35.4 kmh 29.67 in1004.7 mb 0.00 in0.0 mm 0.00 in0.0 mm 0.00 in0.0 mm
07:02 PM 30.4°F-0.9°C 22.1°F-5.5°C 71% 9.0 mph NE14.5 kmh NE 22.0 mph35.4 kmh 29.67 in1004.7 mb 0.00 in0.0 mm 0.00 in0.0 mm 0.00 in0.0 mm
07:03 PM 30.5°F-0.8°C 22.2°F-5.4°C 71% 6.0 mph 9.7 kmh 22.0 mph35.4 kmh 29.67 in1004.7 mb 0.00 in0.0 mm 0.00 in0.0 mm 0.00 in0.0 mm
07:04 PM 30.5°F-0.8°C 22.2°F-5.4°C 71% 12.0 mph NE19.3 kmh NE 18.0 mph29.0 kmh 29.68 in1005.1 mb 0.00 in0.0 mm 0.00 in0.0 mm 0.00 in0.0 mm
07:05 PM 30.5°F-0.8°C 22.2°F-5.4°C 71% 9.0 mph NNE14.5 kmh NNE 18.0 mph29.0 kmh 29.68 in1005.1 mb 0.00 in0.0 mm 0.00 in0.0 mm 0.00 in0.0 mm
07:06 PM 30.5°F-0.8°C 22.2°F-5.4°C 71% 8.0 mph NE12.9 kmh NE 18.0 mph29.0 kmh 29.68 in1005.1 mb 0.00 in0.0 mm 0.00 in0.0 mm 0.00 in0.0 mm
07:07 PM 30.5°F-0.8°C 22.2°F-5.4°C 71% 5.0 mph NNE8.0 kmh NNE 18.0 mph29.0 kmh 29.68 in1005.1 mb 0.00 in0.0 mm 0.00 in0.0 mm 0.00 in0.0 mm
07:08 PM 30.5°F-0.8°C 22.6°F-5.2°C 72% 9.0 mph NE14.5 kmh NE 18.0 mph29.0 kmh 29.68 in1005.1 mb 0.00 in0.0 mm 0.00 in0.0 mm 0.00 in0.0 mm
07:09 PM 30.4°F-0.9°C 22.1°F-5.5°C 71% 12.0 mph N19.3 kmh N 18.0 mph29.0 kmh 29.68 in1005.1 mb 0.00 in0.0 mm 0.00 in0.0 mm 0.00 in0.0 mm
07:10 PM 30.5°F-0.8°C 22.2°F-5.4°C 71% 10.0 mph NNE16.1 kmh NNE 18.0 mph29.0 kmh 29.68 in1005.1 mb 0.00 in0.0 mm 0.00 in0.0 mm 0.00 in0.0 mm
07:11 PM 30.4°F-0.9°C 22.1°F-5.5°C 71% 8.0 mph NNE12.9 kmh NNE 18.0 mph29.0 kmh 29.68 in1005.1 mb 0.00 in0.0 mm 0.00 in0.0 mm 0.00 in0.0 mm
07:12 PM 30.4°F-0.9°C 22.1°F-5.5°C 71% 10.0 mph NE16.1 kmh NE 18.0 mph29.0 kmh 29.68 in1005.1 mb 0.00 in0.0 mm 0.00 in0.0 mm 0.00 in0.0 mm
07:13 PM 30.4°F-0.9°C 22.1°F-5.5°C 71% 12.0 mph NNE19.3 kmh NNE 20.0 mph32.2 kmh 29.68 in1005.1 mb 0.00 in0.0 mm 0.00 in0.0 mm 0.00 in0.0 mm
07:14 PM 30.4°F-0.9°C 22.1°F-5.5°C 71% 13.0 mph NNE20.9 kmh NNE 20.0 mph32.2 kmh 29.68 in1005.1 mb 0.00 in0.0 mm 0.00 in0.0 mm 0.00 in0.0 mm
07:15 PM 30.4°F-0.9°C 22.1°F-5.5°C 71% 8.0 mph NNW12.9 kmh NNW 20.0 mph32.2 kmh 29.68 in1005.1 mb 0.00 in0.0 mm 0.00 in0.0 mm 0.00 in0.0 mm
07:16 PM 30.4°F-0.9°C 22.1°F-5.5°C 71% 10.0 mph NE16.1 kmh NE 20.0 mph32.2 kmh 29.68 in1005.1 mb 0.00 in0.0 mm 0.00 in0.0 mm 0.00 in0.0 mm
07:17 PM 30.5°F-0.8°C 22.2°F-5.4°C 71% 6.0 mph 9.7 kmh 20.0 mph32.2 kmh 29.68 in1005.1 mb 0.00 in0.0 mm 0.00 in0.0 mm 0.00 in0.0 mm
07:18 PM 30.4°F-0.9°C 22.1°F-5.5°C 71% 5.0 mph NE8.0 kmh NE 20.0 mph32.2 kmh 29.68 in1005.1 mb 0.00 in0.0 mm 0.00 in0.0 mm 0.00 in0.0 mm
07:19 PM 30.5°F-0.8°C 22.2°F-5.4°C 71% 10.0 mph N16.1 kmh N 20.0 mph32.2 kmh 29.68 in1005.1 mb 0.00 in0.0 mm 0.00 in0.0 mm 0.00 in0.0 mm
07:20 PM 30.4°F-0.9°C 22.1°F-5.5°C 71% 7.0 mph NE11.3 kmh NE 20.0 mph32.2 kmh 29.68 in1005.1 mb 0.00 in0.0 mm 0.00 in0.0 mm 0.00 in0.0 mm
07:21 PM 30.4°F-0.9°C 22.1°F-5.5°C 71% 9.0 mph N14.5 kmh N 20.0 mph32.2 kmh 29.68 in1005.1 mb 0.00 in0.0 mm 0.00 in0.0 mm 0.00 in0.0 mm
07:22 PM 30.4°F-0.9°C 22.1°F-5.5°C 71% 10.0 mph N16.1 kmh N 20.0 mph32.2 kmh 29.68 in1005.1 mb 0.00 in0.0 mm 0.00 in0.0 mm 0.00 in0.0 mm
07:23 PM 30.4°F-0.9°C 22.1°F-5.5°C 71% 8.0 mph NE12.9 kmh NE 20.0 mph32.2 kmh 29.68 in1005.1 mb 0.00 in0.0 mm 0.00 in0.0 mm 0.00 in0.0 mm
07:24 PM 30.4°F-0.9°C 21.8°F-5.7°C 70% 13.0 mph NNE20.9 kmh NNE 20.0 mph32.2 kmh 29.68 in1005.1 mb 0.00 in0.0 mm 0.00 in0.0 mm 0.00 in0.0 mm
07:25 PM 30.4°F-0.9°C 21.8°F-5.7°C 70% 10.0 mph NE16.1 kmh NE 20.0 mph32.2 kmh 29.68 in1005.1 mb 0.00 in0.0 mm 0.00 in0.0 mm 0.00 in0.0 mm
07:26 PM 30.4°F-0.9°C 21.8°F-5.7°C 70% 9.0 mph NE14.5 kmh NE 20.0 mph32.2 kmh 29.68 in1005.1 mb 0.00 in0.0 mm 0.00 in0.0 mm 0.00 in0.0 mm
07:27 PM 30.4°F-0.9°C 21.8°F-5.7°C 70% 8.0 mph N12.9 kmh N 20.0 mph32.2 kmh 29.68 in1005.1 mb 0.00 in0.0 mm 0.00 in0.0 mm 0.00 in0.0 mm
07:28 PM 30.4°F-0.9°C 21.8°F-5.7°C 70% 8.0 mph NE12.9 kmh NE 20.0 mph32.2 kmh 29.69 in1005.4 mb 0.00 in0.0 mm 0.00 in0.0 mm 0.00 in0.0 mm
07:29 PM 30.4°F-0.9°C 21.8°F-5.7°C 70% 8.0 mph NE12.9 kmh NE 20.0 mph32.2 kmh 29.69 in1005.4 mb 0.00 in0.0 mm 0.00 in0.0 mm 0.00 in0.0 mm
07:30 PM 30.4°F-0.9°C 21.8°F-5.7°C 70% 10.0 mph NNE16.1 kmh NNE 20.0 mph32.2 kmh 29.69 in1005.4 mb 0.00 in0.0 mm 0.00 in0.0 mm 0.00 in0.0 mm
07:31 PM 30.4°F-0.9°C 21.8°F-5.7°C 70% 6.0 mph NNE9.7 kmh NNE 20.0 mph32.2 kmh 29.68 in1005.1 mb 0.00 in0.0 mm 0.00 in0.0 mm 0.00 in0.0 mm
07:32 PM 30.4°F-0.9°C 21.8°F-5.7°C 70% 10.0 mph N16.1 kmh N 20.0 mph32.2 kmh 29.68 in1005.1 mb 0.00 in0.0 mm 0.00 in0.0 mm 0.00 in0.0 mm
07:33 PM 30.4°F-0.9°C